<?xml version="1.0" encoding="UTF-8" standalone="no" ?>
<gpx xmlns="http://www.topografix.com/GPX/1/1" xmlns:xsi="http://www.w3.org/2001/XMLSchema-instance" xsi:schemaLocation="http://www.topografix.com/GPX/1/1 http://www.topografix.com/GPX/1/1/gpx.xsd" version="1.1" creator="VisuGPX - https://www.visugpx.com">
  <metadata>
    <name>83-Mj-2012-18-04-Collobrières-Le Grand Gaget</name>
    <desc><![CDATA[Collobrières-Le Grand Gaget]]></desc>
  </metadata>
  <trk>
    <name><![CDATA[2012-04-18-collobrieres]]></name>
    <trkseg>
      <trkpt lat="43.22932" lon="6.27638">
        <ele>161.510574</ele>
        <time>2012-04-18T07:17:19Z</time>
      </trkpt>
      <trkpt lat="43.22924" lon="6.27642">
        <ele>163.724976</ele>
        <time>2012-04-18T07:25:17Z</time>
      </trkpt>
      <trkpt lat="43.22922" lon="6.27642">
        <ele>163.60051</ele>
        <time>2012-04-18T07:25:18Z</time>
      </trkpt>
      <trkpt lat="43.22915" lon="6.27631">
        <ele>160.899994</ele>
        <time>2012-04-18T07:25:37Z</time>
      </trkpt>
      <trkpt lat="43.22915" lon="6.27619">
        <ele>160.699997</ele>
        <time>2012-04-18T07:25:46Z</time>
      </trkpt>
      <trkpt lat="43.22916" lon="6.27607">
        <ele>159.600006</ele>
        <time>2012-04-18T07:25:55Z</time>
      </trkpt>
      <trkpt lat="43.22916" lon="6.27595">
        <ele>158.300003</ele>
        <time>2012-04-18T07:26:03Z</time>
      </trkpt>
      <trkpt lat="43.22914" lon="6.27583">
        <ele>157</ele>
        <time>2012-04-18T07:26:11Z</time>
      </trkpt>
      <trkpt lat="43.22912" lon="6.27571">
        <ele>156.600006</ele>
        <time>2012-04-18T07:26:19Z</time>
      </trkpt>
      <trkpt lat="43.22912" lon="6.2757">
        <ele>156.399994</ele>
        <time>2012-04-18T07:26:20Z</time>
      </trkpt>
      <trkpt lat="43.22907" lon="6.27549">
        <ele>154.300003</ele>
        <time>2012-04-18T07:26:34Z</time>
      </trkpt>
      <trkpt lat="43.22901" lon="6.27542">
        <ele>153.300003</ele>
        <time>2012-04-18T07:26:41Z</time>
      </trkpt>
      <trkpt lat="43.22892" lon="6.27539">
        <ele>152.899994</ele>
        <time>2012-04-18T07:26:49Z</time>
      </trkpt>
      <trkpt lat="43.22885" lon="6.27543">
        <ele>153.399994</ele>
        <time>2012-04-18T07:26:57Z</time>
      </trkpt>
      <trkpt lat="43.22879" lon="6.27552">
        <ele>153.300003</ele>
        <time>2012-04-18T07:27:05Z</time>
      </trkpt>
      <trkpt lat="43.22873" lon="6.27561">
        <ele>153.199997</ele>
        <time>2012-04-18T07:27:14Z</time>
      </trkpt>
      <trkpt lat="43.2287" lon="6.27571">
        <ele>153.600006</ele>
        <time>2012-04-18T07:27:23Z</time>
      </trkpt>
      <trkpt lat="43.22869" lon="6.27573">
        <ele>153.699997</ele>
        <time>2012-04-18T07:27:24Z</time>
      </trkpt>
      <trkpt lat="43.2286" lon="6.27591">
        <ele>154.899994</ele>
        <time>2012-04-18T07:27:39Z</time>
      </trkpt>
      <trkpt lat="43.22854" lon="6.276">
        <ele>155.600006</ele>
        <time>2012-04-18T07:27:47Z</time>
      </trkpt>
      <trkpt lat="43.22848" lon="6.27608">
        <ele>155.600006</ele>
        <time>2012-04-18T07:27:55Z</time>
      </trkpt>
      <trkpt lat="43.22841" lon="6.27613">
        <ele>156.800003</ele>
        <time>2012-04-18T07:28:02Z</time>
      </trkpt>
      <trkpt lat="43.22835" lon="6.27621">
        <ele>157.800003</ele>
        <time>2012-04-18T07:28:09Z</time>
      </trkpt>
      <trkpt lat="43.2283" lon="6.27631">
        <ele>158.600006</ele>
        <time>2012-04-18T07:28:17Z</time>
      </trkpt>
      <trkpt lat="43.22824" lon="6.2764">
        <ele>159.600006</ele>
        <time>2012-04-18T07:28:25Z</time>
      </trkpt>
      <trkpt lat="43.22824" lon="6.27641">
        <ele>159.300003</ele>
        <time>2012-04-18T07:28:26Z</time>
      </trkpt>
      <trkpt lat="43.22813" lon="6.27657">
        <ele>160.600006</ele>
        <time>2012-04-18T07:28:41Z</time>
      </trkpt>
      <trkpt lat="43.22807" lon="6.27664">
        <ele>160.699997</ele>
        <time>2012-04-18T07:28:48Z</time>
      </trkpt>
      <trkpt lat="43.22801" lon="6.27671">
        <ele>160.800003</ele>
        <time>2012-04-18T07:28:55Z</time>
      </trkpt>
      <trkpt lat="43.22794" lon="6.27678">
        <ele>161.199997</ele>
        <time>2012-04-18T07:29:02Z</time>
      </trkpt>
      <trkpt lat="43.22788" lon="6.27684">
        <ele>161.100006</ele>
        <time>2012-04-18T07:29:09Z</time>
      </trkpt>
      <trkpt lat="43.2278" lon="6.27691">
        <ele>161.800003</ele>
        <time>2012-04-18T07:29:16Z</time>
      </trkpt>
      <trkpt lat="43.22774" lon="6.27699">
        <ele>162.699997</ele>
        <time>2012-04-18T07:29:25Z</time>
      </trkpt>
      <trkpt lat="43.22768" lon="6.27706">
        <ele>163.399994</ele>
        <time>2012-04-18T07:29:33Z</time>
      </trkpt>
      <trkpt lat="43.22767" lon="6.27707">
        <ele>163.5</ele>
        <time>2012-04-18T07:29:34Z</time>
      </trkpt>
      <trkpt lat="43.22755" lon="6.27723">
        <ele>163.899994</ele>
        <time>2012-04-18T07:29:49Z</time>
      </trkpt>
      <trkpt lat="43.2275" lon="6.27732">
        <ele>164.399994</ele>
        <time>2012-04-18T07:29:56Z</time>
      </trkpt>
      <trkpt lat="43.22744" lon="6.27739">
        <ele>163.899994</ele>
        <time>2012-04-18T07:30:02Z</time>
      </trkpt>
      <trkpt lat="43.22737" lon="6.27747">
        <ele>163.100006</ele>
        <time>2012-04-18T07:30:09Z</time>
      </trkpt>
      <trkpt lat="43.2273" lon="6.27753">
        <ele>164.5</ele>
        <time>2012-04-18T07:30:16Z</time>
      </trkpt>
      <trkpt lat="43.22722" lon="6.27757">
        <ele>163.5</ele>
        <time>2012-04-18T07:30:22Z</time>
      </trkpt>
      <trkpt lat="43.22715" lon="6.27761">
        <ele>163.5</ele>
        <time>2012-04-18T07:30:28Z</time>
      </trkpt>
      <trkpt lat="43.22707" lon="6.27765">
        <ele>163.399994</ele>
        <time>2012-04-18T07:30:35Z</time>
      </trkpt>
      <trkpt lat="43.22706" lon="6.27766">
        <ele>163.300003</ele>
        <time>2012-04-18T07:30:36Z</time>
      </trkpt>
      <trkpt lat="43.22691" lon="6.27775">
        <ele>162.100006</ele>
        <time>2012-04-18T07:30:50Z</time>
      </trkpt>
      <trkpt lat="43.22682" lon="6.27777">
        <ele>160.899994</ele>
        <time>2012-04-18T07:30:58Z</time>
      </trkpt>
      <trkpt lat="43.22673" lon="6.27777">
        <ele>160.100006</ele>
        <time>2012-04-18T07:31:07Z</time>
      </trkpt>
      <trkpt lat="43.22665" lon="6.27776">
        <ele>160.800003</ele>
        <time>2012-04-18T07:31:14Z</time>
      </trkpt>
      <trkpt lat="43.22657" lon="6.27778">
        <ele>160.800003</ele>
        <time>2012-04-18T07:31:21Z</time>
      </trkpt>
      <trkpt lat="43.22648" lon="6.2778">
        <ele>161</ele>
        <time>2012-04-18T07:31:28Z</time>
      </trkpt>
      <trkpt lat="43.22639" lon="6.27783">
        <ele>160.5</ele>
        <time>2012-04-18T07:31:36Z</time>
      </trkpt>
      <trkpt lat="43.22638" lon="6.27783">
        <ele>160.399994</ele>
        <time>2012-04-18T07:31:37Z</time>
      </trkpt>
      <trkpt lat="43.22624" lon="6.27792">
        <ele>161.399994</ele>
        <time>2012-04-18T07:31:49Z</time>
      </trkpt>
      <trkpt lat="43.22617" lon="6.27799">
        <ele>161.300003</ele>
        <time>2012-04-18T07:31:56Z</time>
      </trkpt>
      <trkpt lat="43.2261" lon="6.27805">
        <ele>162.199997</ele>
        <time>2012-04-18T07:32:03Z</time>
      </trkpt>
      <trkpt lat="43.22603" lon="6.27814">
        <ele>162.399994</ele>
        <time>2012-04-18T07:32:11Z</time>
      </trkpt>
      <trkpt lat="43.22597" lon="6.27822">
        <ele>163.199997</ele>
        <time>2012-04-18T07:32:19Z</time>
      </trkpt>
      <trkpt lat="43.2259" lon="6.2783">
        <ele>162.899994</ele>
        <time>2012-04-18T07:32:27Z</time>
      </trkpt>
      <trkpt lat="43.22583" lon="6.27836">
        <ele>162.899994</ele>
        <time>2012-04-18T07:32:34Z</time>
      </trkpt>
      <trkpt lat="43.22577" lon="6.27844">
        <ele>163.300003</ele>
        <time>2012-04-18T07:32:42Z</time>
      </trkpt>
      <trkpt lat="43.22576" lon="6.27845">
        <ele>163.5</ele>
        <time>2012-04-18T07:32:43Z</time>
      </trkpt>
      <trkpt lat="43.22563" lon="6.27858">
        <ele>164.899994</ele>
        <time>2012-04-18T07:32:58Z</time>
      </trkpt>
      <trkpt lat="43.22557" lon="6.27865">
        <ele>165.100006</ele>
        <time>2012-04-18T07:33:04Z</time>
      </trkpt>
      <trkpt lat="43.22551" lon="6.27875">
        <ele>166.100006</ele>
        <time>2012-04-18T07:33:12Z</time>
      </trkpt>
      <trkpt lat="43.22546" lon="6.27884">
        <ele>166.399994</ele>
        <time>2012-04-18T07:33:19Z</time>
      </trkpt>
      <trkpt lat="43.22542" lon="6.27893">
        <ele>166.399994</ele>
        <time>2012-04-18T07:33:27Z</time>
      </trkpt>
      <trkpt lat="43.22536" lon="6.27901">
        <ele>167.5</ele>
        <time>2012-04-18T07:33:35Z</time>
      </trkpt>
      <trkpt lat="43.22529" lon="6.27908">
        <ele>167.300003</ele>
        <time>2012-04-18T07:33:43Z</time>
      </trkpt>
      <trkpt lat="43.22528" lon="6.27908">
        <ele>167.300003</ele>
        <time>2012-04-18T07:33:44Z</time>
      </trkpt>
      <trkpt lat="43.22514" lon="6.27919">
        <ele>169.800003</ele>
        <time>2012-04-18T07:34:00Z</time>
      </trkpt>
      <trkpt lat="43.22507" lon="6.27925">
        <ele>170.600006</ele>
        <time>2012-04-18T07:34:08Z</time>
      </trkpt>
      <trkpt lat="43.22501" lon="6.27932">
        <ele>171.699997</ele>
        <time>2012-04-18T07:34:15Z</time>
      </trkpt>
      <trkpt lat="43.22495" lon="6.27938">
        <ele>172.600006</ele>
        <time>2012-04-18T07:34:22Z</time>
      </trkpt>
      <trkpt lat="43.22487" lon="6.27945">
        <ele>172.899994</ele>
        <time>2012-04-18T07:34:31Z</time>
      </trkpt>
      <trkpt lat="43.22481" lon="6.27953">
        <ele>173.699997</ele>
        <time>2012-04-18T07:34:39Z</time>
      </trkpt>
      <trkpt lat="43.22473" lon="6.2796">
        <ele>173.899994</ele>
        <time>2012-04-18T07:34:47Z</time>
      </trkpt>
      <trkpt lat="43.22472" lon="6.2796">
        <ele>173.800003</ele>
        <time>2012-04-18T07:34:48Z</time>
      </trkpt>
      <trkpt lat="43.22458" lon="6.27969">
        <ele>175.5</ele>
        <time>2012-04-18T07:35:02Z</time>
      </trkpt>
      <trkpt lat="43.22451" lon="6.27975">
        <ele>175.600006</ele>
        <time>2012-04-18T07:35:09Z</time>
      </trkpt>
      <trkpt lat="43.22444" lon="6.27981">
        <ele>175.600006</ele>
        <time>2012-04-18T07:35:15Z</time>
      </trkpt>
      <trkpt lat="43.22437" lon="6.27988">
        <ele>175.600006</ele>
        <time>2012-04-18T07:35:23Z</time>
      </trkpt>
      <trkpt lat="43.22431" lon="6.27996">
        <ele>176.5</ele>
        <time>2012-04-18T07:35:32Z</time>
      </trkpt>
      <trkpt lat="43.22423" lon="6.28001">
        <ele>176.100006</ele>
        <time>2012-04-18T07:35:39Z</time>
      </trkpt>
      <trkpt lat="43.22415" lon="6.28004">
        <ele>176.800003</ele>
        <time>2012-04-18T07:35:46Z</time>
      </trkpt>
      <trkpt lat="43.22407" lon="6.28006">
        <ele>176.800003</ele>
        <time>2012-04-18T07:35:52Z</time>
      </trkpt>
      <trkpt lat="43.22406" lon="6.28007">
        <ele>176.600006</ele>
        <time>2012-04-18T07:35:53Z</time>
      </trkpt>
      <trkpt lat="43.22391" lon="6.28013">
        <ele>177</ele>
        <time>2012-04-18T07:36:09Z</time>
      </trkpt>
      <trkpt lat="43.22382" lon="6.28016">
        <ele>177.899994</ele>
        <time>2012-04-18T07:36:19Z</time>
      </trkpt>
      <trkpt lat="43.22375" lon="6.28019">
        <ele>177.699997</ele>
        <time>2012-04-18T07:36:24Z</time>
      </trkpt>
      <trkpt lat="43.22366" lon="6.2802">
        <ele>177.699997</ele>
        <time>2012-04-18T07:36:31Z</time>
      </trkpt>
      <trkpt lat="43.22358" lon="6.2802">
        <ele>178.699997</ele>
        <time>2012-04-18T07:36:38Z</time>
      </trkpt>
      <trkpt lat="43.2235" lon="6.28018">
        <ele>177.800003</ele>
        <time>2012-04-18T07:36:46Z</time>
      </trkpt>
      <trkpt lat="43.22341" lon="6.28015">
        <ele>176.899994</ele>
        <time>2012-04-18T07:36:55Z</time>
      </trkpt>
      <trkpt lat="43.2234" lon="6.28014">
        <ele>176.899994</ele>
        <time>2012-04-18T07:36:56Z</time>
      </trkpt>
      <trkpt lat="43.22324" lon="6.28013">
        <ele>176.600006</ele>
        <time>2012-04-18T07:37:08Z</time>
      </trkpt>
      <trkpt lat="43.22316" lon="6.28014">
        <ele>177.100006</ele>
        <time>2012-04-18T07:37:14Z</time>
      </trkpt>
      <trkpt lat="43.22308" lon="6.28016">
        <ele>177.100006</ele>
        <time>2012-04-18T07:37:21Z</time>
      </trkpt>
      <trkpt lat="43.22299" lon="6.28018">
        <ele>177.5</ele>
        <time>2012-04-18T07:37:29Z</time>
      </trkpt>
      <trkpt lat="43.22292" lon="6.28021">
        <ele>177.199997</ele>
        <time>2012-04-18T07:37:36Z</time>
      </trkpt>
      <trkpt lat="43.22284" lon="6.28024">
        <ele>177.399994</ele>
        <time>2012-04-18T07:37:43Z</time>
      </trkpt>
      <trkpt lat="43.22275" lon="6.28026">
        <ele>177.600006</ele>
        <time>2012-04-18T07:37:52Z</time>
      </trkpt>
      <trkpt lat="43.22267" lon="6.28028">
        <ele>177.800003</ele>
        <time>2012-04-18T07:37:58Z</time>
      </trkpt>
      <trkpt lat="43.22265" lon="6.28028">
        <ele>177.800003</ele>
        <time>2012-04-18T07:37:59Z</time>
      </trkpt>
      <trkpt lat="43.2225" lon="6.28034">
        <ele>178.399994</ele>
        <time>2012-04-18T07:38:12Z</time>
      </trkpt>
      <trkpt lat="43.22242" lon="6.28039">
        <ele>177.699997</ele>
        <time>2012-04-18T07:38:20Z</time>
      </trkpt>
      <trkpt lat="43.22234" lon="6.28045">
        <ele>178.899994</ele>
        <time>2012-04-18T07:38:28Z</time>
      </trkpt>
      <trkpt lat="43.22227" lon="6.28051">
        <ele>179.399994</ele>
        <time>2012-04-18T07:38:36Z</time>
      </trkpt>
      <trkpt lat="43.22221" lon="6.28058">
        <ele>180.300003</ele>
        <time>2012-04-18T07:38:43Z</time>
      </trkpt>
      <trkpt lat="43.22214" lon="6.28066">
        <ele>181.600006</ele>
        <time>2012-04-18T07:38:51Z</time>
      </trkpt>
      <trkpt lat="43.22208" lon="6.28073">
        <ele>182.100006</ele>
        <time>2012-04-18T07:38:59Z</time>
      </trkpt>
      <trkpt lat="43.22207" lon="6.28074">
        <ele>182.100006</ele>
        <time>2012-04-18T07:39:00Z</time>
      </trkpt>
      <trkpt lat="43.22194" lon="6.28088">
        <ele>183.5</ele>
        <time>2012-04-18T07:39:16Z</time>
      </trkpt>
      <trkpt lat="43.22187" lon="6.28094">
        <ele>184.300003</ele>
        <time>2012-04-18T07:39:25Z</time>
      </trkpt>
      <trkpt lat="43.22179" lon="6.281">
        <ele>185.699997</ele>
        <time>2012-04-18T07:39:34Z</time>
      </trkpt>
      <trkpt lat="43.22172" lon="6.28107">
        <ele>187</ele>
        <time>2012-04-18T07:39:42Z</time>
      </trkpt>
      <trkpt lat="43.22165" lon="6.28114">
        <ele>188.199997</ele>
        <time>2012-04-18T07:39:50Z</time>
      </trkpt>
      <trkpt lat="43.22157" lon="6.28119">
        <ele>188.100006</ele>
        <time>2012-04-18T07:40:01Z</time>
      </trkpt>
      <trkpt lat="43.22156" lon="6.28119">
        <ele>188</ele>
        <time>2012-04-18T07:40:02Z</time>
      </trkpt>
      <trkpt lat="43.22143" lon="6.28128">
        <ele>187.600006</ele>
        <time>2012-04-18T07:40:15Z</time>
      </trkpt>
      <trkpt lat="43.22135" lon="6.2813">
        <ele>187.5</ele>
        <time>2012-04-18T07:40:21Z</time>
      </trkpt>
      <trkpt lat="43.22127" lon="6.28131">
        <ele>187.899994</ele>
        <time>2012-04-18T07:40:31Z</time>
      </trkpt>
      <trkpt lat="43.22119" lon="6.28134">
        <ele>188.399994</ele>
        <time>2012-04-18T07:40:39Z</time>
      </trkpt>
      <trkpt lat="43.2211" lon="6.28135">
        <ele>188.800003</ele>
        <time>2012-04-18T07:40:49Z</time>
      </trkpt>
      <trkpt lat="43.22102" lon="6.28136">
        <ele>189</ele>
        <time>2012-04-18T07:40:56Z</time>
      </trkpt>
      <trkpt lat="43.22093" lon="6.28138">
        <ele>190.100006</ele>
        <time>2012-04-18T07:41:04Z</time>
      </trkpt>
      <trkpt lat="43.22092" lon="6.28138">
        <ele>190.300003</ele>
        <time>2012-04-18T07:41:05Z</time>
      </trkpt>
      <trkpt lat="43.22076" lon="6.28143">
        <ele>193.600006</ele>
        <time>2012-04-18T07:41:27Z</time>
      </trkpt>
      <trkpt lat="43.22068" lon="6.28145">
        <ele>195.100006</ele>
        <time>2012-04-18T07:41:37Z</time>
      </trkpt>
      <trkpt lat="43.2206" lon="6.28148">
        <ele>196</ele>
        <time>2012-04-18T07:41:44Z</time>
      </trkpt>
      <trkpt lat="43.22051" lon="6.28145">
        <ele>196.600006</ele>
        <time>2012-04-18T07:41:52Z</time>
      </trkpt>
      <trkpt lat="43.22043" lon="6.28144">
        <ele>197.600006</ele>
        <time>2012-04-18T07:42:00Z</time>
      </trkpt>
      <trkpt lat="43.22034" lon="6.28142">
        <ele>198.399994</ele>
        <time>2012-04-18T07:42:07Z</time>
      </trkpt>
      <trkpt lat="43.22033" lon="6.28142">
        <ele>198.300003</ele>
        <time>2012-04-18T07:42:08Z</time>
      </trkpt>
      <trkpt lat="43.22017" lon="6.28139">
        <ele>199.899994</ele>
        <time>2012-04-18T07:42:28Z</time>
      </trkpt>
      <trkpt lat="43.2201" lon="6.2814">
        <ele>201.100006</ele>
        <time>2012-04-18T07:42:39Z</time>
      </trkpt>
      <trkpt lat="43.22001" lon="6.28141">
        <ele>201</ele>
        <time>2012-04-18T07:42:50Z</time>
      </trkpt>
      <trkpt lat="43.21994" lon="6.28136">
        <ele>201.600006</ele>
        <time>2012-04-18T07:42:59Z</time>
      </trkpt>
      <trkpt lat="43.21986" lon="6.28134">
        <ele>202.100006</ele>
        <time>2012-04-18T07:43:06Z</time>
      </trkpt>
      <trkpt lat="43.21978" lon="6.28133">
        <ele>202</ele>
        <time>2012-04-18T07:43:12Z</time>
      </trkpt>
      <trkpt lat="43.21977" lon="6.28133">
        <ele>202</ele>
        <time>2012-04-18T07:43:13Z</time>
      </trkpt>
      <trkpt lat="43.21963" lon="6.28127">
        <ele>202</ele>
        <time>2012-04-18T07:43:28Z</time>
      </trkpt>
      <trkpt lat="43.21954" lon="6.28127">
        <ele>203.100006</ele>
        <time>2012-04-18T07:43:37Z</time>
      </trkpt>
      <trkpt lat="43.21946" lon="6.28129">
        <ele>203.399994</ele>
        <time>2012-04-18T07:43:44Z</time>
      </trkpt>
      <trkpt lat="43.21938" lon="6.28131">
        <ele>203</ele>
        <time>2012-04-18T07:43:52Z</time>
      </trkpt>
      <trkpt lat="43.21929" lon="6.28131">
        <ele>203.600006</ele>
        <time>2012-04-18T07:44:01Z</time>
      </trkpt>
      <trkpt lat="43.21921" lon="6.2813">
        <ele>203.800003</ele>
        <time>2012-04-18T07:44:09Z</time>
      </trkpt>
      <trkpt lat="43.21913" lon="6.28128">
        <ele>204.600006</ele>
        <time>2012-04-18T07:44:19Z</time>
      </trkpt>
      <trkpt lat="43.21911" lon="6.28128">
        <ele>204.699997</ele>
        <time>2012-04-18T07:44:20Z</time>
      </trkpt>
      <trkpt lat="43.21896" lon="6.28128">
        <ele>204.199997</ele>
        <time>2012-04-18T07:44:31Z</time>
      </trkpt>
      <trkpt lat="43.21887" lon="6.28129">
        <ele>204.899994</ele>
        <time>2012-04-18T07:44:41Z</time>
      </trkpt>
      <trkpt lat="43.21879" lon="6.28134">
        <ele>208</ele>
        <time>2012-04-18T07:45:02Z</time>
      </trkpt>
      <trkpt lat="43.21875" lon="6.28143">
        <ele>211.199997</ele>
        <time>2012-04-18T07:45:18Z</time>
      </trkpt>
      <trkpt lat="43.21867" lon="6.28148">
        <ele>212</ele>
        <time>2012-04-18T07:45:30Z</time>
      </trkpt>
      <trkpt lat="43.21866" lon="6.28149">
        <ele>212.100006</ele>
        <time>2012-04-18T07:45:31Z</time>
      </trkpt>
      <trkpt lat="43.21851" lon="6.28157">
        <ele>213.899994</ele>
        <time>2012-04-18T07:45:51Z</time>
      </trkpt>
      <trkpt lat="43.21843" lon="6.28162">
        <ele>215.300003</ele>
        <time>2012-04-18T07:46:02Z</time>
      </trkpt>
      <trkpt lat="43.21835" lon="6.28165">
        <ele>216.699997</ele>
        <time>2012-04-18T07:46:15Z</time>
      </trkpt>
      <trkpt lat="43.21827" lon="6.28168">
        <ele>217.199997</ele>
        <time>2012-04-18T07:46:30Z</time>
      </trkpt>
      <trkpt lat="43.2182" lon="6.28176">
        <ele>219.699997</ele>
        <time>2012-04-18T07:46:56Z</time>
      </trkpt>
      <trkpt lat="43.2182" lon="6.28177">
        <ele>219.699997</ele>
        <time>2012-04-18T07:46:57Z</time>
      </trkpt>
      <trkpt lat="43.21805" lon="6.28188">
        <ele>223.199997</ele>
        <time>2012-04-18T07:47:22Z</time>
      </trkpt>
      <trkpt lat="43.21799" lon="6.28195">
        <ele>224.699997</ele>
        <time>2012-04-18T07:47:29Z</time>
      </trkpt>
      <trkpt lat="43.21792" lon="6.28202">
        <ele>225.800003</ele>
        <time>2012-04-18T07:47:38Z</time>
      </trkpt>
      <trkpt lat="43.21784" lon="6.28207">
        <ele>228</ele>
        <time>2012-04-18T07:47:49Z</time>
      </trkpt>
      <trkpt lat="43.21777" lon="6.28213">
        <ele>229.199997</ele>
        <time>2012-04-18T07:47:59Z</time>
      </trkpt>
      <trkpt lat="43.21777" lon="6.28214">
        <ele>229.199997</ele>
        <time>2012-04-18T07:48:00Z</time>
      </trkpt>
      <trkpt lat="43.21765" lon="6.2823">
        <ele>229.600006</ele>
        <time>2012-04-18T07:48:17Z</time>
      </trkpt>
      <trkpt lat="43.21761" lon="6.2824">
        <ele>229.899994</ele>
        <time>2012-04-18T07:48:26Z</time>
      </trkpt>
      <trkpt lat="43.21755" lon="6.28247">
        <ele>229.699997</ele>
        <time>2012-04-18T07:48:37Z</time>
      </trkpt>
      <trkpt lat="43.21747" lon="6.28253">
        <ele>229</ele>
        <time>2012-04-18T07:48:47Z</time>
      </trkpt>
      <trkpt lat="43.21741" lon="6.2826">
        <ele>230.100006</ele>
        <time>2012-04-18T07:48:55Z</time>
      </trkpt>
      <trkpt lat="43.21734" lon="6.28267">
        <ele>230.5</ele>
        <time>2012-04-18T07:49:04Z</time>
      </trkpt>
      <trkpt lat="43.21733" lon="6.28267">
        <ele>230.699997</ele>
        <time>2012-04-18T07:49:05Z</time>
      </trkpt>
      <trkpt lat="43.21721" lon="6.28281">
        <ele>231.199997</ele>
        <time>2012-04-18T07:49:19Z</time>
      </trkpt>
      <trkpt lat="43.21717" lon="6.28292">
        <ele>232.399994</ele>
        <time>2012-04-18T07:49:29Z</time>
      </trkpt>
      <trkpt lat="43.21712" lon="6.28301">
        <ele>231.800003</ele>
        <time>2012-04-18T07:49:38Z</time>
      </trkpt>
      <trkpt lat="43.21705" lon="6.28307">
        <ele>231.800003</ele>
        <time>2012-04-18T07:49:49Z</time>
      </trkpt>
      <trkpt lat="43.21698" lon="6.28314">
        <ele>233.5</ele>
        <time>2012-04-18T07:50:00Z</time>
      </trkpt>
      <trkpt lat="43.21694" lon="6.28324">
        <ele>234.199997</ele>
        <time>2012-04-18T07:50:11Z</time>
      </trkpt>
      <trkpt lat="43.21693" lon="6.28326">
        <ele>234.300003</ele>
        <time>2012-04-18T07:50:12Z</time>
      </trkpt>
      <trkpt lat="43.21681" lon="6.28341">
        <ele>236</ele>
        <time>2012-04-18T07:50:32Z</time>
      </trkpt>
      <trkpt lat="43.21674" lon="6.28347">
        <ele>235.899994</ele>
        <time>2012-04-18T07:50:39Z</time>
      </trkpt>
      <trkpt lat="43.21667" lon="6.28354">
        <ele>236.100006</ele>
        <time>2012-04-18T07:50:46Z</time>
      </trkpt>
      <trkpt lat="43.21661" lon="6.28361">
        <ele>236.199997</ele>
        <time>2012-04-18T07:50:53Z</time>
      </trkpt>
      <trkpt lat="43.21654" lon="6.28369">
        <ele>236.800003</ele>
        <time>2012-04-18T07:51:02Z</time>
      </trkpt>
      <trkpt lat="43.21648" lon="6.28377">
        <ele>238.899994</ele>
        <time>2012-04-18T07:51:13Z</time>
      </trkpt>
      <trkpt lat="43.21648" lon="6.28378">
        <ele>239.199997</ele>
        <time>2012-04-18T07:51:14Z</time>
      </trkpt>
      <trkpt lat="43.2164" lon="6.28399">
        <ele>241.399994</ele>
        <time>2012-04-18T07:51:30Z</time>
      </trkpt>
      <trkpt lat="43.21636" lon="6.28408">
        <ele>243.800003</ele>
        <time>2012-04-18T07:51:40Z</time>
      </trkpt>
      <trkpt lat="43.21632" lon="6.28418">
        <ele>245.899994</ele>
        <time>2012-04-18T07:51:52Z</time>
      </trkpt>
      <trkpt lat="43.21627" lon="6.28429">
        <ele>248.199997</ele>
        <time>2012-04-18T07:52:07Z</time>
      </trkpt>
      <trkpt lat="43.21622" lon="6.28439">
        <ele>249.5</ele>
        <time>2012-04-18T07:52:20Z</time>
      </trkpt>
      <trkpt lat="43.21622" lon="6.2844">
        <ele>249.5</ele>
        <time>2012-04-18T07:52:21Z</time>
      </trkpt>
      <trkpt lat="43.21615" lon="6.28462">
        <ele>250.5</ele>
        <time>2012-04-18T07:56:41Z</time>
      </trkpt>
      <trkpt lat="43.21615" lon="6.28462">
        <ele>250.699997</ele>
        <time>2012-04-18T07:56:42Z</time>
      </trkpt>
      <trkpt lat="43.21601" lon="6.28475">
        <ele>249.399994</ele>
        <time>2012-04-18T07:57:07Z</time>
      </trkpt>
      <trkpt lat="43.21593" lon="6.28481">
        <ele>248.300003</ele>
        <time>2012-04-18T07:57:16Z</time>
      </trkpt>
      <trkpt lat="43.21587" lon="6.2849">
        <ele>248.899994</ele>
        <time>2012-04-18T07:57:25Z</time>
      </trkpt>
      <trkpt lat="43.21584" lon="6.285">
        <ele>248.800003</ele>
        <time>2012-04-18T07:57:34Z</time>
      </trkpt>
      <trkpt lat="43.2158" lon="6.2851">
        <ele>249.600006</ele>
        <time>2012-04-18T07:57:44Z</time>
      </trkpt>
      <trkpt lat="43.2158" lon="6.28511">
        <ele>249.800003</ele>
        <time>2012-04-18T07:57:45Z</time>
      </trkpt>
      <trkpt lat="43.2157" lon="6.2853">
        <ele>252.100006</ele>
        <time>2012-04-18T07:58:06Z</time>
      </trkpt>
      <trkpt lat="43.21565" lon="6.28539">
        <ele>252.899994</ele>
        <time>2012-04-18T07:58:15Z</time>
      </trkpt>
      <trkpt lat="43.2156" lon="6.28549">
        <ele>253</ele>
        <time>2012-04-18T07:58:23Z</time>
      </trkpt>
      <trkpt lat="43.21555" lon="6.28557">
        <ele>253.899994</ele>
        <time>2012-04-18T07:58:31Z</time>
      </trkpt>
      <trkpt lat="43.21548" lon="6.28563">
        <ele>254.100006</ele>
        <time>2012-04-18T07:58:39Z</time>
      </trkpt>
      <trkpt lat="43.21541" lon="6.28569">
        <ele>253.899994</ele>
        <time>2012-04-18T07:58:48Z</time>
      </trkpt>
      <trkpt lat="43.21541" lon="6.2857">
        <ele>254</ele>
        <time>2012-04-18T07:58:49Z</time>
      </trkpt>
      <trkpt lat="43.21528" lon="6.28582">
        <ele>254.899994</ele>
        <time>2012-04-18T07:59:04Z</time>
      </trkpt>
      <trkpt lat="43.21522" lon="6.28591">
        <ele>254.399994</ele>
        <time>2012-04-18T07:59:12Z</time>
      </trkpt>
      <trkpt lat="43.21514" lon="6.28597">
        <ele>254.800003</ele>
        <time>2012-04-18T07:59:21Z</time>
      </trkpt>
      <trkpt lat="43.21507" lon="6.286">
        <ele>255.699997</ele>
        <time>2012-04-18T07:59:30Z</time>
      </trkpt>
      <trkpt lat="43.215" lon="6.28605">
        <ele>256.100006</ele>
        <time>2012-04-18T07:59:38Z</time>
      </trkpt>
      <trkpt lat="43.21492" lon="6.28609">
        <ele>256.299988</ele>
        <time>2012-04-18T07:59:47Z</time>
      </trkpt>
      <trkpt lat="43.21484" lon="6.28613">
        <ele>256.399994</ele>
        <time>2012-04-18T07:59:57Z</time>
      </trkpt>
      <trkpt lat="43.21483" lon="6.28614">
        <ele>256.399994</ele>
        <time>2012-04-18T07:59:58Z</time>
      </trkpt>
      <trkpt lat="43.21471" lon="6.28627">
        <ele>258.100006</ele>
        <time>2012-04-18T08:00:14Z</time>
      </trkpt>
      <trkpt lat="43.21465" lon="6.28635">
        <ele>257.700012</ele>
        <time>2012-04-18T08:00:25Z</time>
      </trkpt>
      <trkpt lat="43.21463" lon="6.28647">
        <ele>257.700012</ele>
        <time>2012-04-18T08:00:42Z</time>
      </trkpt>
      <trkpt lat="43.2146" lon="6.28658">
        <ele>258</ele>
        <time>2012-04-18T08:01:02Z</time>
      </trkpt>
      <trkpt lat="43.21459" lon="6.28658">
        <ele>258</ele>
        <time>2012-04-18T08:01:03Z</time>
      </trkpt>
      <trkpt lat="43.21443" lon="6.28663">
        <ele>257.700012</ele>
        <time>2012-04-18T08:01:35Z</time>
      </trkpt>
      <trkpt lat="43.21434" lon="6.28664">
        <ele>258.200012</ele>
        <time>2012-04-18T08:01:43Z</time>
      </trkpt>
      <trkpt lat="43.21426" lon="6.28665">
        <ele>258.299988</ele>
        <time>2012-04-18T08:01:49Z</time>
      </trkpt>
      <trkpt lat="43.21417" lon="6.28669">
        <ele>258.799988</ele>
        <time>2012-04-18T08:01:56Z</time>
      </trkpt>
      <trkpt lat="43.2141" lon="6.28674">
        <ele>259.5</ele>
        <time>2012-04-18T08:02:06Z</time>
      </trkpt>
      <trkpt lat="43.21409" lon="6.28674">
        <ele>259.399994</ele>
        <time>2012-04-18T08:02:07Z</time>
      </trkpt>
      <trkpt lat="43.21396" lon="6.28689">
        <ele>261.399994</ele>
        <time>2012-04-18T08:02:31Z</time>
      </trkpt>
      <trkpt lat="43.2139" lon="6.28697">
        <ele>263.799988</ele>
        <time>2012-04-18T08:02:45Z</time>
      </trkpt>
      <trkpt lat="43.21399" lon="6.28699">
        <ele>265.700012</ele>
        <time>2012-04-18T08:03:00Z</time>
      </trkpt>
      <trkpt lat="43.21407" lon="6.28698">
        <ele>267.600006</ele>
        <time>2012-04-18T08:03:14Z</time>
      </trkpt>
      <trkpt lat="43.21408" lon="6.28699">
        <ele>267.799988</ele>
        <time>2012-04-18T08:03:15Z</time>
      </trkpt>
      <trkpt lat="43.21423" lon="6.28699">
        <ele>270.299988</ele>
        <time>2012-04-18T08:03:32Z</time>
      </trkpt>
      <trkpt lat="43.21432" lon="6.28697">
        <ele>272.700012</ele>
        <time>2012-04-18T08:03:41Z</time>
      </trkpt>
      <trkpt lat="43.2144" lon="6.28697">
        <ele>273.5</ele>
        <time>2012-04-18T08:03:51Z</time>
      </trkpt>
      <trkpt lat="43.21449" lon="6.28698">
        <ele>273.700012</ele>
        <time>2012-04-18T08:04:00Z</time>
      </trkpt>
      <trkpt lat="43.21457" lon="6.28697">
        <ele>274.5</ele>
        <time>2012-04-18T08:04:09Z</time>
      </trkpt>
      <trkpt lat="43.21465" lon="6.28697">
        <ele>275.100006</ele>
        <time>2012-04-18T08:04:16Z</time>
      </trkpt>
      <trkpt lat="43.21467" lon="6.28697">
        <ele>275.299988</ele>
        <time>2012-04-18T08:04:17Z</time>
      </trkpt>
      <trkpt lat="43.21482" lon="6.28701">
        <ele>275.600006</ele>
        <time>2012-04-18T08:04:31Z</time>
      </trkpt>
      <trkpt lat="43.2149" lon="6.287">
        <ele>275.399994</ele>
        <time>2012-04-18T08:04:40Z</time>
      </trkpt>
      <trkpt lat="43.21499" lon="6.28703">
        <ele>276.899994</ele>
        <time>2012-04-18T08:04:49Z</time>
      </trkpt>
      <trkpt lat="43.21497" lon="6.28715">
        <ele>280.200012</ele>
        <time>2012-04-18T08:05:09Z</time>
      </trkpt>
      <trkpt lat="43.21492" lon="6.28724">
        <ele>282.200012</ele>
        <time>2012-04-18T08:05:23Z</time>
      </trkpt>
      <trkpt lat="43.21491" lon="6.28724">
        <ele>282.5</ele>
        <time>2012-04-18T08:05:24Z</time>
      </trkpt>
      <trkpt lat="43.21476" lon="6.28732">
        <ele>284.799988</ele>
        <time>2012-04-18T08:05:41Z</time>
      </trkpt>
      <trkpt lat="43.21469" lon="6.28737">
        <ele>285.5</ele>
        <time>2012-04-18T08:05:50Z</time>
      </trkpt>
      <trkpt lat="43.21462" lon="6.28743">
        <ele>286.700012</ele>
        <time>2012-04-18T08:05:59Z</time>
      </trkpt>
      <trkpt lat="43.21454" lon="6.28749">
        <ele>288.100006</ele>
        <time>2012-04-18T08:06:09Z</time>
      </trkpt>
      <trkpt lat="43.21447" lon="6.28754">
        <ele>289.5</ele>
        <time>2012-04-18T08:06:19Z</time>
      </trkpt>
      <trkpt lat="43.2144" lon="6.2876">
        <ele>291.899994</ele>
        <time>2012-04-18T08:06:28Z</time>
      </trkpt>
      <trkpt lat="43.21439" lon="6.28761">
        <ele>291.899994</ele>
        <time>2012-04-18T08:06:29Z</time>
      </trkpt>
      <trkpt lat="43.2144" lon="6.28771">
        <ele>297</ele>
        <time>2012-04-18T08:07:03Z</time>
      </trkpt>
      <trkpt lat="43.21449" lon="6.28773">
        <ele>298.5</ele>
        <time>2012-04-18T08:07:13Z</time>
      </trkpt>
      <trkpt lat="43.21457" lon="6.28775">
        <ele>299.799988</ele>
        <time>2012-04-18T08:07:24Z</time>
      </trkpt>
      <trkpt lat="43.21465" lon="6.28777">
        <ele>300.600006</ele>
        <time>2012-04-18T08:07:34Z</time>
      </trkpt>
      <trkpt lat="43.21466" lon="6.28777">
        <ele>300.700012</ele>
        <time>2012-04-18T08:07:35Z</time>
      </trkpt>
      <trkpt lat="43.21482" lon="6.28781">
        <ele>303.100006</ele>
        <time>2012-04-18T08:07:54Z</time>
      </trkpt>
      <trkpt lat="43.2149" lon="6.28786">
        <ele>304.299988</ele>
        <time>2012-04-18T08:08:04Z</time>
      </trkpt>
      <trkpt lat="43.21498" lon="6.2879">
        <ele>305.5</ele>
        <time>2012-04-18T08:08:16Z</time>
      </trkpt>
      <trkpt lat="43.21507" lon="6.28792">
        <ele>307</ele>
        <time>2012-04-18T08:08:28Z</time>
      </trkpt>
      <trkpt lat="43.21515" lon="6.28796">
        <ele>308.299988</ele>
        <time>2012-04-18T08:08:39Z</time>
      </trkpt>
      <trkpt lat="43.21515" lon="6.28796">
        <ele>308.600006</ele>
        <time>2012-04-18T08:08:40Z</time>
      </trkpt>
      <trkpt lat="43.21528" lon="6.28811">
        <ele>311.5</ele>
        <time>2012-04-18T08:08:55Z</time>
      </trkpt>
      <trkpt lat="43.21534" lon="6.28819">
        <ele>313</ele>
        <time>2012-04-18T08:09:04Z</time>
      </trkpt>
      <trkpt lat="43.21542" lon="6.28823">
        <ele>314.299988</ele>
        <time>2012-04-18T08:09:13Z</time>
      </trkpt>
      <trkpt lat="43.2155" lon="6.28828">
        <ele>314.5</ele>
        <time>2012-04-18T08:09:22Z</time>
      </trkpt>
      <trkpt lat="43.21558" lon="6.28833">
        <ele>314.100006</ele>
        <time>2012-04-18T08:09:29Z</time>
      </trkpt>
      <trkpt lat="43.21566" lon="6.28839">
        <ele>315.700012</ele>
        <time>2012-04-18T08:09:37Z</time>
      </trkpt>
      <trkpt lat="43.21574" lon="6.28843">
        <ele>316.600006</ele>
        <time>2012-04-18T08:09:46Z</time>
      </trkpt>
      <trkpt lat="43.21575" lon="6.28843">
        <ele>316.799988</ele>
        <time>2012-04-18T08:09:47Z</time>
      </trkpt>
      <trkpt lat="43.21589" lon="6.28854">
        <ele>321.600006</ele>
        <time>2012-04-18T08:10:08Z</time>
      </trkpt>
      <trkpt lat="43.21597" lon="6.28858">
        <ele>322.700012</ele>
        <time>2012-04-18T08:10:19Z</time>
      </trkpt>
      <trkpt lat="43.21599" lon="6.2887">
        <ele>324.299988</ele>
        <time>2012-04-18T08:10:35Z</time>
      </trkpt>
      <trkpt lat="43.21591" lon="6.28874">
        <ele>325.5</ele>
        <time>2012-04-18T08:10:51Z</time>
      </trkpt>
      <trkpt lat="43.2159" lon="6.28873">
        <ele>325.5</ele>
        <time>2012-04-18T08:10:52Z</time>
      </trkpt>
      <trkpt lat="43.21574" lon="6.28879">
        <ele>327.200012</ele>
        <time>2012-04-18T08:11:12Z</time>
      </trkpt>
      <trkpt lat="43.21565" lon="6.28881">
        <ele>328.5</ele>
        <time>2012-04-18T08:11:23Z</time>
      </trkpt>
      <trkpt lat="43.21556" lon="6.28882">
        <ele>329.399994</ele>
        <time>2012-04-18T08:11:33Z</time>
      </trkpt>
      <trkpt lat="43.21548" lon="6.28881">
        <ele>330.799988</ele>
        <time>2012-04-18T08:11:42Z</time>
      </trkpt>
      <trkpt lat="43.21539" lon="6.28881">
        <ele>330.5</ele>
        <time>2012-04-18T08:11:49Z</time>
      </trkpt>
      <trkpt lat="43.21532" lon="6.28879">
        <ele>331</ele>
        <time>2012-04-18T08:11:55Z</time>
      </trkpt>
      <trkpt lat="43.2153" lon="6.28878">
        <ele>331.100006</ele>
        <time>2012-04-18T08:11:56Z</time>
      </trkpt>
      <trkpt lat="43.21514" lon="6.28877">
        <ele>331.399994</ele>
        <time>2012-04-18T08:12:09Z</time>
      </trkpt>
      <trkpt lat="43.21507" lon="6.28877">
        <ele>331.899994</ele>
        <time>2012-04-18T08:12:15Z</time>
      </trkpt>
      <trkpt lat="43.21499" lon="6.28878">
        <ele>331.700012</ele>
        <time>2012-04-18T08:12:21Z</time>
      </trkpt>
      <trkpt lat="43.21491" lon="6.28877">
        <ele>332.5</ele>
        <time>2012-04-18T08:12:28Z</time>
      </trkpt>
      <trkpt lat="43.21482" lon="6.28878">
        <ele>332.600006</ele>
        <time>2012-04-18T08:12:36Z</time>
      </trkpt>
      <trkpt lat="43.21474" lon="6.28879">
        <ele>333</ele>
        <time>2012-04-18T08:12:42Z</time>
      </trkpt>
      <trkpt lat="43.21465" lon="6.28881">
        <ele>333.200012</ele>
        <time>2012-04-18T08:12:49Z</time>
      </trkpt>
      <trkpt lat="43.21457" lon="6.28884">
        <ele>333.200012</ele>
        <time>2012-04-18T08:12:57Z</time>
      </trkpt>
      <trkpt lat="43.21456" lon="6.28884">
        <ele>333.399994</ele>
        <time>2012-04-18T08:12:58Z</time>
      </trkpt>
      <trkpt lat="43.21441" lon="6.28891">
        <ele>335.200012</ele>
        <time>2012-04-18T08:13:11Z</time>
      </trkpt>
      <trkpt lat="43.21433" lon="6.28897">
        <ele>336.200012</ele>
        <time>2012-04-18T08:13:19Z</time>
      </trkpt>
      <trkpt lat="43.21428" lon="6.28905">
        <ele>337.700012</ele>
        <time>2012-04-18T08:13:27Z</time>
      </trkpt>
      <trkpt lat="43.21425" lon="6.28917">
        <ele>338.700012</ele>
        <time>2012-04-18T08:13:36Z</time>
      </trkpt>
      <trkpt lat="43.21423" lon="6.28929">
        <ele>338.700012</ele>
        <time>2012-04-18T08:13:45Z</time>
      </trkpt>
      <trkpt lat="43.21422" lon="6.28941">
        <ele>339.899994</ele>
        <time>2012-04-18T08:13:54Z</time>
      </trkpt>
      <trkpt lat="43.2142" lon="6.28952">
        <ele>340.299988</ele>
        <time>2012-04-18T08:14:03Z</time>
      </trkpt>
      <trkpt lat="43.21419" lon="6.28953">
        <ele>340.5</ele>
        <time>2012-04-18T08:14:04Z</time>
      </trkpt>
      <trkpt lat="43.21418" lon="6.28974">
        <ele>341.100006</ele>
        <time>2012-04-18T08:14:18Z</time>
      </trkpt>
      <trkpt lat="43.21416" lon="6.28986">
        <ele>341</ele>
        <time>2012-04-18T08:14:25Z</time>
      </trkpt>
      <trkpt lat="43.21415" lon="6.28997">
        <ele>341.799988</ele>
        <time>2012-04-18T08:14:33Z</time>
      </trkpt>
      <trkpt lat="43.21414" lon="6.29008">
        <ele>342.200012</ele>
        <time>2012-04-18T08:14:41Z</time>
      </trkpt>
      <trkpt lat="43.21412" lon="6.29019">
        <ele>342.299988</ele>
        <time>2012-04-18T08:14:48Z</time>
      </trkpt>
      <trkpt lat="43.21406" lon="6.29027">
        <ele>342.600006</ele>
        <time>2012-04-18T08:14:54Z</time>
      </trkpt>
      <trkpt lat="43.214" lon="6.29034">
        <ele>343.299988</ele>
        <time>2012-04-18T08:15:00Z</time>
      </trkpt>
      <trkpt lat="43.21392" lon="6.29039">
        <ele>342.899994</ele>
        <time>2012-04-18T08:15:07Z</time>
      </trkpt>
      <trkpt lat="43.21392" lon="6.2904">
        <ele>342.700012</ele>
        <time>2012-04-18T08:15:08Z</time>
      </trkpt>
      <trkpt lat="43.21378" lon="6.29049">
        <ele>344.200012</ele>
        <time>2012-04-18T08:15:23Z</time>
      </trkpt>
      <trkpt lat="43.2137" lon="6.29053">
        <ele>344.5</ele>
        <time>2012-04-18T08:15:31Z</time>
      </trkpt>
      <trkpt lat="43.21361" lon="6.29056">
        <ele>345.200012</ele>
        <time>2012-04-18T08:15:40Z</time>
      </trkpt>
      <trkpt lat="43.21353" lon="6.29059">
        <ele>347.100006</ele>
        <time>2012-04-18T08:15:51Z</time>
      </trkpt>
      <trkpt lat="43.21345" lon="6.2906">
        <ele>348.600006</ele>
        <time>2012-04-18T08:16:01Z</time>
      </trkpt>
      <trkpt lat="43.21336" lon="6.29062">
        <ele>349.200012</ele>
        <time>2012-04-18T08:16:09Z</time>
      </trkpt>
      <trkpt lat="43.21335" lon="6.29062">
        <ele>349.200012</ele>
        <time>2012-04-18T08:16:10Z</time>
      </trkpt>
      <trkpt lat="43.21319" lon="6.29065">
        <ele>350.799988</ele>
        <time>2012-04-18T08:16:27Z</time>
      </trkpt>
      <trkpt lat="43.21311" lon="6.29068">
        <ele>351.700012</ele>
        <time>2012-04-18T08:16:36Z</time>
      </trkpt>
      <trkpt lat="43.21303" lon="6.29072">
        <ele>353</ele>
        <time>2012-04-18T08:16:43Z</time>
      </trkpt>
      <trkpt lat="43.21296" lon="6.29079">
        <ele>353.899994</ele>
        <time>2012-04-18T08:16:51Z</time>
      </trkpt>
      <trkpt lat="43.21292" lon="6.29088">
        <ele>354.5</ele>
        <time>2012-04-18T08:16:58Z</time>
      </trkpt>
      <trkpt lat="43.21285" lon="6.29096">
        <ele>355.200012</ele>
        <time>2012-04-18T08:17:06Z</time>
      </trkpt>
      <trkpt lat="43.21279" lon="6.29103">
        <ele>356.200012</ele>
        <time>2012-04-18T08:17:14Z</time>
      </trkpt>
      <trkpt lat="43.21278" lon="6.29104">
        <ele>356.5</ele>
        <time>2012-04-18T08:17:15Z</time>
      </trkpt>
      <trkpt lat="43.21265" lon="6.29117">
        <ele>356.200012</ele>
        <time>2012-04-18T08:17:29Z</time>
      </trkpt>
      <trkpt lat="43.21258" lon="6.29123">
        <ele>356.399994</ele>
        <time>2012-04-18T08:17:36Z</time>
      </trkpt>
      <trkpt lat="43.21252" lon="6.2913">
        <ele>356.5</ele>
        <time>2012-04-18T08:17:43Z</time>
      </trkpt>
      <trkpt lat="43.21245" lon="6.29138">
        <ele>357.399994</ele>
        <time>2012-04-18T08:17:51Z</time>
      </trkpt>
      <trkpt lat="43.21241" lon="6.29148">
        <ele>356.5</ele>
        <time>2012-04-18T08:17:58Z</time>
      </trkpt>
      <trkpt lat="43.21243" lon="6.29159">
        <ele>357.100006</ele>
        <time>2012-04-18T08:18:06Z</time>
      </trkpt>
      <trkpt lat="43.21246" lon="6.2917">
        <ele>358</ele>
        <time>2012-04-18T08:18:14Z</time>
      </trkpt>
      <trkpt lat="43.21248" lon="6.29182">
        <ele>357.799988</ele>
        <time>2012-04-18T08:18:21Z</time>
      </trkpt>
      <trkpt lat="43.21248" lon="6.29183">
        <ele>357.700012</ele>
        <time>2012-04-18T08:18:22Z</time>
      </trkpt>
      <trkpt lat="43.21245" lon="6.29204">
        <ele>357.700012</ele>
        <time>2012-04-18T08:18:36Z</time>
      </trkpt>
      <trkpt lat="43.2124" lon="6.29213">
        <ele>358</ele>
        <time>2012-04-18T08:18:42Z</time>
      </trkpt>
      <trkpt lat="43.21236" lon="6.29221">
        <ele>357.100006</ele>
        <time>2012-04-18T08:18:48Z</time>
      </trkpt>
      <trkpt lat="43.21231" lon="6.29231">
        <ele>356.5</ele>
        <time>2012-04-18T08:18:55Z</time>
      </trkpt>
      <trkpt lat="43.21226" lon="6.29241">
        <ele>355.600006</ele>
        <time>2012-04-18T08:19:02Z</time>
      </trkpt>
      <trkpt lat="43.21219" lon="6.29247">
        <ele>355.600006</ele>
        <time>2012-04-18T08:19:09Z</time>
      </trkpt>
      <trkpt lat="43.21213" lon="6.29253">
        <ele>356.399994</ele>
        <time>2012-04-18T08:19:18Z</time>
      </trkpt>
      <trkpt lat="43.21206" lon="6.29257">
        <ele>356.399994</ele>
        <time>2012-04-18T08:19:24Z</time>
      </trkpt>
      <trkpt lat="43.21204" lon="6.29258">
        <ele>356.600006</ele>
        <time>2012-04-18T08:19:25Z</time>
      </trkpt>
      <trkpt lat="43.21191" lon="6.29267">
        <ele>356.600006</ele>
        <time>2012-04-18T08:19:36Z</time>
      </trkpt>
      <trkpt lat="43.21183" lon="6.29269">
        <ele>354.399994</ele>
        <time>2012-04-18T08:19:43Z</time>
      </trkpt>
      <trkpt lat="43.21175" lon="6.29269">
        <ele>355</ele>
        <time>2012-04-18T08:19:49Z</time>
      </trkpt>
      <trkpt lat="43.21167" lon="6.29269">
        <ele>354.700012</ele>
        <time>2012-04-18T08:19:56Z</time>
      </trkpt>
      <trkpt lat="43.21159" lon="6.29268">
        <ele>354.700012</ele>
        <time>2012-04-18T08:20:03Z</time>
      </trkpt>
      <trkpt lat="43.21152" lon="6.29266">
        <ele>354.399994</ele>
        <time>2012-04-18T08:20:09Z</time>
      </trkpt>
      <trkpt lat="43.21143" lon="6.29264">
        <ele>354.200012</ele>
        <time>2012-04-18T08:20:16Z</time>
      </trkpt>
      <trkpt lat="43.21136" lon="6.29261">
        <ele>354.299988</ele>
        <time>2012-04-18T08:20:23Z</time>
      </trkpt>
      <trkpt lat="43.21128" lon="6.29256">
        <ele>354.200012</ele>
        <time>2012-04-18T08:20:30Z</time>
      </trkpt>
      <trkpt lat="43.21127" lon="6.29255">
        <ele>354.100006</ele>
        <time>2012-04-18T08:20:31Z</time>
      </trkpt>
      <trkpt lat="43.21117" lon="6.29238">
        <ele>355.299988</ele>
        <time>2012-04-18T08:21:01Z</time>
      </trkpt>
      <trkpt lat="43.2111" lon="6.29231">
        <ele>354.700012</ele>
        <time>2012-04-18T08:21:10Z</time>
      </trkpt>
      <trkpt lat="43.21103" lon="6.29236">
        <ele>353.299988</ele>
        <time>2012-04-18T08:21:24Z</time>
      </trkpt>
      <trkpt lat="43.21095" lon="6.29242">
        <ele>350.899994</ele>
        <time>2012-04-18T08:21:37Z</time>
      </trkpt>
      <trkpt lat="43.21095" lon="6.29242">
        <ele>350.799988</ele>
        <time>2012-04-18T08:21:38Z</time>
      </trkpt>
      <trkpt lat="43.21081" lon="6.29233">
        <ele>349.799988</ele>
        <time>2012-04-18T08:21:50Z</time>
      </trkpt>
      <trkpt lat="43.21072" lon="6.29229">
        <ele>347.799988</ele>
        <time>2012-04-18T08:21:57Z</time>
      </trkpt>
      <trkpt lat="43.21066" lon="6.29222">
        <ele>349</ele>
        <time>2012-04-18T08:22:04Z</time>
      </trkpt>
      <trkpt lat="43.2106" lon="6.29216">
        <ele>348.600006</ele>
        <time>2012-04-18T08:22:10Z</time>
      </trkpt>
      <trkpt lat="43.21053" lon="6.29208">
        <ele>347.600006</ele>
        <time>2012-04-18T08:22:17Z</time>
      </trkpt>
      <trkpt lat="43.21047" lon="6.29202">
        <ele>347.799988</ele>
        <time>2012-04-18T08:22:24Z</time>
      </trkpt>
      <trkpt lat="43.2104" lon="6.29195">
        <ele>347.600006</ele>
        <time>2012-04-18T08:22:30Z</time>
      </trkpt>
      <trkpt lat="43.21033" lon="6.29189">
        <ele>346.5</ele>
        <time>2012-04-18T08:22:37Z</time>
      </trkpt>
      <trkpt lat="43.21025" lon="6.29187">
        <ele>346.5</ele>
        <time>2012-04-18T08:22:43Z</time>
      </trkpt>
      <trkpt lat="43.21023" lon="6.29187">
        <ele>346.5</ele>
        <time>2012-04-18T08:22:44Z</time>
      </trkpt>
      <trkpt lat="43.21008" lon="6.29189">
        <ele>345.299988</ele>
        <time>2012-04-18T08:23:01Z</time>
      </trkpt>
      <trkpt lat="43.20999" lon="6.29192">
        <ele>344.600006</ele>
        <time>2012-04-18T08:23:10Z</time>
      </trkpt>
      <trkpt lat="43.20991" lon="6.29192">
        <ele>343.399994</ele>
        <time>2012-04-18T08:23:18Z</time>
      </trkpt>
      <trkpt lat="43.20982" lon="6.29192">
        <ele>344.399994</ele>
        <time>2012-04-18T08:23:26Z</time>
      </trkpt>
      <trkpt lat="43.20974" lon="6.2919">
        <ele>344.799988</ele>
        <time>2012-04-18T08:23:33Z</time>
      </trkpt>
      <trkpt lat="43.20965" lon="6.29189">
        <ele>344.100006</ele>
        <time>2012-04-18T08:23:40Z</time>
      </trkpt>
      <trkpt lat="43.20956" lon="6.29188">
        <ele>344.399994</ele>
        <time>2012-04-18T08:23:46Z</time>
      </trkpt>
      <trkpt lat="43.20955" lon="6.29187">
        <ele>344.5</ele>
        <time>2012-04-18T08:23:47Z</time>
      </trkpt>
      <trkpt lat="43.2094" lon="6.29184">
        <ele>345.100006</ele>
        <time>2012-04-18T08:23:58Z</time>
      </trkpt>
      <trkpt lat="43.20932" lon="6.29181">
        <ele>344.899994</ele>
        <time>2012-04-18T08:24:05Z</time>
      </trkpt>
      <trkpt lat="43.20923" lon="6.29179">
        <ele>345.299988</ele>
        <time>2012-04-18T08:24:14Z</time>
      </trkpt>
      <trkpt lat="43.20914" lon="6.29179">
        <ele>345.100006</ele>
        <time>2012-04-18T08:24:22Z</time>
      </trkpt>
      <trkpt lat="43.20906" lon="6.29179">
        <ele>345.399994</ele>
        <time>2012-04-18T08:24:28Z</time>
      </trkpt>
      <trkpt lat="43.20897" lon="6.2918">
        <ele>346.399994</ele>
        <time>2012-04-18T08:24:33Z</time>
      </trkpt>
      <trkpt lat="43.20889" lon="6.29182">
        <ele>346.799988</ele>
        <time>2012-04-18T08:24:39Z</time>
      </trkpt>
      <trkpt lat="43.20881" lon="6.29185">
        <ele>347.299988</ele>
        <time>2012-04-18T08:24:46Z</time>
      </trkpt>
      <trkpt lat="43.20873" lon="6.29188">
        <ele>347.799988</ele>
        <time>2012-04-18T08:24:54Z</time>
      </trkpt>
      <trkpt lat="43.20872" lon="6.29188">
        <ele>347.899994</ele>
        <time>2012-04-18T08:24:55Z</time>
      </trkpt>
      <trkpt lat="43.20857" lon="6.29194">
        <ele>347.299988</ele>
        <time>2012-04-18T08:25:08Z</time>
      </trkpt>
      <trkpt lat="43.2085" lon="6.29199">
        <ele>345.899994</ele>
        <time>2012-04-18T08:25:14Z</time>
      </trkpt>
      <trkpt lat="43.20843" lon="6.29207">
        <ele>345.200012</ele>
        <time>2012-04-18T08:25:21Z</time>
      </trkpt>
      <trkpt lat="43.20838" lon="6.29217">
        <ele>344.299988</ele>
        <time>2012-04-18T08:25:28Z</time>
      </trkpt>
      <trkpt lat="43.20832" lon="6.29226">
        <ele>344.5</ele>
        <time>2012-04-18T08:25:35Z</time>
      </trkpt>
      <trkpt lat="43.20827" lon="6.29235">
        <ele>344.399994</ele>
        <time>2012-04-18T08:25:41Z</time>
      </trkpt>
      <trkpt lat="43.2082" lon="6.29242">
        <ele>344.299988</ele>
        <time>2012-04-18T08:25:49Z</time>
      </trkpt>
      <trkpt lat="43.20812" lon="6.29242">
        <ele>344.100006</ele>
        <time>2012-04-18T08:26:01Z</time>
      </trkpt>
      <trkpt lat="43.2081" lon="6.29241">
        <ele>344.200012</ele>
        <time>2012-04-18T08:26:02Z</time>
      </trkpt>
      <trkpt lat="43.20795" lon="6.29233">
        <ele>344.200012</ele>
        <time>2012-04-18T08:26:14Z</time>
      </trkpt>
      <trkpt lat="43.20788" lon="6.2923">
        <ele>344.100006</ele>
        <time>2012-04-18T08:26:19Z</time>
      </trkpt>
      <trkpt lat="43.20781" lon="6.29223">
        <ele>344.600006</ele>
        <time>2012-04-18T08:26:25Z</time>
      </trkpt>
      <trkpt lat="43.20775" lon="6.29214">
        <ele>344.899994</ele>
        <time>2012-04-18T08:26:33Z</time>
      </trkpt>
      <trkpt lat="43.20769" lon="6.29205">
        <ele>345</ele>
        <time>2012-04-18T08:26:39Z</time>
      </trkpt>
      <trkpt lat="43.20762" lon="6.29199">
        <ele>345.100006</ele>
        <time>2012-04-18T08:26:45Z</time>
      </trkpt>
      <trkpt lat="43.20758" lon="6.29189">
        <ele>344.799988</ele>
        <time>2012-04-18T08:26:52Z</time>
      </trkpt>
      <trkpt lat="43.20753" lon="6.29179">
        <ele>345</ele>
        <time>2012-04-18T08:26:59Z</time>
      </trkpt>
      <trkpt lat="43.20748" lon="6.29169">
        <ele>345.5</ele>
        <time>2012-04-18T08:27:06Z</time>
      </trkpt>
      <trkpt lat="43.20747" lon="6.29168">
        <ele>345.299988</ele>
        <time>2012-04-18T08:27:07Z</time>
      </trkpt>
      <trkpt lat="43.20734" lon="6.29156">
        <ele>345.399994</ele>
        <time>2012-04-18T08:27:20Z</time>
      </trkpt>
      <trkpt lat="43.20727" lon="6.2915">
        <ele>345.899994</ele>
        <time>2012-04-18T08:27:29Z</time>
      </trkpt>
      <trkpt lat="43.20718" lon="6.29148">
        <ele>346.700012</ele>
        <time>2012-04-18T08:27:37Z</time>
      </trkpt>
      <trkpt lat="43.20709" lon="6.29147">
        <ele>347.600006</ele>
        <time>2012-04-18T08:27:46Z</time>
      </trkpt>
      <trkpt lat="43.20701" lon="6.29149">
        <ele>348.700012</ele>
        <time>2012-04-18T08:27:58Z</time>
      </trkpt>
      <trkpt lat="43.20692" lon="6.2915">
        <ele>348.5</ele>
        <time>2012-04-18T08:28:48Z</time>
      </trkpt>
      <trkpt lat="43.20692" lon="6.2915">
        <ele>348.5</ele>
        <time>2012-04-18T08:28:49Z</time>
      </trkpt>
      <trkpt lat="43.20682" lon="6.29169">
        <ele>348</ele>
        <time>2012-04-18T08:29:34Z</time>
      </trkpt>
      <trkpt lat="43.20676" lon="6.29178">
        <ele>347.700012</ele>
        <time>2012-04-18T08:29:58Z</time>
      </trkpt>
      <trkpt lat="43.20675" lon="6.29178">
        <ele>347.700012</ele>
        <time>2012-04-18T08:29:59Z</time>
      </trkpt>
      <trkpt lat="43.20662" lon="6.29193">
        <ele>348.100006</ele>
        <time>2012-04-18T08:30:48Z</time>
      </trkpt>
      <trkpt lat="43.20654" lon="6.29196">
        <ele>347.100006</ele>
        <time>2012-04-18T08:31:00Z</time>
      </trkpt>
      <trkpt lat="43.20653" lon="6.29196">
        <ele>347.100006</ele>
        <time>2012-04-18T08:31:01Z</time>
      </trkpt>
      <trkpt lat="43.20637" lon="6.29199">
        <ele>347.299988</ele>
        <time>2012-04-18T08:31:19Z</time>
      </trkpt>
      <trkpt lat="43.20628" lon="6.29197">
        <ele>347.100006</ele>
        <time>2012-04-18T08:31:27Z</time>
      </trkpt>
      <trkpt lat="43.20619" lon="6.29196">
        <ele>346.399994</ele>
        <time>2012-04-18T08:31:34Z</time>
      </trkpt>
      <trkpt lat="43.20611" lon="6.29197">
        <ele>346</ele>
        <time>2012-04-18T08:31:42Z</time>
      </trkpt>
      <trkpt lat="43.20603" lon="6.29197">
        <ele>346.200012</ele>
        <time>2012-04-18T08:31:50Z</time>
      </trkpt>
      <trkpt lat="43.20594" lon="6.29198">
        <ele>346.399994</ele>
        <time>2012-04-18T08:31:58Z</time>
      </trkpt>
      <trkpt lat="43.20586" lon="6.29202">
        <ele>346.5</ele>
        <time>2012-04-18T08:32:05Z</time>
      </trkpt>
      <trkpt lat="43.20585" lon="6.29203">
        <ele>346.299988</ele>
        <time>2012-04-18T08:32:06Z</time>
      </trkpt>
      <trkpt lat="43.20574" lon="6.29217">
        <ele>345.799988</ele>
        <time>2012-04-18T08:32:21Z</time>
      </trkpt>
      <trkpt lat="43.20569" lon="6.29227">
        <ele>345.100006</ele>
        <time>2012-04-18T08:32:29Z</time>
      </trkpt>
      <trkpt lat="43.20564" lon="6.29236">
        <ele>345.100006</ele>
        <time>2012-04-18T08:32:37Z</time>
      </trkpt>
      <trkpt lat="43.20556" lon="6.29241">
        <ele>345</ele>
        <time>2012-04-18T08:32:48Z</time>
      </trkpt>
      <trkpt lat="43.20549" lon="6.29234">
        <ele>345.299988</ele>
        <time>2012-04-18T08:32:58Z</time>
      </trkpt>
      <trkpt lat="43.20546" lon="6.29223">
        <ele>344.600006</ele>
        <time>2012-04-18T08:33:07Z</time>
      </trkpt>
      <trkpt lat="43.20546" lon="6.29221">
        <ele>344.5</ele>
        <time>2012-04-18T08:33:08Z</time>
      </trkpt>
      <trkpt lat="43.20545" lon="6.29199">
        <ele>344.700012</ele>
        <time>2012-04-18T08:33:23Z</time>
      </trkpt>
      <trkpt lat="43.20547" lon="6.29188">
        <ele>345.700012</ele>
        <time>2012-04-18T08:33:31Z</time>
      </trkpt>
      <trkpt lat="43.20545" lon="6.29176">
        <ele>345.700012</ele>
        <time>2012-04-18T08:33:39Z</time>
      </trkpt>
      <trkpt lat="43.20544" lon="6.29165">
        <ele>345.700012</ele>
        <time>2012-04-18T08:33:47Z</time>
      </trkpt>
      <trkpt lat="43.20544" lon="6.29153">
        <ele>345.700012</ele>
        <time>2012-04-18T08:33:56Z</time>
      </trkpt>
      <trkpt lat="43.20541" lon="6.29143">
        <ele>345.799988</ele>
        <time>2012-04-18T08:34:03Z</time>
      </trkpt>
      <trkpt lat="43.20539" lon="6.29132">
        <ele>345.200012</ele>
        <time>2012-04-18T08:34:11Z</time>
      </trkpt>
      <trkpt lat="43.20538" lon="6.29131">
        <ele>345.200012</ele>
        <time>2012-04-18T08:34:12Z</time>
      </trkpt>
      <trkpt lat="43.20526" lon="6.29117">
        <ele>345.899994</ele>
        <time>2012-04-18T08:34:31Z</time>
      </trkpt>
      <trkpt lat="43.20522" lon="6.29107">
        <ele>346.200012</ele>
        <time>2012-04-18T08:34:40Z</time>
      </trkpt>
      <trkpt lat="43.20516" lon="6.29099">
        <ele>346.399994</ele>
        <time>2012-04-18T08:34:48Z</time>
      </trkpt>
      <trkpt lat="43.20511" lon="6.29091">
        <ele>346.600006</ele>
        <time>2012-04-18T08:34:55Z</time>
      </trkpt>
      <trkpt lat="43.20505" lon="6.29084">
        <ele>346.5</ele>
        <time>2012-04-18T08:35:02Z</time>
      </trkpt>
      <trkpt lat="43.20499" lon="6.29077">
        <ele>345.899994</ele>
        <time>2012-04-18T08:35:10Z</time>
      </trkpt>
      <trkpt lat="43.20491" lon="6.29071">
        <ele>345.399994</ele>
        <time>2012-04-18T08:35:18Z</time>
      </trkpt>
      <trkpt lat="43.2049" lon="6.2907">
        <ele>345.700012</ele>
        <time>2012-04-18T08:35:19Z</time>
      </trkpt>
      <trkpt lat="43.20475" lon="6.29062">
        <ele>345.799988</ele>
        <time>2012-04-18T08:35:33Z</time>
      </trkpt>
      <trkpt lat="43.20467" lon="6.2906">
        <ele>345.100006</ele>
        <time>2012-04-18T08:35:41Z</time>
      </trkpt>
      <trkpt lat="43.20459" lon="6.29058">
        <ele>346.100006</ele>
        <time>2012-04-18T08:35:50Z</time>
      </trkpt>
      <trkpt lat="43.20451" lon="6.29055">
        <ele>346.700012</ele>
        <time>2012-04-18T08:35:58Z</time>
      </trkpt>
      <trkpt lat="43.20443" lon="6.29052">
        <ele>346.700012</ele>
        <time>2012-04-18T08:36:05Z</time>
      </trkpt>
      <trkpt lat="43.20436" lon="6.29047">
        <ele>346.700012</ele>
        <time>2012-04-18T08:36:13Z</time>
      </trkpt>
      <trkpt lat="43.20428" lon="6.29039">
        <ele>348.899994</ele>
        <time>2012-04-18T08:36:26Z</time>
      </trkpt>
      <trkpt lat="43.20427" lon="6.29039">
        <ele>348.700012</ele>
        <time>2012-04-18T08:36:27Z</time>
      </trkpt>
      <trkpt lat="43.20412" lon="6.29029">
        <ele>350.100006</ele>
        <time>2012-04-18T08:36:49Z</time>
      </trkpt>
      <trkpt lat="43.20404" lon="6.29025">
        <ele>350.399994</ele>
        <time>2012-04-18T08:36:56Z</time>
      </trkpt>
      <trkpt lat="43.20397" lon="6.2902">
        <ele>350.799988</ele>
        <time>2012-04-18T08:37:02Z</time>
      </trkpt>
      <trkpt lat="43.20389" lon="6.29016">
        <ele>351.200012</ele>
        <time>2012-04-18T08:37:10Z</time>
      </trkpt>
      <trkpt lat="43.20381" lon="6.29013">
        <ele>352</ele>
        <time>2012-04-18T08:37:19Z</time>
      </trkpt>
      <trkpt lat="43.20373" lon="6.29011">
        <ele>353.100006</ele>
        <time>2012-04-18T08:37:27Z</time>
      </trkpt>
      <trkpt lat="43.20372" lon="6.29011">
        <ele>353.100006</ele>
        <time>2012-04-18T08:37:28Z</time>
      </trkpt>
      <trkpt lat="43.20356" lon="6.2901">
        <ele>353.5</ele>
        <time>2012-04-18T08:37:46Z</time>
      </trkpt>
      <trkpt lat="43.20348" lon="6.29006">
        <ele>354.399994</ele>
        <time>2012-04-18T08:37:55Z</time>
      </trkpt>
      <trkpt lat="43.20343" lon="6.28997">
        <ele>354.700012</ele>
        <time>2012-04-18T08:38:04Z</time>
      </trkpt>
      <trkpt lat="43.20337" lon="6.28988">
        <ele>354.700012</ele>
        <time>2012-04-18T08:38:11Z</time>
      </trkpt>
      <trkpt lat="43.20331" lon="6.28979">
        <ele>355.299988</ele>
        <time>2012-04-18T08:38:20Z</time>
      </trkpt>
      <trkpt lat="43.20323" lon="6.28973">
        <ele>354.899994</ele>
        <time>2012-04-18T08:38:27Z</time>
      </trkpt>
      <trkpt lat="43.20316" lon="6.28967">
        <ele>356.100006</ele>
        <time>2012-04-18T08:38:34Z</time>
      </trkpt>
      <trkpt lat="43.20315" lon="6.28965">
        <ele>356.100006</ele>
        <time>2012-04-18T08:38:35Z</time>
      </trkpt>
      <trkpt lat="43.20303" lon="6.28953">
        <ele>357.399994</ele>
        <time>2012-04-18T08:38:49Z</time>
      </trkpt>
      <trkpt lat="43.20296" lon="6.28947">
        <ele>358.200012</ele>
        <time>2012-04-18T08:38:57Z</time>
      </trkpt>
      <trkpt lat="43.20289" lon="6.28941">
        <ele>359.200012</ele>
        <time>2012-04-18T08:39:07Z</time>
      </trkpt>
      <trkpt lat="43.20281" lon="6.28937">
        <ele>359.700012</ele>
        <time>2012-04-18T08:39:15Z</time>
      </trkpt>
      <trkpt lat="43.20273" lon="6.28932">
        <ele>360.600006</ele>
        <time>2012-04-18T08:39:24Z</time>
      </trkpt>
      <trkpt lat="43.20266" lon="6.28924">
        <ele>361.899994</ele>
        <time>2012-04-18T08:39:32Z</time>
      </trkpt>
      <trkpt lat="43.20258" lon="6.28918">
        <ele>362.600006</ele>
        <time>2012-04-18T08:39:39Z</time>
      </trkpt>
      <trkpt lat="43.20257" lon="6.28918">
        <ele>362.5</ele>
        <time>2012-04-18T08:39:40Z</time>
      </trkpt>
      <trkpt lat="43.20242" lon="6.28911">
        <ele>363.799988</ele>
        <time>2012-04-18T08:39:58Z</time>
      </trkpt>
      <trkpt lat="43.20234" lon="6.28905">
        <ele>365.200012</ele>
        <time>2012-04-18T08:40:15Z</time>
      </trkpt>
      <trkpt lat="43.20226" lon="6.28903">
        <ele>365.899994</ele>
        <time>2012-04-18T08:40:27Z</time>
      </trkpt>
      <trkpt lat="43.20218" lon="6.28899">
        <ele>366.600006</ele>
        <time>2012-04-18T08:40:37Z</time>
      </trkpt>
      <trkpt lat="43.2021" lon="6.28897">
        <ele>366.600006</ele>
        <time>2012-04-18T08:40:45Z</time>
      </trkpt>
      <trkpt lat="43.20208" lon="6.28897">
        <ele>366.5</ele>
        <time>2012-04-18T08:40:46Z</time>
      </trkpt>
      <trkpt lat="43.20194" lon="6.28894">
        <ele>367</ele>
        <time>2012-04-18T08:41:00Z</time>
      </trkpt>
      <trkpt lat="43.20186" lon="6.2889">
        <ele>368.399994</ele>
        <time>2012-04-18T08:41:10Z</time>
      </trkpt>
      <trkpt lat="43.20177" lon="6.28888">
        <ele>369.5</ele>
        <time>2012-04-18T08:41:19Z</time>
      </trkpt>
      <trkpt lat="43.20168" lon="6.28887">
        <ele>371.200012</ele>
        <time>2012-04-18T08:41:28Z</time>
      </trkpt>
      <trkpt lat="43.20161" lon="6.28886">
        <ele>372.899994</ele>
        <time>2012-04-18T08:41:37Z</time>
      </trkpt>
      <trkpt lat="43.20152" lon="6.28882">
        <ele>374.299988</ele>
        <time>2012-04-18T08:41:48Z</time>
      </trkpt>
      <trkpt lat="43.20152" lon="6.28882">
        <ele>374.600006</ele>
        <time>2012-04-18T08:41:49Z</time>
      </trkpt>
      <trkpt lat="43.20136" lon="6.28878">
        <ele>376.299988</ele>
        <time>2012-04-18T08:42:02Z</time>
      </trkpt>
      <trkpt lat="43.20128" lon="6.28875">
        <ele>377.700012</ele>
        <time>2012-04-18T08:42:11Z</time>
      </trkpt>
      <trkpt lat="43.2012" lon="6.28873">
        <ele>378.600006</ele>
        <time>2012-04-18T08:42:21Z</time>
      </trkpt>
      <trkpt lat="43.20111" lon="6.2887">
        <ele>380.200012</ele>
        <time>2012-04-18T08:42:31Z</time>
      </trkpt>
      <trkpt lat="43.20104" lon="6.28866">
        <ele>381.5</ele>
        <time>2012-04-18T08:42:40Z</time>
      </trkpt>
      <trkpt lat="43.20096" lon="6.28862">
        <ele>382.5</ele>
        <time>2012-04-18T08:42:51Z</time>
      </trkpt>
      <trkpt lat="43.20095" lon="6.28861">
        <ele>382.600006</ele>
        <time>2012-04-18T08:42:52Z</time>
      </trkpt>
      <trkpt lat="43.20079" lon="6.28854">
        <ele>385.799988</ele>
        <time>2012-04-18T08:43:09Z</time>
      </trkpt>
      <trkpt lat="43.20072" lon="6.28848">
        <ele>386.399994</ele>
        <time>2012-04-18T08:43:16Z</time>
      </trkpt>
      <trkpt lat="43.20065" lon="6.28843">
        <ele>387.5</ele>
        <time>2012-04-18T08:43:23Z</time>
      </trkpt>
      <trkpt lat="43.20058" lon="6.28836">
        <ele>388</ele>
        <time>2012-04-18T08:43:31Z</time>
      </trkpt>
      <trkpt lat="43.20051" lon="6.28829">
        <ele>389.399994</ele>
        <time>2012-04-18T08:43:43Z</time>
      </trkpt>
      <trkpt lat="43.20044" lon="6.28824">
        <ele>392.700012</ele>
        <time>2012-04-18T08:43:58Z</time>
      </trkpt>
      <trkpt lat="43.20043" lon="6.28823">
        <ele>393</ele>
        <time>2012-04-18T08:43:59Z</time>
      </trkpt>
      <trkpt lat="43.20031" lon="6.28809">
        <ele>394.399994</ele>
        <time>2012-04-18T08:44:14Z</time>
      </trkpt>
      <trkpt lat="43.20026" lon="6.288">
        <ele>396.100006</ele>
        <time>2012-04-18T08:44:22Z</time>
      </trkpt>
      <trkpt lat="43.20021" lon="6.2879">
        <ele>396.600006</ele>
        <time>2012-04-18T08:44:32Z</time>
      </trkpt>
      <trkpt lat="43.20018" lon="6.2878">
        <ele>397.899994</ele>
        <time>2012-04-18T08:44:41Z</time>
      </trkpt>
      <trkpt lat="43.2002" lon="6.28769">
        <ele>399.399994</ele>
        <time>2012-04-18T08:44:49Z</time>
      </trkpt>
      <trkpt lat="43.20024" lon="6.28759">
        <ele>400</ele>
        <time>2012-04-18T08:44:57Z</time>
      </trkpt>
      <trkpt lat="43.20029" lon="6.28749">
        <ele>401.600006</ele>
        <time>2012-04-18T08:45:07Z</time>
      </trkpt>
      <trkpt lat="43.20029" lon="6.28748">
        <ele>401.5</ele>
        <time>2012-04-18T08:45:08Z</time>
      </trkpt>
      <trkpt lat="43.20034" lon="6.28734">
        <ele>401.799988</ele>
        <time>2012-04-18T08:46:43Z</time>
      </trkpt>
      <trkpt lat="43.20034" lon="6.28734">
        <ele>401.700012</ele>
        <time>2012-04-18T08:46:44Z</time>
      </trkpt>
      <trkpt lat="43.20034" lon="6.28721">
        <ele>404.399994</ele>
        <time>2012-04-18T08:53:15Z</time>
      </trkpt>
      <trkpt lat="43.20039" lon="6.287">
        <ele>405.200012</ele>
        <time>2012-04-18T08:53:47Z</time>
      </trkpt>
      <trkpt lat="43.20039" lon="6.28689">
        <ele>406.700012</ele>
        <time>2012-04-18T08:53:57Z</time>
      </trkpt>
      <trkpt lat="43.2004" lon="6.28677">
        <ele>407.799988</ele>
        <time>2012-04-18T08:54:07Z</time>
      </trkpt>
      <trkpt lat="43.2004" lon="6.28666">
        <ele>408.799988</ele>
        <time>2012-04-18T08:54:16Z</time>
      </trkpt>
      <trkpt lat="43.2004" lon="6.28665">
        <ele>408.799988</ele>
        <time>2012-04-18T08:54:17Z</time>
      </trkpt>
      <trkpt lat="43.20044" lon="6.28643">
        <ele>410.100006</ele>
        <time>2012-04-18T08:54:33Z</time>
      </trkpt>
      <trkpt lat="43.20047" lon="6.28633">
        <ele>410.299988</ele>
        <time>2012-04-18T08:54:41Z</time>
      </trkpt>
      <trkpt lat="43.20052" lon="6.28624">
        <ele>410.600006</ele>
        <time>2012-04-18T08:54:49Z</time>
      </trkpt>
      <trkpt lat="43.20059" lon="6.28616">
        <ele>410.799988</ele>
        <time>2012-04-18T08:54:58Z</time>
      </trkpt>
      <trkpt lat="43.20066" lon="6.28608">
        <ele>411.399994</ele>
        <time>2012-04-18T08:55:08Z</time>
      </trkpt>
      <trkpt lat="43.20072" lon="6.28602">
        <ele>413.100006</ele>
        <time>2012-04-18T08:55:17Z</time>
      </trkpt>
      <trkpt lat="43.20073" lon="6.28601">
        <ele>413.200012</ele>
        <time>2012-04-18T08:55:18Z</time>
      </trkpt>
      <trkpt lat="43.20088" lon="6.28594">
        <ele>414.5</ele>
        <time>2012-04-18T08:55:32Z</time>
      </trkpt>
      <trkpt lat="43.20097" lon="6.28589">
        <ele>414.899994</ele>
        <time>2012-04-18T08:55:40Z</time>
      </trkpt>
      <trkpt lat="43.20104" lon="6.28585">
        <ele>415.700012</ele>
        <time>2012-04-18T08:55:48Z</time>
      </trkpt>
      <trkpt lat="43.20112" lon="6.28581">
        <ele>416.299988</ele>
        <time>2012-04-18T08:55:57Z</time>
      </trkpt>
      <trkpt lat="43.2012" lon="6.28577">
        <ele>417.700012</ele>
        <time>2012-04-18T08:56:06Z</time>
      </trkpt>
      <trkpt lat="43.20127" lon="6.28572">
        <ele>418.200012</ele>
        <time>2012-04-18T08:56:13Z</time>
      </trkpt>
      <trkpt lat="43.20135" lon="6.28566">
        <ele>419.399994</ele>
        <time>2012-04-18T08:56:21Z</time>
      </trkpt>
      <trkpt lat="43.20136" lon="6.28566">
        <ele>419.600006</ele>
        <time>2012-04-18T08:56:22Z</time>
      </trkpt>
      <trkpt lat="43.20146" lon="6.28547">
        <ele>421.299988</ele>
        <time>2012-04-18T08:56:39Z</time>
      </trkpt>
      <trkpt lat="43.2015" lon="6.28537">
        <ele>421.899994</ele>
        <time>2012-04-18T08:56:47Z</time>
      </trkpt>
      <trkpt lat="43.20152" lon="6.28526">
        <ele>422.700012</ele>
        <time>2012-04-18T08:56:55Z</time>
      </trkpt>
      <trkpt lat="43.20151" lon="6.28514">
        <ele>423.799988</ele>
        <time>2012-04-18T08:57:04Z</time>
      </trkpt>
      <trkpt lat="43.20148" lon="6.28504">
        <ele>424.799988</ele>
        <time>2012-04-18T08:57:13Z</time>
      </trkpt>
      <trkpt lat="43.20148" lon="6.28492">
        <ele>425.600006</ele>
        <time>2012-04-18T08:57:22Z</time>
      </trkpt>
      <trkpt lat="43.20148" lon="6.2849">
        <ele>425.399994</ele>
        <time>2012-04-18T08:57:23Z</time>
      </trkpt>
      <trkpt lat="43.20159" lon="6.28475">
        <ele>425.799988</ele>
        <time>2012-04-18T08:57:36Z</time>
      </trkpt>
      <trkpt lat="43.20163" lon="6.28464">
        <ele>427.299988</ele>
        <time>2012-04-18T08:57:45Z</time>
      </trkpt>
      <trkpt lat="43.20166" lon="6.28453">
        <ele>427.600006</ele>
        <time>2012-04-18T08:57:53Z</time>
      </trkpt>
      <trkpt lat="43.20169" lon="6.28442">
        <ele>428.100006</ele>
        <time>2012-04-18T08:58:01Z</time>
      </trkpt>
      <trkpt lat="43.20168" lon="6.28431">
        <ele>428.799988</ele>
        <time>2012-04-18T08:58:08Z</time>
      </trkpt>
      <trkpt lat="43.20169" lon="6.28419">
        <ele>428.700012</ele>
        <time>2012-04-18T08:58:16Z</time>
      </trkpt>
      <trkpt lat="43.20171" lon="6.28407">
        <ele>429.5</ele>
        <time>2012-04-18T08:58:24Z</time>
      </trkpt>
      <trkpt lat="43.20171" lon="6.28406">
        <ele>429.399994</ele>
        <time>2012-04-18T08:58:25Z</time>
      </trkpt>
      <trkpt lat="43.20175" lon="6.28384">
        <ele>430.5</ele>
        <time>2012-04-18T08:58:40Z</time>
      </trkpt>
      <trkpt lat="43.20178" lon="6.28373">
        <ele>432.100006</ele>
        <time>2012-04-18T08:58:49Z</time>
      </trkpt>
      <trkpt lat="43.20181" lon="6.28363">
        <ele>433.899994</ele>
        <time>2012-04-18T08:58:57Z</time>
      </trkpt>
      <trkpt lat="43.20185" lon="6.28353">
        <ele>435.5</ele>
        <time>2012-04-18T08:59:06Z</time>
      </trkpt>
      <trkpt lat="43.20181" lon="6.28342">
        <ele>437.899994</ele>
        <time>2012-04-18T08:59:18Z</time>
      </trkpt>
      <trkpt lat="43.20172" lon="6.28341">
        <ele>438.200012</ele>
        <time>2012-04-18T08:59:27Z</time>
      </trkpt>
      <trkpt lat="43.20171" lon="6.28342">
        <ele>438.399994</ele>
        <time>2012-04-18T08:59:28Z</time>
      </trkpt>
      <trkpt lat="43.20155" lon="6.28346">
        <ele>439.799988</ele>
        <time>2012-04-18T08:59:44Z</time>
      </trkpt>
      <trkpt lat="43.20147" lon="6.28343">
        <ele>440.899994</ele>
        <time>2012-04-18T08:59:52Z</time>
      </trkpt>
      <trkpt lat="43.2014" lon="6.28335">
        <ele>442.100006</ele>
        <time>2012-04-18T09:00:01Z</time>
      </trkpt>
      <trkpt lat="43.20137" lon="6.28324">
        <ele>441.100006</ele>
        <time>2012-04-18T09:00:37Z</time>
      </trkpt>
      <trkpt lat="43.20137" lon="6.28323">
        <ele>441.100006</ele>
        <time>2012-04-18T09:00:38Z</time>
      </trkpt>
      <trkpt lat="43.2014" lon="6.28312">
        <ele>439.899994</ele>
        <time>2012-04-18T09:02:55Z</time>
      </trkpt>
      <trkpt lat="43.20144" lon="6.2829">
        <ele>439.399994</ele>
        <time>2012-04-18T09:03:28Z</time>
      </trkpt>
      <trkpt lat="43.20144" lon="6.28279">
        <ele>439.100006</ele>
        <time>2012-04-18T09:03:36Z</time>
      </trkpt>
      <trkpt lat="43.20144" lon="6.28267">
        <ele>438.799988</ele>
        <time>2012-04-18T09:03:43Z</time>
      </trkpt>
      <trkpt lat="43.20144" lon="6.28256">
        <ele>437.5</ele>
        <time>2012-04-18T09:03:50Z</time>
      </trkpt>
      <trkpt lat="43.20143" lon="6.28244">
        <ele>437.600006</ele>
        <time>2012-04-18T09:03:57Z</time>
      </trkpt>
      <trkpt lat="43.20144" lon="6.28242">
        <ele>437.799988</ele>
        <time>2012-04-18T09:03:58Z</time>
      </trkpt>
      <trkpt lat="43.20144" lon="6.28223">
        <ele>437</ele>
        <time>2012-04-18T09:04:09Z</time>
      </trkpt>
      <trkpt lat="43.20144" lon="6.2821">
        <ele>436.600006</ele>
        <time>2012-04-18T09:04:16Z</time>
      </trkpt>
      <trkpt lat="43.20145" lon="6.28199">
        <ele>436</ele>
        <time>2012-04-18T09:04:23Z</time>
      </trkpt>
      <trkpt lat="43.20146" lon="6.28188">
        <ele>436</ele>
        <time>2012-04-18T09:04:29Z</time>
      </trkpt>
      <trkpt lat="43.20149" lon="6.28177">
        <ele>435.5</ele>
        <time>2012-04-18T09:04:36Z</time>
      </trkpt>
      <trkpt lat="43.20154" lon="6.28167">
        <ele>435.399994</ele>
        <time>2012-04-18T09:04:43Z</time>
      </trkpt>
      <trkpt lat="43.20159" lon="6.28159">
        <ele>434.899994</ele>
        <time>2012-04-18T09:04:49Z</time>
      </trkpt>
      <trkpt lat="43.20166" lon="6.28152">
        <ele>434.799988</ele>
        <time>2012-04-18T09:04:55Z</time>
      </trkpt>
      <trkpt lat="43.20172" lon="6.28145">
        <ele>433.899994</ele>
        <time>2012-04-18T09:05:02Z</time>
      </trkpt>
      <trkpt lat="43.20173" lon="6.28144">
        <ele>432.600006</ele>
        <time>2012-04-18T09:05:03Z</time>
      </trkpt>
      <trkpt lat="43.20186" lon="6.28135">
        <ele>433</ele>
        <time>2012-04-18T09:05:14Z</time>
      </trkpt>
      <trkpt lat="43.20194" lon="6.28134">
        <ele>432.200012</ele>
        <time>2012-04-18T09:05:20Z</time>
      </trkpt>
      <trkpt lat="43.20202" lon="6.28135">
        <ele>430.399994</ele>
        <time>2012-04-18T09:05:27Z</time>
      </trkpt>
      <trkpt lat="43.20211" lon="6.28135">
        <ele>431</ele>
        <time>2012-04-18T09:05:34Z</time>
      </trkpt>
      <trkpt lat="43.20219" lon="6.28134">
        <ele>428.700012</ele>
        <time>2012-04-18T09:05:41Z</time>
      </trkpt>
      <trkpt lat="43.20227" lon="6.28131">
        <ele>430</ele>
        <time>2012-04-18T09:05:48Z</time>
      </trkpt>
      <trkpt lat="43.20235" lon="6.28127">
        <ele>428.899994</ele>
        <time>2012-04-18T09:05:55Z</time>
      </trkpt>
      <trkpt lat="43.20242" lon="6.28122">
        <ele>428.700012</ele>
        <time>2012-04-18T09:06:01Z</time>
      </trkpt>
      <trkpt lat="43.20249" lon="6.28117">
        <ele>428.200012</ele>
        <time>2012-04-18T09:06:07Z</time>
      </trkpt>
      <trkpt lat="43.2025" lon="6.28116">
        <ele>428.399994</ele>
        <time>2012-04-18T09:06:08Z</time>
      </trkpt>
      <trkpt lat="43.20264" lon="6.28107">
        <ele>427.200012</ele>
        <time>2012-04-18T09:06:20Z</time>
      </trkpt>
      <trkpt lat="43.20271" lon="6.28101">
        <ele>426.399994</ele>
        <time>2012-04-18T09:06:26Z</time>
      </trkpt>
      <trkpt lat="43.20278" lon="6.28095">
        <ele>425.600006</ele>
        <time>2012-04-18T09:06:32Z</time>
      </trkpt>
      <trkpt lat="43.20284" lon="6.28089">
        <ele>424.700012</ele>
        <time>2012-04-18T09:06:38Z</time>
      </trkpt>
      <trkpt lat="43.20291" lon="6.28083">
        <ele>424.200012</ele>
        <time>2012-04-18T09:06:43Z</time>
      </trkpt>
      <trkpt lat="43.20298" lon="6.28077">
        <ele>424.399994</ele>
        <time>2012-04-18T09:06:51Z</time>
      </trkpt>
      <trkpt lat="43.20305" lon="6.28072">
        <ele>422.600006</ele>
        <time>2012-04-18T09:06:57Z</time>
      </trkpt>
      <trkpt lat="43.20313" lon="6.28066">
        <ele>422.899994</ele>
        <time>2012-04-18T09:07:04Z</time>
      </trkpt>
      <trkpt lat="43.2032" lon="6.28061">
        <ele>422.299988</ele>
        <time>2012-04-18T09:07:10Z</time>
      </trkpt>
      <trkpt lat="43.20321" lon="6.2806">
        <ele>422.200012</ele>
        <time>2012-04-18T09:07:11Z</time>
      </trkpt>
      <trkpt lat="43.20334" lon="6.28047">
        <ele>420.899994</ele>
        <time>2012-04-18T09:07:24Z</time>
      </trkpt>
      <trkpt lat="43.20341" lon="6.2804">
        <ele>419.899994</ele>
        <time>2012-04-18T09:07:31Z</time>
      </trkpt>
      <trkpt lat="43.20348" lon="6.28033">
        <ele>419.799988</ele>
        <time>2012-04-18T09:07:38Z</time>
      </trkpt>
      <trkpt lat="43.20356" lon="6.28028">
        <ele>419.899994</ele>
        <time>2012-04-18T09:07:45Z</time>
      </trkpt>
      <trkpt lat="43.20364" lon="6.28026">
        <ele>419.200012</ele>
        <time>2012-04-18T09:07:52Z</time>
      </trkpt>
      <trkpt lat="43.20372" lon="6.28027">
        <ele>418</ele>
        <time>2012-04-18T09:08:00Z</time>
      </trkpt>
      <trkpt lat="43.2038" lon="6.28033">
        <ele>417.799988</ele>
        <time>2012-04-18T09:08:08Z</time>
      </trkpt>
      <trkpt lat="43.20387" lon="6.2804">
        <ele>417.700012</ele>
        <time>2012-04-18T09:08:15Z</time>
      </trkpt>
      <trkpt lat="43.20388" lon="6.28041">
        <ele>417.600006</ele>
        <time>2012-04-18T09:08:16Z</time>
      </trkpt>
      <trkpt lat="43.20399" lon="6.28057">
        <ele>416.399994</ele>
        <time>2012-04-18T09:08:29Z</time>
      </trkpt>
      <trkpt lat="43.20405" lon="6.28063">
        <ele>415.799988</ele>
        <time>2012-04-18T09:08:37Z</time>
      </trkpt>
      <trkpt lat="43.20413" lon="6.28067">
        <ele>415</ele>
        <time>2012-04-18T09:08:44Z</time>
      </trkpt>
      <trkpt lat="43.20421" lon="6.28068">
        <ele>413.600006</ele>
        <time>2012-04-18T09:08:51Z</time>
      </trkpt>
      <trkpt lat="43.20429" lon="6.28068">
        <ele>413.700012</ele>
        <time>2012-04-18T09:08:57Z</time>
      </trkpt>
      <trkpt lat="43.20438" lon="6.28065">
        <ele>411.799988</ele>
        <time>2012-04-18T09:09:04Z</time>
      </trkpt>
      <trkpt lat="43.20445" lon="6.2806">
        <ele>411.299988</ele>
        <time>2012-04-18T09:09:11Z</time>
      </trkpt>
      <trkpt lat="43.20453" lon="6.28056">
        <ele>410.600006</ele>
        <time>2012-04-18T09:09:18Z</time>
      </trkpt>
      <trkpt lat="43.20455" lon="6.28055">
        <ele>410.5</ele>
        <time>2012-04-18T09:09:19Z</time>
      </trkpt>
      <trkpt lat="43.20468" lon="6.28046">
        <ele>410.100006</ele>
        <time>2012-04-18T09:09:31Z</time>
      </trkpt>
      <trkpt lat="43.20475" lon="6.28042">
        <ele>409.899994</ele>
        <time>2012-04-18T09:09:37Z</time>
      </trkpt>
      <trkpt lat="43.20484" lon="6.28039">
        <ele>409.100006</ele>
        <time>2012-04-18T09:09:44Z</time>
      </trkpt>
      <trkpt lat="43.20493" lon="6.2804">
        <ele>409.100006</ele>
        <time>2012-04-18T09:09:51Z</time>
      </trkpt>
      <trkpt lat="43.20501" lon="6.2804">
        <ele>408.799988</ele>
        <time>2012-04-18T09:09:58Z</time>
      </trkpt>
      <trkpt lat="43.2051" lon="6.28039">
        <ele>408.299988</ele>
        <time>2012-04-18T09:10:05Z</time>
      </trkpt>
      <trkpt lat="43.20517" lon="6.28035">
        <ele>408.200012</ele>
        <time>2012-04-18T09:10:12Z</time>
      </trkpt>
      <trkpt lat="43.20523" lon="6.28028">
        <ele>407.5</ele>
        <time>2012-04-18T09:10:19Z</time>
      </trkpt>
      <trkpt lat="43.20524" lon="6.28027">
        <ele>407.200012</ele>
        <time>2012-04-18T09:10:20Z</time>
      </trkpt>
      <trkpt lat="43.20534" lon="6.28012">
        <ele>406</ele>
        <time>2012-04-18T09:10:32Z</time>
      </trkpt>
      <trkpt lat="43.20539" lon="6.28002">
        <ele>405.200012</ele>
        <time>2012-04-18T09:10:39Z</time>
      </trkpt>
      <trkpt lat="43.20541" lon="6.27992">
        <ele>404.899994</ele>
        <time>2012-04-18T09:10:46Z</time>
      </trkpt>
      <trkpt lat="43.20542" lon="6.27981">
        <ele>404.5</ele>
        <time>2012-04-18T09:10:53Z</time>
      </trkpt>
      <trkpt lat="43.20546" lon="6.27971">
        <ele>404.200012</ele>
        <time>2012-04-18T09:10:59Z</time>
      </trkpt>
      <trkpt lat="43.20552" lon="6.27962">
        <ele>404</ele>
        <time>2012-04-18T09:11:06Z</time>
      </trkpt>
      <trkpt lat="43.20558" lon="6.27954">
        <ele>403.299988</ele>
        <time>2012-04-18T09:11:13Z</time>
      </trkpt>
      <trkpt lat="43.20565" lon="6.27946">
        <ele>404</ele>
        <time>2012-04-18T09:11:20Z</time>
      </trkpt>
      <trkpt lat="43.20572" lon="6.27939">
        <ele>402.700012</ele>
        <time>2012-04-18T09:11:27Z</time>
      </trkpt>
      <trkpt lat="43.20573" lon="6.27938">
        <ele>402.799988</ele>
        <time>2012-04-18T09:11:28Z</time>
      </trkpt>
      <trkpt lat="43.20586" lon="6.27928">
        <ele>402.100006</ele>
        <time>2012-04-18T09:11:40Z</time>
      </trkpt>
      <trkpt lat="43.20595" lon="6.27923">
        <ele>401.399994</ele>
        <time>2012-04-18T09:11:47Z</time>
      </trkpt>
      <trkpt lat="43.20603" lon="6.27921">
        <ele>400.799988</ele>
        <time>2012-04-18T09:11:54Z</time>
      </trkpt>
      <trkpt lat="43.20612" lon="6.27918">
        <ele>399.799988</ele>
        <time>2012-04-18T09:12:01Z</time>
      </trkpt>
      <trkpt lat="43.2062" lon="6.27917">
        <ele>399.700012</ele>
        <time>2012-04-18T09:12:08Z</time>
      </trkpt>
      <trkpt lat="43.20628" lon="6.27917">
        <ele>398.200012</ele>
        <time>2012-04-18T09:12:15Z</time>
      </trkpt>
      <trkpt lat="43.20636" lon="6.27919">
        <ele>397.5</ele>
        <time>2012-04-18T09:12:22Z</time>
      </trkpt>
      <trkpt lat="43.20644" lon="6.27923">
        <ele>397.299988</ele>
        <time>2012-04-18T09:12:29Z</time>
      </trkpt>
      <trkpt lat="43.20645" lon="6.27924">
        <ele>397.399994</ele>
        <time>2012-04-18T09:12:30Z</time>
      </trkpt>
      <trkpt lat="43.20657" lon="6.27936">
        <ele>397.100006</ele>
        <time>2012-04-18T09:12:43Z</time>
      </trkpt>
      <trkpt lat="43.20662" lon="6.27945">
        <ele>396.200012</ele>
        <time>2012-04-18T09:12:50Z</time>
      </trkpt>
      <trkpt lat="43.20666" lon="6.27955">
        <ele>395.200012</ele>
        <time>2012-04-18T09:12:57Z</time>
      </trkpt>
      <trkpt lat="43.20669" lon="6.27967">
        <ele>394.5</ele>
        <time>2012-04-18T09:13:04Z</time>
      </trkpt>
      <trkpt lat="43.20672" lon="6.27978">
        <ele>394.100006</ele>
        <time>2012-04-18T09:13:11Z</time>
      </trkpt>
      <trkpt lat="43.20674" lon="6.2799">
        <ele>393.399994</ele>
        <time>2012-04-18T09:13:18Z</time>
      </trkpt>
      <trkpt lat="43.20676" lon="6.28">
        <ele>392.100006</ele>
        <time>2012-04-18T09:13:24Z</time>
      </trkpt>
      <trkpt lat="43.20677" lon="6.28012">
        <ele>391.899994</ele>
        <time>2012-04-18T09:13:31Z</time>
      </trkpt>
      <trkpt lat="43.20677" lon="6.28014">
        <ele>391.700012</ele>
        <time>2012-04-18T09:13:32Z</time>
      </trkpt>
      <trkpt lat="43.2068" lon="6.28034">
        <ele>390</ele>
        <time>2012-04-18T09:13:44Z</time>
      </trkpt>
      <trkpt lat="43.20682" lon="6.28045">
        <ele>388.799988</ele>
        <time>2012-04-18T09:13:51Z</time>
      </trkpt>
      <trkpt lat="43.20685" lon="6.28055">
        <ele>387.899994</ele>
        <time>2012-04-18T09:13:58Z</time>
      </trkpt>
      <trkpt lat="43.20688" lon="6.28065">
        <ele>387.600006</ele>
        <time>2012-04-18T09:14:05Z</time>
      </trkpt>
      <trkpt lat="43.20693" lon="6.28074">
        <ele>386.600006</ele>
        <time>2012-04-18T09:14:13Z</time>
      </trkpt>
      <trkpt lat="43.20701" lon="6.28081">
        <ele>385.899994</ele>
        <time>2012-04-18T09:14:53Z</time>
      </trkpt>
      <trkpt lat="43.20701" lon="6.28081">
        <ele>385.899994</ele>
        <time>2012-04-18T09:14:54Z</time>
      </trkpt>
      <trkpt lat="43.20717" lon="6.28086">
        <ele>385.799988</ele>
        <time>2012-04-18T09:15:21Z</time>
      </trkpt>
      <trkpt lat="43.20726" lon="6.28086">
        <ele>385.299988</ele>
        <time>2012-04-18T09:15:30Z</time>
      </trkpt>
      <trkpt lat="43.20734" lon="6.28087">
        <ele>384.700012</ele>
        <time>2012-04-18T09:15:38Z</time>
      </trkpt>
      <trkpt lat="43.20741" lon="6.28089">
        <ele>384.799988</ele>
        <time>2012-04-18T09:15:45Z</time>
      </trkpt>
      <trkpt lat="43.20749" lon="6.28092">
        <ele>384.700012</ele>
        <time>2012-04-18T09:15:51Z</time>
      </trkpt>
      <trkpt lat="43.20757" lon="6.28097">
        <ele>383.700012</ele>
        <time>2012-04-18T09:15:58Z</time>
      </trkpt>
      <trkpt lat="43.20758" lon="6.28098">
        <ele>383.899994</ele>
        <time>2012-04-18T09:15:59Z</time>
      </trkpt>
      <trkpt lat="43.20772" lon="6.28109">
        <ele>382.299988</ele>
        <time>2012-04-18T09:16:11Z</time>
      </trkpt>
      <trkpt lat="43.20778" lon="6.28115">
        <ele>383.200012</ele>
        <time>2012-04-18T09:16:17Z</time>
      </trkpt>
      <trkpt lat="43.20785" lon="6.28121">
        <ele>382.700012</ele>
        <time>2012-04-18T09:16:23Z</time>
      </trkpt>
      <trkpt lat="43.20792" lon="6.28127">
        <ele>382.299988</ele>
        <time>2012-04-18T09:16:30Z</time>
      </trkpt>
      <trkpt lat="43.20799" lon="6.28133">
        <ele>380.700012</ele>
        <time>2012-04-18T09:16:37Z</time>
      </trkpt>
      <trkpt lat="43.20807" lon="6.28135">
        <ele>381.200012</ele>
        <time>2012-04-18T09:16:44Z</time>
      </trkpt>
      <trkpt lat="43.20815" lon="6.28132">
        <ele>379.899994</ele>
        <time>2012-04-18T09:16:52Z</time>
      </trkpt>
      <trkpt lat="43.20821" lon="6.28123">
        <ele>378.600006</ele>
        <time>2012-04-18T09:17:00Z</time>
      </trkpt>
      <trkpt lat="43.20822" lon="6.28122">
        <ele>378.600006</ele>
        <time>2012-04-18T09:17:01Z</time>
      </trkpt>
      <trkpt lat="43.2083" lon="6.28102">
        <ele>377.299988</ele>
        <time>2012-04-18T09:17:16Z</time>
      </trkpt>
      <trkpt lat="43.20835" lon="6.28092">
        <ele>375.799988</ele>
        <time>2012-04-18T09:17:24Z</time>
      </trkpt>
      <trkpt lat="43.2084" lon="6.28083">
        <ele>375.5</ele>
        <time>2012-04-18T09:17:31Z</time>
      </trkpt>
      <trkpt lat="43.20844" lon="6.28073">
        <ele>373.899994</ele>
        <time>2012-04-18T09:17:39Z</time>
      </trkpt>
      <trkpt lat="43.20848" lon="6.28062">
        <ele>373.200012</ele>
        <time>2012-04-18T09:17:47Z</time>
      </trkpt>
      <trkpt lat="43.20851" lon="6.28051">
        <ele>372.299988</ele>
        <time>2012-04-18T09:17:55Z</time>
      </trkpt>
      <trkpt lat="43.20854" lon="6.2804">
        <ele>371.100006</ele>
        <time>2012-04-18T09:18:02Z</time>
      </trkpt>
      <trkpt lat="43.20854" lon="6.28039">
        <ele>371</ele>
        <time>2012-04-18T09:18:03Z</time>
      </trkpt>
      <trkpt lat="43.20858" lon="6.28018">
        <ele>370.299988</ele>
        <time>2012-04-18T09:18:16Z</time>
      </trkpt>
      <trkpt lat="43.20859" lon="6.28006">
        <ele>369.600006</ele>
        <time>2012-04-18T09:18:24Z</time>
      </trkpt>
      <trkpt lat="43.20861" lon="6.27995">
        <ele>368.700012</ele>
        <time>2012-04-18T09:18:31Z</time>
      </trkpt>
      <trkpt lat="43.20861" lon="6.27984">
        <ele>368.299988</ele>
        <time>2012-04-18T09:18:38Z</time>
      </trkpt>
      <trkpt lat="43.20862" lon="6.27973">
        <ele>367</ele>
        <time>2012-04-18T09:18:45Z</time>
      </trkpt>
      <trkpt lat="43.20862" lon="6.27961">
        <ele>366.799988</ele>
        <time>2012-04-18T09:18:52Z</time>
      </trkpt>
      <trkpt lat="43.20863" lon="6.2795">
        <ele>365.899994</ele>
        <time>2012-04-18T09:18:59Z</time>
      </trkpt>
      <trkpt lat="43.20864" lon="6.27939">
        <ele>365.200012</ele>
        <time>2012-04-18T09:19:07Z</time>
      </trkpt>
      <trkpt lat="43.20864" lon="6.27937">
        <ele>365</ele>
        <time>2012-04-18T09:19:08Z</time>
      </trkpt>
      <trkpt lat="43.20866" lon="6.27916">
        <ele>363.700012</ele>
        <time>2012-04-18T09:19:21Z</time>
      </trkpt>
      <trkpt lat="43.20868" lon="6.27906">
        <ele>362.600006</ele>
        <time>2012-04-18T09:19:27Z</time>
      </trkpt>
      <trkpt lat="43.20869" lon="6.27895">
        <ele>362.899994</ele>
        <time>2012-04-18T09:19:33Z</time>
      </trkpt>
      <trkpt lat="43.20869" lon="6.27884">
        <ele>362.399994</ele>
        <time>2012-04-18T09:19:40Z</time>
      </trkpt>
      <trkpt lat="43.20869" lon="6.27872">
        <ele>361</ele>
        <time>2012-04-18T09:19:47Z</time>
      </trkpt>
      <trkpt lat="43.20869" lon="6.27861">
        <ele>360.5</ele>
        <time>2012-04-18T09:19:53Z</time>
      </trkpt>
      <trkpt lat="43.20869" lon="6.27848">
        <ele>360.100006</ele>
        <time>2012-04-18T09:20:01Z</time>
      </trkpt>
      <trkpt lat="43.20867" lon="6.27837">
        <ele>358.299988</ele>
        <time>2012-04-18T09:20:08Z</time>
      </trkpt>
      <trkpt lat="43.20867" lon="6.27836">
        <ele>358</ele>
        <time>2012-04-18T09:20:09Z</time>
      </trkpt>
      <trkpt lat="43.20865" lon="6.27814">
        <ele>357.200012</ele>
        <time>2012-04-18T09:20:23Z</time>
      </trkpt>
      <trkpt lat="43.20864" lon="6.27803">
        <ele>355.700012</ele>
        <time>2012-04-18T09:20:30Z</time>
      </trkpt>
      <trkpt lat="43.20862" lon="6.27791">
        <ele>354.799988</ele>
        <time>2012-04-18T09:20:37Z</time>
      </trkpt>
      <trkpt lat="43.2086" lon="6.2778">
        <ele>354.399994</ele>
        <time>2012-04-18T09:20:43Z</time>
      </trkpt>
      <trkpt lat="43.20858" lon="6.2777">
        <ele>353.100006</ele>
        <time>2012-04-18T09:20:49Z</time>
      </trkpt>
      <trkpt lat="43.20856" lon="6.27759">
        <ele>353.5</ele>
        <time>2012-04-18T09:20:55Z</time>
      </trkpt>
      <trkpt lat="43.20854" lon="6.27748">
        <ele>352.5</ele>
        <time>2012-04-18T09:21:02Z</time>
      </trkpt>
      <trkpt lat="43.20852" lon="6.27736">
        <ele>351.799988</ele>
        <time>2012-04-18T09:21:09Z</time>
      </trkpt>
      <trkpt lat="43.20851" lon="6.27734">
        <ele>351.700012</ele>
        <time>2012-04-18T09:21:10Z</time>
      </trkpt>
      <trkpt lat="43.20846" lon="6.27713">
        <ele>349.100006</ele>
        <time>2012-04-18T09:21:23Z</time>
      </trkpt>
      <trkpt lat="43.20845" lon="6.27702">
        <ele>348.100006</ele>
        <time>2012-04-18T09:21:29Z</time>
      </trkpt>
      <trkpt lat="43.20843" lon="6.27691">
        <ele>348.100006</ele>
        <time>2012-04-18T09:21:36Z</time>
      </trkpt>
      <trkpt lat="43.20842" lon="6.27679">
        <ele>347.5</ele>
        <time>2012-04-18T09:21:43Z</time>
      </trkpt>
      <trkpt lat="43.2084" lon="6.27668">
        <ele>346.700012</ele>
        <time>2012-04-18T09:21:50Z</time>
      </trkpt>
      <trkpt lat="43.20839" lon="6.27657">
        <ele>346.899994</ele>
        <time>2012-04-18T09:21:57Z</time>
      </trkpt>
      <trkpt lat="43.20837" lon="6.27645">
        <ele>346.5</ele>
        <time>2012-04-18T09:22:03Z</time>
      </trkpt>
      <trkpt lat="43.20836" lon="6.27634">
        <ele>346.5</ele>
        <time>2012-04-18T09:22:09Z</time>
      </trkpt>
      <trkpt lat="43.20834" lon="6.27622">
        <ele>345.399994</ele>
        <time>2012-04-18T09:22:15Z</time>
      </trkpt>
      <trkpt lat="43.20834" lon="6.2762">
        <ele>345.5</ele>
        <time>2012-04-18T09:22:16Z</time>
      </trkpt>
      <trkpt lat="43.20836" lon="6.276">
        <ele>344.399994</ele>
        <time>2012-04-18T09:22:27Z</time>
      </trkpt>
      <trkpt lat="43.20839" lon="6.27589">
        <ele>344.799988</ele>
        <time>2012-04-18T09:22:33Z</time>
      </trkpt>
      <trkpt lat="43.20843" lon="6.27578">
        <ele>344.399994</ele>
        <time>2012-04-18T09:22:39Z</time>
      </trkpt>
      <trkpt lat="43.20846" lon="6.27568">
        <ele>343.5</ele>
        <time>2012-04-18T09:22:45Z</time>
      </trkpt>
      <trkpt lat="43.20849" lon="6.27558">
        <ele>342.200012</ele>
        <time>2012-04-18T09:22:51Z</time>
      </trkpt>
      <trkpt lat="43.20852" lon="6.27548">
        <ele>341.5</ele>
        <time>2012-04-18T09:22:57Z</time>
      </trkpt>
      <trkpt lat="43.20855" lon="6.27536">
        <ele>342</ele>
        <time>2012-04-18T09:23:04Z</time>
      </trkpt>
      <trkpt lat="43.20858" lon="6.27527">
        <ele>341.700012</ele>
        <time>2012-04-18T09:23:10Z</time>
      </trkpt>
      <trkpt lat="43.20863" lon="6.27518">
        <ele>341.200012</ele>
        <time>2012-04-18T09:23:16Z</time>
      </trkpt>
      <trkpt lat="43.20864" lon="6.27516">
        <ele>341.299988</ele>
        <time>2012-04-18T09:23:17Z</time>
      </trkpt>
      <trkpt lat="43.20874" lon="6.27501">
        <ele>340.200012</ele>
        <time>2012-04-18T09:23:28Z</time>
      </trkpt>
      <trkpt lat="43.20881" lon="6.27495">
        <ele>340</ele>
        <time>2012-04-18T09:23:34Z</time>
      </trkpt>
      <trkpt lat="43.20887" lon="6.27489">
        <ele>339.200012</ele>
        <time>2012-04-18T09:23:40Z</time>
      </trkpt>
      <trkpt lat="43.20894" lon="6.27485">
        <ele>338.100006</ele>
        <time>2012-04-18T09:23:46Z</time>
      </trkpt>
      <trkpt lat="43.209" lon="6.27477">
        <ele>337.899994</ele>
        <time>2012-04-18T09:23:52Z</time>
      </trkpt>
      <trkpt lat="43.20907" lon="6.2747">
        <ele>337.5</ele>
        <time>2012-04-18T09:23:59Z</time>
      </trkpt>
      <trkpt lat="43.20914" lon="6.27463">
        <ele>336.799988</ele>
        <time>2012-04-18T09:24:06Z</time>
      </trkpt>
      <trkpt lat="43.20921" lon="6.27456">
        <ele>336.200012</ele>
        <time>2012-04-18T09:24:13Z</time>
      </trkpt>
      <trkpt lat="43.20929" lon="6.2745">
        <ele>335.200012</ele>
        <time>2012-04-18T09:24:20Z</time>
      </trkpt>
      <trkpt lat="43.2093" lon="6.27449">
        <ele>335.200012</ele>
        <time>2012-04-18T09:24:21Z</time>
      </trkpt>
      <trkpt lat="43.20944" lon="6.27441">
        <ele>335.299988</ele>
        <time>2012-04-18T09:24:34Z</time>
      </trkpt>
      <trkpt lat="43.20952" lon="6.27438">
        <ele>334.600006</ele>
        <time>2012-04-18T09:24:41Z</time>
      </trkpt>
      <trkpt lat="43.2096" lon="6.27437">
        <ele>333.799988</ele>
        <time>2012-04-18T09:24:48Z</time>
      </trkpt>
      <trkpt lat="43.20969" lon="6.27438">
        <ele>333.299988</ele>
        <time>2012-04-18T09:24:55Z</time>
      </trkpt>
      <trkpt lat="43.20977" lon="6.27439">
        <ele>333.100006</ele>
        <time>2012-04-18T09:25:02Z</time>
      </trkpt>
      <trkpt lat="43.20985" lon="6.27441">
        <ele>332.600006</ele>
        <time>2012-04-18T09:25:09Z</time>
      </trkpt>
      <trkpt lat="43.20994" lon="6.27443">
        <ele>333</ele>
        <time>2012-04-18T09:25:17Z</time>
      </trkpt>
      <trkpt lat="43.21002" lon="6.27444">
        <ele>332.700012</ele>
        <time>2012-04-18T09:25:23Z</time>
      </trkpt>
      <trkpt lat="43.21003" lon="6.27444">
        <ele>332.899994</ele>
        <time>2012-04-18T09:25:24Z</time>
      </trkpt>
      <trkpt lat="43.21017" lon="6.2744">
        <ele>331.5</ele>
        <time>2012-04-18T09:25:35Z</time>
      </trkpt>
      <trkpt lat="43.21025" lon="6.27435">
        <ele>331.100006</ele>
        <time>2012-04-18T09:25:42Z</time>
      </trkpt>
      <trkpt lat="43.21031" lon="6.27428">
        <ele>330.399994</ele>
        <time>2012-04-18T09:25:49Z</time>
      </trkpt>
      <trkpt lat="43.21038" lon="6.2742">
        <ele>329.899994</ele>
        <time>2012-04-18T09:25:56Z</time>
      </trkpt>
      <trkpt lat="43.21044" lon="6.27412">
        <ele>330.200012</ele>
        <time>2012-04-18T09:26:04Z</time>
      </trkpt>
      <trkpt lat="43.21051" lon="6.27405">
        <ele>330.799988</ele>
        <time>2012-04-18T09:26:12Z</time>
      </trkpt>
      <trkpt lat="43.21058" lon="6.27398">
        <ele>330.299988</ele>
        <time>2012-04-18T09:26:19Z</time>
      </trkpt>
      <trkpt lat="43.21065" lon="6.27391">
        <ele>329.200012</ele>
        <time>2012-04-18T09:26:26Z</time>
      </trkpt>
      <trkpt lat="43.21066" lon="6.2739">
        <ele>328.899994</ele>
        <time>2012-04-18T09:26:27Z</time>
      </trkpt>
      <trkpt lat="43.21079" lon="6.27378">
        <ele>328.399994</ele>
        <time>2012-04-18T09:26:40Z</time>
      </trkpt>
      <trkpt lat="43.21084" lon="6.27369">
        <ele>328.899994</ele>
        <time>2012-04-18T09:26:47Z</time>
      </trkpt>
      <trkpt lat="43.21086" lon="6.27358">
        <ele>328.100006</ele>
        <time>2012-04-18T09:26:54Z</time>
      </trkpt>
      <trkpt lat="43.21087" lon="6.27346">
        <ele>326.600006</ele>
        <time>2012-04-18T09:27:01Z</time>
      </trkpt>
      <trkpt lat="43.21088" lon="6.27335">
        <ele>326.600006</ele>
        <time>2012-04-18T09:27:08Z</time>
      </trkpt>
      <trkpt lat="43.21089" lon="6.27323">
        <ele>325.899994</ele>
        <time>2012-04-18T09:27:15Z</time>
      </trkpt>
      <trkpt lat="43.2109" lon="6.27311">
        <ele>325.5</ele>
        <time>2012-04-18T09:27:22Z</time>
      </trkpt>
      <trkpt lat="43.21091" lon="6.27301">
        <ele>325.299988</ele>
        <time>2012-04-18T09:27:28Z</time>
      </trkpt>
      <trkpt lat="43.21091" lon="6.27299">
        <ele>325.600006</ele>
        <time>2012-04-18T09:27:29Z</time>
      </trkpt>
      <trkpt lat="43.21095" lon="6.27278">
        <ele>325.100006</ele>
        <time>2012-04-18T09:27:41Z</time>
      </trkpt>
      <trkpt lat="43.21097" lon="6.27267">
        <ele>323.600006</ele>
        <time>2012-04-18T09:27:48Z</time>
      </trkpt>
      <trkpt lat="43.211" lon="6.27257">
        <ele>323.799988</ele>
        <time>2012-04-18T09:27:54Z</time>
      </trkpt>
      <trkpt lat="43.21103" lon="6.27247">
        <ele>323.799988</ele>
        <time>2012-04-18T09:28:00Z</time>
      </trkpt>
      <trkpt lat="43.21108" lon="6.27238">
        <ele>323.100006</ele>
        <time>2012-04-18T09:28:06Z</time>
      </trkpt>
      <trkpt lat="43.21112" lon="6.27229">
        <ele>322.799988</ele>
        <time>2012-04-18T09:28:12Z</time>
      </trkpt>
      <trkpt lat="43.21116" lon="6.27218">
        <ele>322.600006</ele>
        <time>2012-04-18T09:28:19Z</time>
      </trkpt>
      <trkpt lat="43.21117" lon="6.27207">
        <ele>321.799988</ele>
        <time>2012-04-18T09:28:26Z</time>
      </trkpt>
      <trkpt lat="43.21116" lon="6.27196">
        <ele>320.899994</ele>
        <time>2012-04-18T09:28:33Z</time>
      </trkpt>
      <trkpt lat="43.21116" lon="6.27194">
        <ele>320.700012</ele>
        <time>2012-04-18T09:28:34Z</time>
      </trkpt>
      <trkpt lat="43.21118" lon="6.27172">
        <ele>320.5</ele>
        <time>2012-04-18T09:28:47Z</time>
      </trkpt>
      <trkpt lat="43.2112" lon="6.27161">
        <ele>320.200012</ele>
        <time>2012-04-18T09:28:54Z</time>
      </trkpt>
      <trkpt lat="43.21123" lon="6.2715">
        <ele>319.700012</ele>
        <time>2012-04-18T09:29:01Z</time>
      </trkpt>
      <trkpt lat="43.21126" lon="6.2714">
        <ele>319.600006</ele>
        <time>2012-04-18T09:29:07Z</time>
      </trkpt>
      <trkpt lat="43.21129" lon="6.27129">
        <ele>318.899994</ele>
        <time>2012-04-18T09:29:14Z</time>
      </trkpt>
      <trkpt lat="43.21131" lon="6.27118">
        <ele>318.399994</ele>
        <time>2012-04-18T09:29:21Z</time>
      </trkpt>
      <trkpt lat="43.21134" lon="6.27106">
        <ele>316.799988</ele>
        <time>2012-04-18T09:29:29Z</time>
      </trkpt>
      <trkpt lat="43.21136" lon="6.27095">
        <ele>317.5</ele>
        <time>2012-04-18T09:29:36Z</time>
      </trkpt>
      <trkpt lat="43.21137" lon="6.27094">
        <ele>317.5</ele>
        <time>2012-04-18T09:29:37Z</time>
      </trkpt>
      <trkpt lat="43.2114" lon="6.27073">
        <ele>316.399994</ele>
        <time>2012-04-18T09:29:50Z</time>
      </trkpt>
      <trkpt lat="43.21142" lon="6.27062">
        <ele>315.5</ele>
        <time>2012-04-18T09:29:57Z</time>
      </trkpt>
      <trkpt lat="43.21144" lon="6.2705">
        <ele>315.200012</ele>
        <time>2012-04-18T09:30:04Z</time>
      </trkpt>
      <trkpt lat="43.21147" lon="6.2704">
        <ele>314.600006</ele>
        <time>2012-04-18T09:30:10Z</time>
      </trkpt>
      <trkpt lat="43.2115" lon="6.27029">
        <ele>314</ele>
        <time>2012-04-18T09:30:16Z</time>
      </trkpt>
      <trkpt lat="43.21153" lon="6.27018">
        <ele>312.899994</ele>
        <time>2012-04-18T09:30:22Z</time>
      </trkpt>
      <trkpt lat="43.21155" lon="6.27007">
        <ele>312.799988</ele>
        <time>2012-04-18T09:30:28Z</time>
      </trkpt>
      <trkpt lat="43.21158" lon="6.26997">
        <ele>311.600006</ele>
        <time>2012-04-18T09:30:34Z</time>
      </trkpt>
      <trkpt lat="43.2116" lon="6.26987">
        <ele>311.100006</ele>
        <time>2012-04-18T09:30:40Z</time>
      </trkpt>
      <trkpt lat="43.2116" lon="6.26985">
        <ele>311.200012</ele>
        <time>2012-04-18T09:30:41Z</time>
      </trkpt>
      <trkpt lat="43.21164" lon="6.26965">
        <ele>309.200012</ele>
        <time>2012-04-18T09:30:52Z</time>
      </trkpt>
      <trkpt lat="43.21165" lon="6.26955">
        <ele>310.100006</ele>
        <time>2012-04-18T09:30:58Z</time>
      </trkpt>
      <trkpt lat="43.21166" lon="6.26944">
        <ele>309</ele>
        <time>2012-04-18T09:31:04Z</time>
      </trkpt>
      <trkpt lat="43.21166" lon="6.26933">
        <ele>309.600006</ele>
        <time>2012-04-18T09:31:11Z</time>
      </trkpt>
      <trkpt lat="43.21167" lon="6.26921">
        <ele>308.600006</ele>
        <time>2012-04-18T09:31:18Z</time>
      </trkpt>
      <trkpt lat="43.21168" lon="6.2691">
        <ele>308</ele>
        <time>2012-04-18T09:31:24Z</time>
      </trkpt>
      <trkpt lat="43.21169" lon="6.26898">
        <ele>307.299988</ele>
        <time>2012-04-18T09:31:31Z</time>
      </trkpt>
      <trkpt lat="43.21171" lon="6.26888">
        <ele>306.799988</ele>
        <time>2012-04-18T09:31:37Z</time>
      </trkpt>
      <trkpt lat="43.21173" lon="6.26876">
        <ele>306.5</ele>
        <time>2012-04-18T09:31:43Z</time>
      </trkpt>
      <trkpt lat="43.21173" lon="6.26875">
        <ele>305.899994</ele>
        <time>2012-04-18T09:31:44Z</time>
      </trkpt>
      <trkpt lat="43.21179" lon="6.26854">
        <ele>305.700012</ele>
        <time>2012-04-18T09:31:57Z</time>
      </trkpt>
      <trkpt lat="43.21184" lon="6.26846">
        <ele>305.5</ele>
        <time>2012-04-18T09:32:03Z</time>
      </trkpt>
      <trkpt lat="43.21189" lon="6.26838">
        <ele>305.399994</ele>
        <time>2012-04-18T09:32:09Z</time>
      </trkpt>
      <trkpt lat="43.21195" lon="6.26831">
        <ele>304.200012</ele>
        <time>2012-04-18T09:32:15Z</time>
      </trkpt>
      <trkpt lat="43.21203" lon="6.26825">
        <ele>304</ele>
        <time>2012-04-18T09:32:22Z</time>
      </trkpt>
      <trkpt lat="43.21211" lon="6.26821">
        <ele>304.600006</ele>
        <time>2012-04-18T09:32:29Z</time>
      </trkpt>
      <trkpt lat="43.21218" lon="6.26817">
        <ele>304.600006</ele>
        <time>2012-04-18T09:32:36Z</time>
      </trkpt>
      <trkpt lat="43.21226" lon="6.26812">
        <ele>304.5</ele>
        <time>2012-04-18T09:32:43Z</time>
      </trkpt>
      <trkpt lat="43.21232" lon="6.26805">
        <ele>304.799988</ele>
        <time>2012-04-18T09:32:50Z</time>
      </trkpt>
      <trkpt lat="43.21233" lon="6.26804">
        <ele>304.899994</ele>
        <time>2012-04-18T09:32:51Z</time>
      </trkpt>
      <trkpt lat="43.21241" lon="6.26785">
        <ele>303.899994</ele>
        <time>2012-04-18T09:33:04Z</time>
      </trkpt>
      <trkpt lat="43.21242" lon="6.26773">
        <ele>303.600006</ele>
        <time>2012-04-18T09:33:11Z</time>
      </trkpt>
      <trkpt lat="43.21243" lon="6.2676">
        <ele>304.399994</ele>
        <time>2012-04-18T09:33:18Z</time>
      </trkpt>
      <trkpt lat="43.21243" lon="6.26748">
        <ele>303.799988</ele>
        <time>2012-04-18T09:33:25Z</time>
      </trkpt>
      <trkpt lat="43.21243" lon="6.26737">
        <ele>303.600006</ele>
        <time>2012-04-18T09:33:32Z</time>
      </trkpt>
      <trkpt lat="43.21243" lon="6.26725">
        <ele>304</ele>
        <time>2012-04-18T09:33:39Z</time>
      </trkpt>
      <trkpt lat="43.21244" lon="6.26714">
        <ele>303.399994</ele>
        <time>2012-04-18T09:33:46Z</time>
      </trkpt>
      <trkpt lat="43.21244" lon="6.26702">
        <ele>302.899994</ele>
        <time>2012-04-18T09:33:53Z</time>
      </trkpt>
      <trkpt lat="43.21244" lon="6.267">
        <ele>303.100006</ele>
        <time>2012-04-18T09:33:54Z</time>
      </trkpt>
      <trkpt lat="43.21245" lon="6.26679">
        <ele>302.399994</ele>
        <time>2012-04-18T09:34:08Z</time>
      </trkpt>
      <trkpt lat="43.21248" lon="6.26668">
        <ele>302.299988</ele>
        <time>2012-04-18T09:34:39Z</time>
      </trkpt>
      <trkpt lat="43.21254" lon="6.2666">
        <ele>302.5</ele>
        <time>2012-04-18T09:38:24Z</time>
      </trkpt>
      <trkpt lat="43.21255" lon="6.26659">
        <ele>302.299988</ele>
        <time>2012-04-18T09:38:25Z</time>
      </trkpt>
      <trkpt lat="43.21265" lon="6.26642">
        <ele>302.100006</ele>
        <time>2012-04-18T09:38:39Z</time>
      </trkpt>
      <trkpt lat="43.2127" lon="6.26634">
        <ele>302.399994</ele>
        <time>2012-04-18T09:38:46Z</time>
      </trkpt>
      <trkpt lat="43.21275" lon="6.26625">
        <ele>301.5</ele>
        <time>2012-04-18T09:38:53Z</time>
      </trkpt>
      <trkpt lat="43.2128" lon="6.26615">
        <ele>301</ele>
        <time>2012-04-18T09:39:00Z</time>
      </trkpt>
      <trkpt lat="43.21285" lon="6.26606">
        <ele>300.600006</ele>
        <time>2012-04-18T09:39:07Z</time>
      </trkpt>
      <trkpt lat="43.21291" lon="6.26597">
        <ele>300.799988</ele>
        <time>2012-04-18T09:39:14Z</time>
      </trkpt>
      <trkpt lat="43.21296" lon="6.26589">
        <ele>300.5</ele>
        <time>2012-04-18T09:39:21Z</time>
      </trkpt>
      <trkpt lat="43.21302" lon="6.26582">
        <ele>300.299988</ele>
        <time>2012-04-18T09:39:28Z</time>
      </trkpt>
      <trkpt lat="43.21303" lon="6.26581">
        <ele>300.200012</ele>
        <time>2012-04-18T09:39:29Z</time>
      </trkpt>
      <trkpt lat="43.21318" lon="6.2657">
        <ele>299.700012</ele>
        <time>2012-04-18T09:39:42Z</time>
      </trkpt>
      <trkpt lat="43.21325" lon="6.26564">
        <ele>299.600006</ele>
        <time>2012-04-18T09:39:49Z</time>
      </trkpt>
      <trkpt lat="43.21333" lon="6.26559">
        <ele>299.100006</ele>
        <time>2012-04-18T09:39:56Z</time>
      </trkpt>
      <trkpt lat="43.21341" lon="6.26555">
        <ele>299.200012</ele>
        <time>2012-04-18T09:40:03Z</time>
      </trkpt>
      <trkpt lat="43.2135" lon="6.26552">
        <ele>298.600006</ele>
        <time>2012-04-18T09:40:10Z</time>
      </trkpt>
      <trkpt lat="43.21358" lon="6.26548">
        <ele>297.899994</ele>
        <time>2012-04-18T09:40:17Z</time>
      </trkpt>
      <trkpt lat="43.21365" lon="6.26544">
        <ele>298.100006</ele>
        <time>2012-04-18T09:40:23Z</time>
      </trkpt>
      <trkpt lat="43.21372" lon="6.26536">
        <ele>297.299988</ele>
        <time>2012-04-18T09:40:30Z</time>
      </trkpt>
      <trkpt lat="43.21373" lon="6.26534">
        <ele>297.600006</ele>
        <time>2012-04-18T09:40:31Z</time>
      </trkpt>
      <trkpt lat="43.2138" lon="6.26516">
        <ele>297.299988</ele>
        <time>2012-04-18T09:40:43Z</time>
      </trkpt>
      <trkpt lat="43.21381" lon="6.26504">
        <ele>295.899994</ele>
        <time>2012-04-18T09:40:50Z</time>
      </trkpt>
      <trkpt lat="43.21383" lon="6.26493">
        <ele>295.600006</ele>
        <time>2012-04-18T09:40:57Z</time>
      </trkpt>
      <trkpt lat="43.21384" lon="6.26481">
        <ele>295</ele>
        <time>2012-04-18T09:41:04Z</time>
      </trkpt>
      <trkpt lat="43.21384" lon="6.26471">
        <ele>294.899994</ele>
        <time>2012-04-18T09:41:10Z</time>
      </trkpt>
      <trkpt lat="43.21386" lon="6.26459">
        <ele>294.200012</ele>
        <time>2012-04-18T09:41:17Z</time>
      </trkpt>
      <trkpt lat="43.21387" lon="6.26448">
        <ele>294.399994</ele>
        <time>2012-04-18T09:41:24Z</time>
      </trkpt>
      <trkpt lat="43.2139" lon="6.26436">
        <ele>293.600006</ele>
        <time>2012-04-18T09:41:31Z</time>
      </trkpt>
      <trkpt lat="43.2139" lon="6.26434">
        <ele>293.600006</ele>
        <time>2012-04-18T09:41:32Z</time>
      </trkpt>
      <trkpt lat="43.21395" lon="6.26413">
        <ele>293</ele>
        <time>2012-04-18T09:41:45Z</time>
      </trkpt>
      <trkpt lat="43.21398" lon="6.26403">
        <ele>291.799988</ele>
        <time>2012-04-18T09:41:51Z</time>
      </trkpt>
      <trkpt lat="43.21402" lon="6.26393">
        <ele>292.200012</ele>
        <time>2012-04-18T09:41:58Z</time>
      </trkpt>
      <trkpt lat="43.21409" lon="6.26385">
        <ele>291.5</ele>
        <time>2012-04-18T09:42:05Z</time>
      </trkpt>
      <trkpt lat="43.21415" lon="6.26379">
        <ele>291.5</ele>
        <time>2012-04-18T09:42:11Z</time>
      </trkpt>
      <trkpt lat="43.21422" lon="6.26371">
        <ele>291.399994</ele>
        <time>2012-04-18T09:42:18Z</time>
      </trkpt>
      <trkpt lat="43.21428" lon="6.26361">
        <ele>291.100006</ele>
        <time>2012-04-18T09:42:25Z</time>
      </trkpt>
      <trkpt lat="43.21432" lon="6.26351">
        <ele>290.600006</ele>
        <time>2012-04-18T09:42:32Z</time>
      </trkpt>
      <trkpt lat="43.21432" lon="6.26349">
        <ele>290.5</ele>
        <time>2012-04-18T09:42:33Z</time>
      </trkpt>
      <trkpt lat="43.21438" lon="6.2633">
        <ele>289.799988</ele>
        <time>2012-04-18T09:42:45Z</time>
      </trkpt>
      <trkpt lat="43.21441" lon="6.26318">
        <ele>289.899994</ele>
        <time>2012-04-18T09:42:52Z</time>
      </trkpt>
      <trkpt lat="43.21443" lon="6.26307">
        <ele>289.299988</ele>
        <time>2012-04-18T09:42:59Z</time>
      </trkpt>
      <trkpt lat="43.21447" lon="6.26295">
        <ele>290.700012</ele>
        <time>2012-04-18T09:43:15Z</time>
      </trkpt>
      <trkpt lat="43.21449" lon="6.26283">
        <ele>291.299988</ele>
        <time>2012-04-18T09:43:33Z</time>
      </trkpt>
      <trkpt lat="43.21449" lon="6.26281">
        <ele>291.100006</ele>
        <time>2012-04-18T09:43:34Z</time>
      </trkpt>
      <trkpt lat="43.21465" lon="6.2628">
        <ele>294</ele>
        <time>2012-04-18T09:44:10Z</time>
      </trkpt>
      <trkpt lat="43.21472" lon="6.26273">
        <ele>296.799988</ele>
        <time>2012-04-18T09:44:23Z</time>
      </trkpt>
      <trkpt lat="43.2148" lon="6.26267">
        <ele>299.600006</ele>
        <time>2012-04-18T09:44:37Z</time>
      </trkpt>
      <trkpt lat="43.21481" lon="6.26267">
        <ele>299.899994</ele>
        <time>2012-04-18T09:44:38Z</time>
      </trkpt>
      <trkpt lat="43.21493" lon="6.26252">
        <ele>309.200012</ele>
        <time>2012-04-18T09:45:09Z</time>
      </trkpt>
      <trkpt lat="43.215" lon="6.26245">
        <ele>311.600006</ele>
        <time>2012-04-18T09:45:26Z</time>
      </trkpt>
      <trkpt lat="43.21508" lon="6.26239">
        <ele>314.600006</ele>
        <time>2012-04-18T09:45:41Z</time>
      </trkpt>
      <trkpt lat="43.21508" lon="6.26238">
        <ele>314.799988</ele>
        <time>2012-04-18T09:45:42Z</time>
      </trkpt>
      <trkpt lat="43.2152" lon="6.26221">
        <ele>321.399994</ele>
        <time>2012-04-18T09:46:21Z</time>
      </trkpt>
      <trkpt lat="43.21524" lon="6.2621">
        <ele>324.399994</ele>
        <time>2012-04-18T09:46:35Z</time>
      </trkpt>
      <trkpt lat="43.21526" lon="6.26199">
        <ele>327.700012</ele>
        <time>2012-04-18T09:46:51Z</time>
      </trkpt>
      <trkpt lat="43.21527" lon="6.26198">
        <ele>327.700012</ele>
        <time>2012-04-18T09:46:52Z</time>
      </trkpt>
      <trkpt lat="43.21529" lon="6.26176">
        <ele>330.200012</ele>
        <time>2012-04-18T09:47:23Z</time>
      </trkpt>
      <trkpt lat="43.21527" lon="6.26164">
        <ele>330.399994</ele>
        <time>2012-04-18T09:48:10Z</time>
      </trkpt>
      <trkpt lat="43.21528" lon="6.26163">
        <ele>330.399994</ele>
        <time>2012-04-18T09:48:11Z</time>
      </trkpt>
      <trkpt lat="43.21535" lon="6.26143">
        <ele>331.700012</ele>
        <time>2012-04-18T09:48:29Z</time>
      </trkpt>
      <trkpt lat="43.21536" lon="6.26131">
        <ele>331.5</ele>
        <time>2012-04-18T09:48:38Z</time>
      </trkpt>
      <trkpt lat="43.21537" lon="6.2612">
        <ele>331.299988</ele>
        <time>2012-04-18T09:48:46Z</time>
      </trkpt>
      <trkpt lat="43.21537" lon="6.26108">
        <ele>332.299988</ele>
        <time>2012-04-18T09:48:55Z</time>
      </trkpt>
      <trkpt lat="43.2154" lon="6.26097">
        <ele>332.700012</ele>
        <time>2012-04-18T09:49:04Z</time>
      </trkpt>
      <trkpt lat="43.2154" lon="6.26085">
        <ele>333.299988</ele>
        <time>2012-04-18T09:49:20Z</time>
      </trkpt>
      <trkpt lat="43.21541" lon="6.26084">
        <ele>333.200012</ele>
        <time>2012-04-18T09:49:21Z</time>
      </trkpt>
      <trkpt lat="43.21547" lon="6.26063">
        <ele>333.700012</ele>
        <time>2012-04-18T09:49:42Z</time>
      </trkpt>
      <trkpt lat="43.21549" lon="6.26051">
        <ele>332.399994</ele>
        <time>2012-04-18T09:49:50Z</time>
      </trkpt>
      <trkpt lat="43.2155" lon="6.2604">
        <ele>332.600006</ele>
        <time>2012-04-18T09:49:58Z</time>
      </trkpt>
      <trkpt lat="43.21551" lon="6.26029">
        <ele>331.700012</ele>
        <time>2012-04-18T09:50:05Z</time>
      </trkpt>
      <trkpt lat="43.21552" lon="6.26017">
        <ele>331.899994</ele>
        <time>2012-04-18T09:50:12Z</time>
      </trkpt>
      <trkpt lat="43.21553" lon="6.26006">
        <ele>331.700012</ele>
        <time>2012-04-18T09:50:19Z</time>
      </trkpt>
      <trkpt lat="43.21553" lon="6.25995">
        <ele>331.399994</ele>
        <time>2012-04-18T09:50:26Z</time>
      </trkpt>
      <trkpt lat="43.21553" lon="6.25993">
        <ele>331.399994</ele>
        <time>2012-04-18T09:50:27Z</time>
      </trkpt>
      <trkpt lat="43.21551" lon="6.25972">
        <ele>331.5</ele>
        <time>2012-04-18T09:50:39Z</time>
      </trkpt>
      <trkpt lat="43.21553" lon="6.2596">
        <ele>332.299988</ele>
        <time>2012-04-18T09:50:46Z</time>
      </trkpt>
      <trkpt lat="43.21556" lon="6.25949">
        <ele>331.5</ele>
        <time>2012-04-18T09:50:53Z</time>
      </trkpt>
      <trkpt lat="43.21559" lon="6.25939">
        <ele>332.600006</ele>
        <time>2012-04-18T09:51:00Z</time>
      </trkpt>
      <trkpt lat="43.21562" lon="6.25929">
        <ele>334.5</ele>
        <time>2012-04-18T09:51:07Z</time>
      </trkpt>
      <trkpt lat="43.21563" lon="6.25918">
        <ele>334.5</ele>
        <time>2012-04-18T09:51:14Z</time>
      </trkpt>
      <trkpt lat="43.21566" lon="6.25906">
        <ele>335.100006</ele>
        <time>2012-04-18T09:51:22Z</time>
      </trkpt>
      <trkpt lat="43.21569" lon="6.25896">
        <ele>337.5</ele>
        <time>2012-04-18T09:51:29Z</time>
      </trkpt>
      <trkpt lat="43.2157" lon="6.25895">
        <ele>337.600006</ele>
        <time>2012-04-18T09:51:30Z</time>
      </trkpt>
      <trkpt lat="43.21575" lon="6.25876">
        <ele>339.600006</ele>
        <time>2012-04-18T09:51:43Z</time>
      </trkpt>
      <trkpt lat="43.21577" lon="6.25865">
        <ele>340.200012</ele>
        <time>2012-04-18T09:51:51Z</time>
      </trkpt>
      <trkpt lat="43.21573" lon="6.25855">
        <ele>342.299988</ele>
        <time>2012-04-18T09:52:00Z</time>
      </trkpt>
      <trkpt lat="43.21569" lon="6.25844">
        <ele>343.5</ele>
        <time>2012-04-18T09:52:08Z</time>
      </trkpt>
      <trkpt lat="43.21569" lon="6.25833">
        <ele>344.399994</ele>
        <time>2012-04-18T09:52:17Z</time>
      </trkpt>
      <trkpt lat="43.2157" lon="6.25821">
        <ele>346.100006</ele>
        <time>2012-04-18T09:52:27Z</time>
      </trkpt>
      <trkpt lat="43.21574" lon="6.25811">
        <ele>348.899994</ele>
        <time>2012-04-18T09:52:38Z</time>
      </trkpt>
      <trkpt lat="43.21575" lon="6.2581">
        <ele>349.600006</ele>
        <time>2012-04-18T09:52:39Z</time>
      </trkpt>
      <trkpt lat="43.21581" lon="6.25789">
        <ele>352.600006</ele>
        <time>2012-04-18T09:52:59Z</time>
      </trkpt>
      <trkpt lat="43.21582" lon="6.25778">
        <ele>354.700012</ele>
        <time>2012-04-18T09:53:10Z</time>
      </trkpt>
      <trkpt lat="43.21581" lon="6.25766">
        <ele>357.399994</ele>
        <time>2012-04-18T09:53:25Z</time>
      </trkpt>
      <trkpt lat="43.21581" lon="6.25753">
        <ele>360.799988</ele>
        <time>2012-04-18T09:53:41Z</time>
      </trkpt>
      <trkpt lat="43.21581" lon="6.25753">
        <ele>360.899994</ele>
        <time>2012-04-18T09:53:42Z</time>
      </trkpt>
      <trkpt lat="43.21585" lon="6.2573">
        <ele>365.899994</ele>
        <time>2012-04-18T09:54:11Z</time>
      </trkpt>
      <trkpt lat="43.21584" lon="6.25718">
        <ele>368.399994</ele>
        <time>2012-04-18T09:54:26Z</time>
      </trkpt>
      <trkpt lat="43.21583" lon="6.25707">
        <ele>371.399994</ele>
        <time>2012-04-18T09:54:40Z</time>
      </trkpt>
      <trkpt lat="43.21582" lon="6.25695">
        <ele>372.100006</ele>
        <time>2012-04-18T09:54:53Z</time>
      </trkpt>
      <trkpt lat="43.21582" lon="6.25694">
        <ele>372.799988</ele>
        <time>2012-04-18T09:54:54Z</time>
      </trkpt>
      <trkpt lat="43.21589" lon="6.25674">
        <ele>376.5</ele>
        <time>2012-04-18T09:55:17Z</time>
      </trkpt>
      <trkpt lat="43.21596" lon="6.25667">
        <ele>379.299988</ele>
        <time>2012-04-18T09:55:28Z</time>
      </trkpt>
      <trkpt lat="43.21603" lon="6.25661">
        <ele>380.899994</ele>
        <time>2012-04-18T09:55:38Z</time>
      </trkpt>
      <trkpt lat="43.2161" lon="6.25654">
        <ele>381.600006</ele>
        <time>2012-04-18T09:55:49Z</time>
      </trkpt>
      <trkpt lat="43.21613" lon="6.25643">
        <ele>382.899994</ele>
        <time>2012-04-18T09:55:59Z</time>
      </trkpt>
      <trkpt lat="43.21613" lon="6.25641">
        <ele>382.700012</ele>
        <time>2012-04-18T09:56:00Z</time>
      </trkpt>
      <trkpt lat="43.21615" lon="6.2562">
        <ele>384.899994</ele>
        <time>2012-04-18T09:56:16Z</time>
      </trkpt>
      <trkpt lat="43.21619" lon="6.25609">
        <ele>385.799988</ele>
        <time>2012-04-18T09:56:26Z</time>
      </trkpt>
      <trkpt lat="43.21622" lon="6.25598">
        <ele>385.5</ele>
        <time>2012-04-18T09:56:34Z</time>
      </trkpt>
      <trkpt lat="43.21622" lon="6.25587">
        <ele>385.200012</ele>
        <time>2012-04-18T09:56:42Z</time>
      </trkpt>
      <trkpt lat="43.21622" lon="6.25575">
        <ele>385.200012</ele>
        <time>2012-04-18T09:56:51Z</time>
      </trkpt>
      <trkpt lat="43.21624" lon="6.25565">
        <ele>384.899994</ele>
        <time>2012-04-18T09:56:58Z</time>
      </trkpt>
      <trkpt lat="43.21626" lon="6.25554">
        <ele>382.700012</ele>
        <time>2012-04-18T09:57:05Z</time>
      </trkpt>
      <trkpt lat="43.21627" lon="6.25552">
        <ele>382.600006</ele>
        <time>2012-04-18T09:57:06Z</time>
      </trkpt>
      <trkpt lat="43.21629" lon="6.25531">
        <ele>381.899994</ele>
        <time>2012-04-18T09:57:19Z</time>
      </trkpt>
      <trkpt lat="43.21631" lon="6.2552">
        <ele>382.399994</ele>
        <time>2012-04-18T09:57:26Z</time>
      </trkpt>
      <trkpt lat="43.21634" lon="6.25509">
        <ele>382.899994</ele>
        <time>2012-04-18T09:57:34Z</time>
      </trkpt>
      <trkpt lat="43.21637" lon="6.25498">
        <ele>382.899994</ele>
        <time>2012-04-18T09:57:41Z</time>
      </trkpt>
      <trkpt lat="43.2164" lon="6.25487">
        <ele>383.600006</ele>
        <time>2012-04-18T09:57:49Z</time>
      </trkpt>
      <trkpt lat="43.21637" lon="6.25475">
        <ele>382.5</ele>
        <time>2012-04-18T09:57:58Z</time>
      </trkpt>
      <trkpt lat="43.21636" lon="6.25464">
        <ele>383.299988</ele>
        <time>2012-04-18T09:58:06Z</time>
      </trkpt>
      <trkpt lat="43.21635" lon="6.25462">
        <ele>383</ele>
        <time>2012-04-18T09:58:07Z</time>
      </trkpt>
      <trkpt lat="43.21636" lon="6.25441">
        <ele>383.799988</ele>
        <time>2012-04-18T09:58:22Z</time>
      </trkpt>
      <trkpt lat="43.21637" lon="6.25429">
        <ele>385</ele>
        <time>2012-04-18T09:58:31Z</time>
      </trkpt>
      <trkpt lat="43.21641" lon="6.25419">
        <ele>385.799988</ele>
        <time>2012-04-18T09:58:40Z</time>
      </trkpt>
      <trkpt lat="43.21644" lon="6.25409">
        <ele>387.399994</ele>
        <time>2012-04-18T09:58:50Z</time>
      </trkpt>
      <trkpt lat="43.21647" lon="6.25397">
        <ele>389.600006</ele>
        <time>2012-04-18T09:59:01Z</time>
      </trkpt>
      <trkpt lat="43.2165" lon="6.25386">
        <ele>391.899994</ele>
        <time>2012-04-18T09:59:11Z</time>
      </trkpt>
      <trkpt lat="43.2165" lon="6.25385">
        <ele>392.100006</ele>
        <time>2012-04-18T09:59:12Z</time>
      </trkpt>
      <trkpt lat="43.21656" lon="6.25363">
        <ele>392.200012</ele>
        <time>2012-04-18T09:59:28Z</time>
      </trkpt>
      <trkpt lat="43.21663" lon="6.25358">
        <ele>389.799988</ele>
        <time>2012-04-18T09:59:35Z</time>
      </trkpt>
      <trkpt lat="43.21669" lon="6.25352">
        <ele>389</ele>
        <time>2012-04-18T09:59:42Z</time>
      </trkpt>
      <trkpt lat="43.21674" lon="6.25342">
        <ele>388.100006</ele>
        <time>2012-04-18T09:59:49Z</time>
      </trkpt>
      <trkpt lat="43.21678" lon="6.25332">
        <ele>388.200012</ele>
        <time>2012-04-18T09:59:56Z</time>
      </trkpt>
      <trkpt lat="43.21681" lon="6.25322">
        <ele>388.899994</ele>
        <time>2012-04-18T10:00:03Z</time>
      </trkpt>
      <trkpt lat="43.21686" lon="6.25312">
        <ele>389.399994</ele>
        <time>2012-04-18T10:00:10Z</time>
      </trkpt>
      <trkpt lat="43.2169" lon="6.25303">
        <ele>391</ele>
        <time>2012-04-18T10:00:17Z</time>
      </trkpt>
      <trkpt lat="43.21691" lon="6.25301">
        <ele>391.399994</ele>
        <time>2012-04-18T10:00:18Z</time>
      </trkpt>
      <trkpt lat="43.21702" lon="6.25286">
        <ele>391.5</ele>
        <time>2012-04-18T10:00:31Z</time>
      </trkpt>
      <trkpt lat="43.21705" lon="6.25276">
        <ele>392.200012</ele>
        <time>2012-04-18T10:00:38Z</time>
      </trkpt>
      <trkpt lat="43.21708" lon="6.25265">
        <ele>394.200012</ele>
        <time>2012-04-18T10:00:45Z</time>
      </trkpt>
      <trkpt lat="43.2171" lon="6.25254">
        <ele>394.899994</ele>
        <time>2012-04-18T10:00:52Z</time>
      </trkpt>
      <trkpt lat="43.21712" lon="6.25243">
        <ele>394.600006</ele>
        <time>2012-04-18T10:01:00Z</time>
      </trkpt>
      <trkpt lat="43.21717" lon="6.25233">
        <ele>395.600006</ele>
        <time>2012-04-18T10:01:09Z</time>
      </trkpt>
      <trkpt lat="43.21722" lon="6.25223">
        <ele>398</ele>
        <time>2012-04-18T10:01:18Z</time>
      </trkpt>
      <trkpt lat="43.21722" lon="6.25222">
        <ele>397.799988</ele>
        <time>2012-04-18T10:01:19Z</time>
      </trkpt>
      <trkpt lat="43.2173" lon="6.25204">
        <ele>399.799988</ele>
        <time>2012-04-18T10:01:35Z</time>
      </trkpt>
      <trkpt lat="43.21734" lon="6.25193">
        <ele>401.200012</ele>
        <time>2012-04-18T10:01:43Z</time>
      </trkpt>
      <trkpt lat="43.21738" lon="6.25182">
        <ele>402.399994</ele>
        <time>2012-04-18T10:01:52Z</time>
      </trkpt>
      <trkpt lat="43.21741" lon="6.25171">
        <ele>404.399994</ele>
        <time>2012-04-18T10:02:03Z</time>
      </trkpt>
      <trkpt lat="43.21746" lon="6.25162">
        <ele>406.600006</ele>
        <time>2012-04-18T10:02:11Z</time>
      </trkpt>
      <trkpt lat="43.21751" lon="6.25152">
        <ele>406.200012</ele>
        <time>2012-04-18T10:02:19Z</time>
      </trkpt>
      <trkpt lat="43.21752" lon="6.25151">
        <ele>406.5</ele>
        <time>2012-04-18T10:02:20Z</time>
      </trkpt>
      <trkpt lat="43.21765" lon="6.25138">
        <ele>405.700012</ele>
        <time>2012-04-18T10:02:33Z</time>
      </trkpt>
      <trkpt lat="43.21772" lon="6.25131">
        <ele>405.100006</ele>
        <time>2012-04-18T10:02:40Z</time>
      </trkpt>
      <trkpt lat="43.21778" lon="6.25122">
        <ele>405.799988</ele>
        <time>2012-04-18T10:02:47Z</time>
      </trkpt>
      <trkpt lat="43.21782" lon="6.25113">
        <ele>406.5</ele>
        <time>2012-04-18T10:02:54Z</time>
      </trkpt>
      <trkpt lat="43.21783" lon="6.25102">
        <ele>405.700012</ele>
        <time>2012-04-18T10:03:01Z</time>
      </trkpt>
      <trkpt lat="43.21783" lon="6.2509">
        <ele>404.799988</ele>
        <time>2012-04-18T10:03:08Z</time>
      </trkpt>
      <trkpt lat="43.21781" lon="6.25079">
        <ele>404.200012</ele>
        <time>2012-04-18T10:03:14Z</time>
      </trkpt>
      <trkpt lat="43.21779" lon="6.25068">
        <ele>403.600006</ele>
        <time>2012-04-18T10:03:20Z</time>
      </trkpt>
      <trkpt lat="43.21778" lon="6.25057">
        <ele>403.700012</ele>
        <time>2012-04-18T10:03:26Z</time>
      </trkpt>
      <trkpt lat="43.21778" lon="6.25055">
        <ele>404.200012</ele>
        <time>2012-04-18T10:03:27Z</time>
      </trkpt>
      <trkpt lat="43.21773" lon="6.25034">
        <ele>406.100006</ele>
        <time>2012-04-18T10:03:41Z</time>
      </trkpt>
      <trkpt lat="43.21768" lon="6.25023">
        <ele>407.600006</ele>
        <time>2012-04-18T10:03:48Z</time>
      </trkpt>
      <trkpt lat="43.21762" lon="6.25014">
        <ele>407.100006</ele>
        <time>2012-04-18T10:03:55Z</time>
      </trkpt>
      <trkpt lat="43.21757" lon="6.25005">
        <ele>406.899994</ele>
        <time>2012-04-18T10:04:01Z</time>
      </trkpt>
      <trkpt lat="43.21754" lon="6.24994">
        <ele>404.700012</ele>
        <time>2012-04-18T10:04:07Z</time>
      </trkpt>
      <trkpt lat="43.21751" lon="6.24983">
        <ele>406.299988</ele>
        <time>2012-04-18T10:04:13Z</time>
      </trkpt>
      <trkpt lat="43.21747" lon="6.24974">
        <ele>406.600006</ele>
        <time>2012-04-18T10:04:19Z</time>
      </trkpt>
      <trkpt lat="43.21742" lon="6.24966">
        <ele>405.5</ele>
        <time>2012-04-18T10:04:25Z</time>
      </trkpt>
      <trkpt lat="43.21737" lon="6.24957">
        <ele>406</ele>
        <time>2012-04-18T10:04:31Z</time>
      </trkpt>
      <trkpt lat="43.21737" lon="6.24955">
        <ele>406.5</ele>
        <time>2012-04-18T10:04:32Z</time>
      </trkpt>
      <trkpt lat="43.2173" lon="6.24934">
        <ele>405.399994</ele>
        <time>2012-04-18T10:04:46Z</time>
      </trkpt>
      <trkpt lat="43.21727" lon="6.24923">
        <ele>404.5</ele>
        <time>2012-04-18T10:04:53Z</time>
      </trkpt>
      <trkpt lat="43.21723" lon="6.24913">
        <ele>406.100006</ele>
        <time>2012-04-18T10:05:00Z</time>
      </trkpt>
      <trkpt lat="43.21718" lon="6.24904">
        <ele>407.100006</ele>
        <time>2012-04-18T10:05:07Z</time>
      </trkpt>
      <trkpt lat="43.21713" lon="6.24895">
        <ele>407</ele>
        <time>2012-04-18T10:05:14Z</time>
      </trkpt>
      <trkpt lat="43.21708" lon="6.24885">
        <ele>407.399994</ele>
        <time>2012-04-18T10:05:22Z</time>
      </trkpt>
      <trkpt lat="43.21703" lon="6.24876">
        <ele>409.399994</ele>
        <time>2012-04-18T10:05:29Z</time>
      </trkpt>
      <trkpt lat="43.21699" lon="6.24865">
        <ele>409.700012</ele>
        <time>2012-04-18T10:05:36Z</time>
      </trkpt>
      <trkpt lat="43.21698" lon="6.24864">
        <ele>410.100006</ele>
        <time>2012-04-18T10:05:37Z</time>
      </trkpt>
      <trkpt lat="43.21691" lon="6.24845">
        <ele>412.100006</ele>
        <time>2012-04-18T10:05:53Z</time>
      </trkpt>
      <trkpt lat="43.2169" lon="6.24833">
        <ele>414.200012</ele>
        <time>2012-04-18T10:06:01Z</time>
      </trkpt>
      <trkpt lat="43.21688" lon="6.24822">
        <ele>414.5</ele>
        <time>2012-04-18T10:06:08Z</time>
      </trkpt>
      <trkpt lat="43.21685" lon="6.24811">
        <ele>415.399994</ele>
        <time>2012-04-18T10:06:15Z</time>
      </trkpt>
      <trkpt lat="43.21684" lon="6.248">
        <ele>415.899994</ele>
        <time>2012-04-18T10:06:22Z</time>
      </trkpt>
      <trkpt lat="43.21681" lon="6.24789">
        <ele>417.100006</ele>
        <time>2012-04-18T10:06:29Z</time>
      </trkpt>
      <trkpt lat="43.21679" lon="6.24778">
        <ele>417.600006</ele>
        <time>2012-04-18T10:06:35Z</time>
      </trkpt>
      <trkpt lat="43.21679" lon="6.24767">
        <ele>415.299988</ele>
        <time>2012-04-18T10:06:41Z</time>
      </trkpt>
      <trkpt lat="43.2168" lon="6.24765">
        <ele>415.700012</ele>
        <time>2012-04-18T10:06:42Z</time>
      </trkpt>
      <trkpt lat="43.21681" lon="6.24744">
        <ele>414.100006</ele>
        <time>2012-04-18T10:06:55Z</time>
      </trkpt>
      <trkpt lat="43.21679" lon="6.24733">
        <ele>412.399994</ele>
        <time>2012-04-18T10:07:00Z</time>
      </trkpt>
      <trkpt lat="43.21678" lon="6.24722">
        <ele>413</ele>
        <time>2012-04-18T10:07:06Z</time>
      </trkpt>
      <trkpt lat="43.21677" lon="6.24711">
        <ele>413.299988</ele>
        <time>2012-04-18T10:07:12Z</time>
      </trkpt>
      <trkpt lat="43.21675" lon="6.247">
        <ele>413.200012</ele>
        <time>2012-04-18T10:07:18Z</time>
      </trkpt>
      <trkpt lat="43.21672" lon="6.24689">
        <ele>412.299988</ele>
        <time>2012-04-18T10:07:25Z</time>
      </trkpt>
      <trkpt lat="43.21673" lon="6.24677">
        <ele>411.799988</ele>
        <time>2012-04-18T10:07:32Z</time>
      </trkpt>
      <trkpt lat="43.21673" lon="6.24665">
        <ele>410.799988</ele>
        <time>2012-04-18T10:07:39Z</time>
      </trkpt>
      <trkpt lat="43.21673" lon="6.24654">
        <ele>409.100006</ele>
        <time>2012-04-18T10:07:46Z</time>
      </trkpt>
      <trkpt lat="43.21673" lon="6.24652">
        <ele>409.100006</ele>
        <time>2012-04-18T10:07:47Z</time>
      </trkpt>
      <trkpt lat="43.21673" lon="6.2463">
        <ele>405.899994</ele>
        <time>2012-04-18T10:08:00Z</time>
      </trkpt>
      <trkpt lat="43.21673" lon="6.24619">
        <ele>405.899994</ele>
        <time>2012-04-18T10:08:07Z</time>
      </trkpt>
      <trkpt lat="43.21674" lon="6.24607">
        <ele>404</ele>
        <time>2012-04-18T10:08:15Z</time>
      </trkpt>
      <trkpt lat="43.21678" lon="6.24597">
        <ele>400.700012</ele>
        <time>2012-04-18T10:08:25Z</time>
      </trkpt>
      <trkpt lat="43.21679" lon="6.24585">
        <ele>400.399994</ele>
        <time>2012-04-18T10:08:32Z</time>
      </trkpt>
      <trkpt lat="43.2168" lon="6.24574">
        <ele>400.299988</ele>
        <time>2012-04-18T10:08:38Z</time>
      </trkpt>
      <trkpt lat="43.2168" lon="6.24563">
        <ele>401</ele>
        <time>2012-04-18T10:08:43Z</time>
      </trkpt>
      <trkpt lat="43.21679" lon="6.24551">
        <ele>399.600006</ele>
        <time>2012-04-18T10:08:49Z</time>
      </trkpt>
      <trkpt lat="43.21679" lon="6.24549">
        <ele>399.799988</ele>
        <time>2012-04-18T10:08:50Z</time>
      </trkpt>
      <trkpt lat="43.21681" lon="6.24527">
        <ele>400.100006</ele>
        <time>2012-04-18T10:09:03Z</time>
      </trkpt>
      <trkpt lat="43.21683" lon="6.24516">
        <ele>401.899994</ele>
        <time>2012-04-18T10:09:11Z</time>
      </trkpt>
      <trkpt lat="43.21684" lon="6.24505">
        <ele>403.899994</ele>
        <time>2012-04-18T10:09:20Z</time>
      </trkpt>
      <trkpt lat="43.21683" lon="6.24493">
        <ele>404.799988</ele>
        <time>2012-04-18T10:09:30Z</time>
      </trkpt>
      <trkpt lat="43.21682" lon="6.24481">
        <ele>405</ele>
        <time>2012-04-18T10:09:39Z</time>
      </trkpt>
      <trkpt lat="43.2168" lon="6.24469">
        <ele>406</ele>
        <time>2012-04-18T10:09:47Z</time>
      </trkpt>
      <trkpt lat="43.21679" lon="6.24458">
        <ele>404.299988</ele>
        <time>2012-04-18T10:09:54Z</time>
      </trkpt>
      <trkpt lat="43.21679" lon="6.24457">
        <ele>404.399994</ele>
        <time>2012-04-18T10:09:55Z</time>
      </trkpt>
      <trkpt lat="43.21683" lon="6.24436">
        <ele>406.899994</ele>
        <time>2012-04-18T10:10:09Z</time>
      </trkpt>
      <trkpt lat="43.21686" lon="6.24426">
        <ele>405.899994</ele>
        <time>2012-04-18T10:10:16Z</time>
      </trkpt>
      <trkpt lat="43.21689" lon="6.24414">
        <ele>406.399994</ele>
        <time>2012-04-18T10:10:24Z</time>
      </trkpt>
      <trkpt lat="43.2169" lon="6.24402">
        <ele>407</ele>
        <time>2012-04-18T10:10:32Z</time>
      </trkpt>
      <trkpt lat="43.21689" lon="6.24391">
        <ele>407.799988</ele>
        <time>2012-04-18T10:10:40Z</time>
      </trkpt>
      <trkpt lat="43.21687" lon="6.2438">
        <ele>409.100006</ele>
        <time>2012-04-18T10:10:49Z</time>
      </trkpt>
      <trkpt lat="43.21689" lon="6.24369">
        <ele>409.899994</ele>
        <time>2012-04-18T10:10:57Z</time>
      </trkpt>
      <trkpt lat="43.21689" lon="6.24368">
        <ele>410</ele>
        <time>2012-04-18T10:10:58Z</time>
      </trkpt>
      <trkpt lat="43.21692" lon="6.24346">
        <ele>414.700012</ele>
        <time>2012-04-18T10:11:18Z</time>
      </trkpt>
      <trkpt lat="43.21696" lon="6.24335">
        <ele>415.299988</ele>
        <time>2012-04-18T10:11:33Z</time>
      </trkpt>
      <trkpt lat="43.21696" lon="6.24323">
        <ele>417.799988</ele>
        <time>2012-04-18T10:11:46Z</time>
      </trkpt>
      <trkpt lat="43.21697" lon="6.24311">
        <ele>421.700012</ele>
        <time>2012-04-18T10:12:00Z</time>
      </trkpt>
      <trkpt lat="43.21697" lon="6.2431">
        <ele>422</ele>
        <time>2012-04-18T10:12:01Z</time>
      </trkpt>
      <trkpt lat="43.21692" lon="6.24289">
        <ele>425</ele>
        <time>2012-04-18T10:12:25Z</time>
      </trkpt>
      <trkpt lat="43.21691" lon="6.24277">
        <ele>426.700012</ele>
        <time>2012-04-18T10:12:35Z</time>
      </trkpt>
      <trkpt lat="43.21687" lon="6.24267">
        <ele>428.799988</ele>
        <time>2012-04-18T10:12:48Z</time>
      </trkpt>
      <trkpt lat="43.21689" lon="6.24255">
        <ele>428.899994</ele>
        <time>2012-04-18T10:13:03Z</time>
      </trkpt>
      <trkpt lat="43.21689" lon="6.24254">
        <ele>429.299988</ele>
        <time>2012-04-18T10:13:04Z</time>
      </trkpt>
      <trkpt lat="43.21687" lon="6.24232">
        <ele>430.200012</ele>
        <time>2012-04-18T10:13:25Z</time>
      </trkpt>
      <trkpt lat="43.21687" lon="6.24221">
        <ele>428.799988</ele>
        <time>2012-04-18T10:13:35Z</time>
      </trkpt>
      <trkpt lat="43.21688" lon="6.24209">
        <ele>429.5</ele>
        <time>2012-04-18T10:13:48Z</time>
      </trkpt>
      <trkpt lat="43.21689" lon="6.24197">
        <ele>428</ele>
        <time>2012-04-18T10:14:00Z</time>
      </trkpt>
      <trkpt lat="43.21691" lon="6.24186">
        <ele>427.799988</ele>
        <time>2012-04-18T10:14:09Z</time>
      </trkpt>
      <trkpt lat="43.21691" lon="6.24184">
        <ele>428.299988</ele>
        <time>2012-04-18T10:14:10Z</time>
      </trkpt>
      <trkpt lat="43.21694" lon="6.24162">
        <ele>429.200012</ele>
        <time>2012-04-18T10:14:29Z</time>
      </trkpt>
      <trkpt lat="43.21695" lon="6.2415">
        <ele>428.600006</ele>
        <time>2012-04-18T10:14:39Z</time>
      </trkpt>
      <trkpt lat="43.21698" lon="6.24139">
        <ele>427.299988</ele>
        <time>2012-04-18T10:14:51Z</time>
      </trkpt>
      <trkpt lat="43.2169" lon="6.24143">
        <ele>429</ele>
        <time>2012-04-18T10:15:09Z</time>
      </trkpt>
      <trkpt lat="43.21683" lon="6.24151">
        <ele>431.600006</ele>
        <time>2012-04-18T10:15:21Z</time>
      </trkpt>
      <trkpt lat="43.21683" lon="6.24152">
        <ele>431.399994</ele>
        <time>2012-04-18T10:15:22Z</time>
      </trkpt>
      <trkpt lat="43.2167" lon="6.24165">
        <ele>432.600006</ele>
        <time>2012-04-18T10:15:44Z</time>
      </trkpt>
      <trkpt lat="43.21662" lon="6.24169">
        <ele>435</ele>
        <time>2012-04-18T10:15:55Z</time>
      </trkpt>
      <trkpt lat="43.21655" lon="6.2417">
        <ele>434.5</ele>
        <time>2012-04-18T10:16:03Z</time>
      </trkpt>
      <trkpt lat="43.21647" lon="6.24175">
        <ele>435</ele>
        <time>2012-04-18T10:16:13Z</time>
      </trkpt>
      <trkpt lat="43.21646" lon="6.24187">
        <ele>435.100006</ele>
        <time>2012-04-18T10:16:27Z</time>
      </trkpt>
      <trkpt lat="43.21646" lon="6.24187">
        <ele>435.399994</ele>
        <time>2012-04-18T10:16:28Z</time>
      </trkpt>
      <trkpt lat="43.21642" lon="6.24198">
        <ele>438.600006</ele>
        <time>2012-04-18T10:49:40Z</time>
      </trkpt>
      <trkpt lat="43.2164" lon="6.2419">
        <ele>435.799988</ele>
        <time>2012-04-18T11:09:01Z</time>
      </trkpt>
      <trkpt lat="43.21639" lon="6.24189">
        <ele>435.799988</ele>
        <time>2012-04-18T11:09:02Z</time>
      </trkpt>
      <trkpt lat="43.21642" lon="6.24177">
        <ele>433.700012</ele>
        <time>2012-04-18T11:12:52Z</time>
      </trkpt>
      <trkpt lat="43.21657" lon="6.2417">
        <ele>432.200012</ele>
        <time>2012-04-18T11:13:15Z</time>
      </trkpt>
      <trkpt lat="43.21665" lon="6.24167">
        <ele>431.899994</ele>
        <time>2012-04-18T11:13:26Z</time>
      </trkpt>
      <trkpt lat="43.21672" lon="6.24161">
        <ele>429.700012</ele>
        <time>2012-04-18T11:13:37Z</time>
      </trkpt>
      <trkpt lat="43.21678" lon="6.24153">
        <ele>427.299988</ele>
        <time>2012-04-18T11:13:51Z</time>
      </trkpt>
      <trkpt lat="43.21685" lon="6.24145">
        <ele>425.399994</ele>
        <time>2012-04-18T11:14:05Z</time>
      </trkpt>
      <trkpt lat="43.21686" lon="6.24145">
        <ele>425.399994</ele>
        <time>2012-04-18T11:14:06Z</time>
      </trkpt>
      <trkpt lat="43.21693" lon="6.24149">
        <ele>423.700012</ele>
        <time>2012-04-18T11:14:50Z</time>
      </trkpt>
      <trkpt lat="43.21693" lon="6.24161">
        <ele>424.700012</ele>
        <time>2012-04-18T11:15:02Z</time>
      </trkpt>
      <trkpt lat="43.21692" lon="6.24173">
        <ele>425.5</ele>
        <time>2012-04-18T11:15:15Z</time>
      </trkpt>
      <trkpt lat="43.21692" lon="6.24174">
        <ele>425.5</ele>
        <time>2012-04-18T11:15:16Z</time>
      </trkpt>
      <trkpt lat="43.21688" lon="6.24196">
        <ele>425.600006</ele>
        <time>2012-04-18T11:15:38Z</time>
      </trkpt>
      <trkpt lat="43.21687" lon="6.24208">
        <ele>426.399994</ele>
        <time>2012-04-18T11:15:49Z</time>
      </trkpt>
      <trkpt lat="43.21686" lon="6.2422">
        <ele>426.5</ele>
        <time>2012-04-18T11:16:00Z</time>
      </trkpt>
      <trkpt lat="43.21686" lon="6.24232">
        <ele>426.200012</ele>
        <time>2012-04-18T11:16:11Z</time>
      </trkpt>
      <trkpt lat="43.21687" lon="6.24244">
        <ele>427.200012</ele>
        <time>2012-04-18T11:16:22Z</time>
      </trkpt>
      <trkpt lat="43.21688" lon="6.24245">
        <ele>426.899994</ele>
        <time>2012-04-18T11:16:23Z</time>
      </trkpt>
      <trkpt lat="43.21692" lon="6.24267">
        <ele>423.899994</ele>
        <time>2012-04-18T11:16:52Z</time>
      </trkpt>
      <trkpt lat="43.21694" lon="6.24279">
        <ele>422.200012</ele>
        <time>2012-04-18T11:17:03Z</time>
      </trkpt>
      <trkpt lat="43.21695" lon="6.2429">
        <ele>420.100006</ele>
        <time>2012-04-18T11:17:15Z</time>
      </trkpt>
      <trkpt lat="43.21699" lon="6.24301">
        <ele>418.299988</ele>
        <time>2012-04-18T11:17:24Z</time>
      </trkpt>
      <trkpt lat="43.21699" lon="6.24302">
        <ele>418.100006</ele>
        <time>2012-04-18T11:17:25Z</time>
      </trkpt>
      <trkpt lat="43.21698" lon="6.24324">
        <ele>413.5</ele>
        <time>2012-04-18T11:17:45Z</time>
      </trkpt>
      <trkpt lat="43.21695" lon="6.24335">
        <ele>412</ele>
        <time>2012-04-18T11:17:56Z</time>
      </trkpt>
      <trkpt lat="43.21692" lon="6.24346">
        <ele>409.799988</ele>
        <time>2012-04-18T11:18:08Z</time>
      </trkpt>
      <trkpt lat="43.21691" lon="6.24357">
        <ele>408.399994</ele>
        <time>2012-04-18T11:18:19Z</time>
      </trkpt>
      <trkpt lat="43.21689" lon="6.24369">
        <ele>406.899994</ele>
        <time>2012-04-18T11:18:28Z</time>
      </trkpt>
      <trkpt lat="43.21688" lon="6.2437">
        <ele>406.600006</ele>
        <time>2012-04-18T11:18:29Z</time>
      </trkpt>
      <trkpt lat="43.2169" lon="6.24392">
        <ele>403.700012</ele>
        <time>2012-04-18T11:18:47Z</time>
      </trkpt>
      <trkpt lat="43.21688" lon="6.24404">
        <ele>402.5</ele>
        <time>2012-04-18T11:18:55Z</time>
      </trkpt>
      <trkpt lat="43.21687" lon="6.24414">
        <ele>401.600006</ele>
        <time>2012-04-18T11:19:03Z</time>
      </trkpt>
      <trkpt lat="43.21684" lon="6.24426">
        <ele>400.700012</ele>
        <time>2012-04-18T11:19:11Z</time>
      </trkpt>
      <trkpt lat="43.21683" lon="6.24437">
        <ele>400.299988</ele>
        <time>2012-04-18T11:19:19Z</time>
      </trkpt>
      <trkpt lat="43.21681" lon="6.24449">
        <ele>400.5</ele>
        <time>2012-04-18T11:19:27Z</time>
      </trkpt>
      <trkpt lat="43.21681" lon="6.24461">
        <ele>400</ele>
        <time>2012-04-18T11:19:35Z</time>
      </trkpt>
      <trkpt lat="43.21681" lon="6.24462">
        <ele>399.899994</ele>
        <time>2012-04-18T11:19:36Z</time>
      </trkpt>
      <trkpt lat="43.21684" lon="6.24484">
        <ele>398.899994</ele>
        <time>2012-04-18T11:19:51Z</time>
      </trkpt>
      <trkpt lat="43.21685" lon="6.24495">
        <ele>398.399994</ele>
        <time>2012-04-18T11:19:59Z</time>
      </trkpt>
      <trkpt lat="43.21685" lon="6.24507">
        <ele>397.299988</ele>
        <time>2012-04-18T11:20:08Z</time>
      </trkpt>
      <trkpt lat="43.21683" lon="6.24519">
        <ele>396.299988</ele>
        <time>2012-04-18T11:20:17Z</time>
      </trkpt>
      <trkpt lat="43.2168" lon="6.2453">
        <ele>395.200012</ele>
        <time>2012-04-18T11:20:32Z</time>
      </trkpt>
      <trkpt lat="43.21679" lon="6.24542">
        <ele>394.299988</ele>
        <time>2012-04-18T11:21:00Z</time>
      </trkpt>
      <trkpt lat="43.21679" lon="6.24543">
        <ele>394.600006</ele>
        <time>2012-04-18T11:21:01Z</time>
      </trkpt>
      <trkpt lat="43.21684" lon="6.24564">
        <ele>395.399994</ele>
        <time>2012-04-18T11:21:21Z</time>
      </trkpt>
      <trkpt lat="43.21683" lon="6.24576">
        <ele>395.899994</ele>
        <time>2012-04-18T11:21:30Z</time>
      </trkpt>
      <trkpt lat="43.21683" lon="6.24587">
        <ele>395.799988</ele>
        <time>2012-04-18T11:21:39Z</time>
      </trkpt>
      <trkpt lat="43.21682" lon="6.24598">
        <ele>396</ele>
        <time>2012-04-18T11:21:49Z</time>
      </trkpt>
      <trkpt lat="43.21683" lon="6.2461">
        <ele>397</ele>
        <time>2012-04-18T11:22:00Z</time>
      </trkpt>
      <trkpt lat="43.21683" lon="6.24622">
        <ele>398</ele>
        <time>2012-04-18T11:22:11Z</time>
      </trkpt>
      <trkpt lat="43.21683" lon="6.24623">
        <ele>398</ele>
        <time>2012-04-18T11:22:12Z</time>
      </trkpt>
      <trkpt lat="43.21686" lon="6.24646">
        <ele>399.5</ele>
        <time>2012-04-18T11:22:30Z</time>
      </trkpt>
      <trkpt lat="43.21686" lon="6.24658">
        <ele>401</ele>
        <time>2012-04-18T11:22:39Z</time>
      </trkpt>
      <trkpt lat="43.21681" lon="6.24668">
        <ele>401.799988</ele>
        <time>2012-04-18T11:22:49Z</time>
      </trkpt>
      <trkpt lat="43.21676" lon="6.24677">
        <ele>403.200012</ele>
        <time>2012-04-18T11:23:00Z</time>
      </trkpt>
      <trkpt lat="43.21671" lon="6.24687">
        <ele>403.799988</ele>
        <time>2012-04-18T11:23:10Z</time>
      </trkpt>
      <trkpt lat="43.21674" lon="6.24698">
        <ele>404.399994</ele>
        <time>2012-04-18T11:23:21Z</time>
      </trkpt>
      <trkpt lat="43.21674" lon="6.24699">
        <ele>404.399994</ele>
        <time>2012-04-18T11:23:22Z</time>
      </trkpt>
      <trkpt lat="43.21679" lon="6.2472">
        <ele>404.200012</ele>
        <time>2012-04-18T11:24:08Z</time>
      </trkpt>
      <trkpt lat="43.21683" lon="6.24731">
        <ele>403.799988</ele>
        <time>2012-04-18T11:24:21Z</time>
      </trkpt>
      <trkpt lat="43.2169" lon="6.24737">
        <ele>401.899994</ele>
        <time>2012-04-18T11:24:32Z</time>
      </trkpt>
      <trkpt lat="43.21691" lon="6.24737">
        <ele>401.899994</ele>
        <time>2012-04-18T11:24:33Z</time>
      </trkpt>
      <trkpt lat="43.21703" lon="6.24753">
        <ele>398.100006</ele>
        <time>2012-04-18T11:24:53Z</time>
      </trkpt>
      <trkpt lat="43.21708" lon="6.24763">
        <ele>395.899994</ele>
        <time>2012-04-18T11:25:04Z</time>
      </trkpt>
      <trkpt lat="43.21709" lon="6.24775">
        <ele>395.799988</ele>
        <time>2012-04-18T11:25:15Z</time>
      </trkpt>
      <trkpt lat="43.2171" lon="6.24787">
        <ele>395.700012</ele>
        <time>2012-04-18T11:25:23Z</time>
      </trkpt>
      <trkpt lat="43.2171" lon="6.24799">
        <ele>396.100006</ele>
        <time>2012-04-18T11:25:31Z</time>
      </trkpt>
      <trkpt lat="43.2171" lon="6.24811">
        <ele>396.399994</ele>
        <time>2012-04-18T11:25:39Z</time>
      </trkpt>
      <trkpt lat="43.2171" lon="6.24812">
        <ele>396.5</ele>
        <time>2012-04-18T11:25:40Z</time>
      </trkpt>
      <trkpt lat="43.21712" lon="6.24833">
        <ele>397.100006</ele>
        <time>2012-04-18T11:25:55Z</time>
      </trkpt>
      <trkpt lat="43.21716" lon="6.24844">
        <ele>397.200012</ele>
        <time>2012-04-18T11:26:04Z</time>
      </trkpt>
      <trkpt lat="43.21723" lon="6.2485">
        <ele>396.899994</ele>
        <time>2012-04-18T11:26:12Z</time>
      </trkpt>
      <trkpt lat="43.21731" lon="6.24854">
        <ele>397.200012</ele>
        <time>2012-04-18T11:26:20Z</time>
      </trkpt>
      <trkpt lat="43.21739" lon="6.24858">
        <ele>397.299988</ele>
        <time>2012-04-18T11:26:27Z</time>
      </trkpt>
      <trkpt lat="43.21747" lon="6.24863">
        <ele>397.5</ele>
        <time>2012-04-18T11:26:34Z</time>
      </trkpt>
      <trkpt lat="43.21754" lon="6.24868">
        <ele>397</ele>
        <time>2012-04-18T11:26:42Z</time>
      </trkpt>
      <trkpt lat="43.21755" lon="6.24869">
        <ele>397</ele>
        <time>2012-04-18T11:26:43Z</time>
      </trkpt>
      <trkpt lat="43.2177" lon="6.24877">
        <ele>395.700012</ele>
        <time>2012-04-18T11:26:59Z</time>
      </trkpt>
      <trkpt lat="43.21778" lon="6.24882">
        <ele>395.200012</ele>
        <time>2012-04-18T11:27:07Z</time>
      </trkpt>
      <trkpt lat="43.21783" lon="6.24891">
        <ele>394.200012</ele>
        <time>2012-04-18T11:27:16Z</time>
      </trkpt>
      <trkpt lat="43.21788" lon="6.24901">
        <ele>393.100006</ele>
        <time>2012-04-18T11:27:24Z</time>
      </trkpt>
      <trkpt lat="43.21793" lon="6.2491">
        <ele>392.399994</ele>
        <time>2012-04-18T11:27:32Z</time>
      </trkpt>
      <trkpt lat="43.21799" lon="6.2492">
        <ele>391.399994</ele>
        <time>2012-04-18T11:27:41Z</time>
      </trkpt>
      <trkpt lat="43.21805" lon="6.24927">
        <ele>389.700012</ele>
        <time>2012-04-18T11:27:51Z</time>
      </trkpt>
      <trkpt lat="43.21806" lon="6.24928">
        <ele>389.5</ele>
        <time>2012-04-18T11:27:52Z</time>
      </trkpt>
      <trkpt lat="43.21818" lon="6.24942">
        <ele>386.399994</ele>
        <time>2012-04-18T11:28:10Z</time>
      </trkpt>
      <trkpt lat="43.21825" lon="6.24948">
        <ele>385.299988</ele>
        <time>2012-04-18T11:28:19Z</time>
      </trkpt>
      <trkpt lat="43.21833" lon="6.24952">
        <ele>384.899994</ele>
        <time>2012-04-18T11:28:27Z</time>
      </trkpt>
      <trkpt lat="43.21841" lon="6.24955">
        <ele>383.399994</ele>
        <time>2012-04-18T11:28:36Z</time>
      </trkpt>
      <trkpt lat="43.21849" lon="6.24958">
        <ele>381.5</ele>
        <time>2012-04-18T11:28:45Z</time>
      </trkpt>
      <trkpt lat="43.21857" lon="6.24961">
        <ele>379.700012</ele>
        <time>2012-04-18T11:28:53Z</time>
      </trkpt>
      <trkpt lat="43.21858" lon="6.24962">
        <ele>379.200012</ele>
        <time>2012-04-18T11:28:54Z</time>
      </trkpt>
      <trkpt lat="43.21873" lon="6.24967">
        <ele>377.799988</ele>
        <time>2012-04-18T11:29:09Z</time>
      </trkpt>
      <trkpt lat="43.21882" lon="6.24966">
        <ele>376.299988</ele>
        <time>2012-04-18T11:29:17Z</time>
      </trkpt>
      <trkpt lat="43.2189" lon="6.24963">
        <ele>375.299988</ele>
        <time>2012-04-18T11:29:25Z</time>
      </trkpt>
      <trkpt lat="43.21899" lon="6.24962">
        <ele>374.899994</ele>
        <time>2012-04-18T11:29:33Z</time>
      </trkpt>
      <trkpt lat="43.21907" lon="6.2496">
        <ele>374.5</ele>
        <time>2012-04-18T11:29:40Z</time>
      </trkpt>
      <trkpt lat="43.21915" lon="6.2496">
        <ele>373.5</ele>
        <time>2012-04-18T11:29:47Z</time>
      </trkpt>
      <trkpt lat="43.21923" lon="6.24958">
        <ele>373.100006</ele>
        <time>2012-04-18T11:29:54Z</time>
      </trkpt>
      <trkpt lat="43.21924" lon="6.24958">
        <ele>373.200012</ele>
        <time>2012-04-18T11:29:55Z</time>
      </trkpt>
      <trkpt lat="43.21934" lon="6.24974">
        <ele>371.5</ele>
        <time>2012-04-18T11:30:09Z</time>
      </trkpt>
      <trkpt lat="43.21936" lon="6.24985">
        <ele>370.5</ele>
        <time>2012-04-18T11:30:17Z</time>
      </trkpt>
      <trkpt lat="43.21936" lon="6.24997">
        <ele>369.600006</ele>
        <time>2012-04-18T11:30:26Z</time>
      </trkpt>
      <trkpt lat="43.21937" lon="6.25009">
        <ele>368.5</ele>
        <time>2012-04-18T11:30:36Z</time>
      </trkpt>
      <trkpt lat="43.21939" lon="6.2502">
        <ele>366.799988</ele>
        <time>2012-04-18T11:30:45Z</time>
      </trkpt>
      <trkpt lat="43.21941" lon="6.25031">
        <ele>365.200012</ele>
        <time>2012-04-18T11:30:53Z</time>
      </trkpt>
      <trkpt lat="43.21944" lon="6.25042">
        <ele>363.799988</ele>
        <time>2012-04-18T11:31:01Z</time>
      </trkpt>
      <trkpt lat="43.21945" lon="6.25043">
        <ele>363.700012</ele>
        <time>2012-04-18T11:31:02Z</time>
      </trkpt>
      <trkpt lat="43.21951" lon="6.25061">
        <ele>361.200012</ele>
        <time>2012-04-18T11:31:15Z</time>
      </trkpt>
      <trkpt lat="43.21956" lon="6.25072">
        <ele>359</ele>
        <time>2012-04-18T11:31:25Z</time>
      </trkpt>
      <trkpt lat="43.2196" lon="6.25082">
        <ele>357.799988</ele>
        <time>2012-04-18T11:31:35Z</time>
      </trkpt>
      <trkpt lat="43.21964" lon="6.25093">
        <ele>355.899994</ele>
        <time>2012-04-18T11:31:45Z</time>
      </trkpt>
      <trkpt lat="43.21969" lon="6.25103">
        <ele>354.100006</ele>
        <time>2012-04-18T11:31:55Z</time>
      </trkpt>
      <trkpt lat="43.21975" lon="6.25112">
        <ele>353</ele>
        <time>2012-04-18T11:32:05Z</time>
      </trkpt>
      <trkpt lat="43.21975" lon="6.25113">
        <ele>352.899994</ele>
        <time>2012-04-18T11:32:06Z</time>
      </trkpt>
      <trkpt lat="43.21989" lon="6.25126">
        <ele>351.899994</ele>
        <time>2012-04-18T11:32:21Z</time>
      </trkpt>
      <trkpt lat="43.21995" lon="6.25132">
        <ele>352</ele>
        <time>2012-04-18T11:32:28Z</time>
      </trkpt>
      <trkpt lat="43.22002" lon="6.25138">
        <ele>351.200012</ele>
        <time>2012-04-18T11:32:35Z</time>
      </trkpt>
      <trkpt lat="43.22007" lon="6.25146">
        <ele>350.700012</ele>
        <time>2012-04-18T11:32:42Z</time>
      </trkpt>
      <trkpt lat="43.22013" lon="6.25155">
        <ele>350.899994</ele>
        <time>2012-04-18T11:32:49Z</time>
      </trkpt>
      <trkpt lat="43.22017" lon="6.25164">
        <ele>350.700012</ele>
        <time>2012-04-18T11:32:55Z</time>
      </trkpt>
      <trkpt lat="43.22022" lon="6.25173">
        <ele>349.700012</ele>
        <time>2012-04-18T11:33:02Z</time>
      </trkpt>
      <trkpt lat="43.22026" lon="6.25183">
        <ele>349.5</ele>
        <time>2012-04-18T11:33:09Z</time>
      </trkpt>
      <trkpt lat="43.22026" lon="6.25184">
        <ele>349.700012</ele>
        <time>2012-04-18T11:33:10Z</time>
      </trkpt>
      <trkpt lat="43.22016" lon="6.2519">
        <ele>347.600006</ele>
        <time>2012-04-18T11:33:32Z</time>
      </trkpt>
      <trkpt lat="43.22008" lon="6.25186">
        <ele>346.5</ele>
        <time>2012-04-18T11:33:41Z</time>
      </trkpt>
      <trkpt lat="43.22" lon="6.25182">
        <ele>345.100006</ele>
        <time>2012-04-18T11:33:52Z</time>
      </trkpt>
      <trkpt lat="43.21991" lon="6.2518">
        <ele>342.799988</ele>
        <time>2012-04-18T11:34:04Z</time>
      </trkpt>
      <trkpt lat="43.21983" lon="6.2518">
        <ele>340.899994</ele>
        <time>2012-04-18T11:34:15Z</time>
      </trkpt>
      <trkpt lat="43.21982" lon="6.2518">
        <ele>340.700012</ele>
        <time>2012-04-18T11:34:16Z</time>
      </trkpt>
      <trkpt lat="43.21968" lon="6.25188">
        <ele>337.299988</ele>
        <time>2012-04-18T11:34:39Z</time>
      </trkpt>
      <trkpt lat="43.21961" lon="6.25196">
        <ele>336.100006</ele>
        <time>2012-04-18T11:34:48Z</time>
      </trkpt>
      <trkpt lat="43.2196" lon="6.25207">
        <ele>335.5</ele>
        <time>2012-04-18T11:34:57Z</time>
      </trkpt>
      <trkpt lat="43.21958" lon="6.25219">
        <ele>335.100006</ele>
        <time>2012-04-18T11:35:06Z</time>
      </trkpt>
      <trkpt lat="43.21956" lon="6.2523">
        <ele>333.899994</ele>
        <time>2012-04-18T11:35:15Z</time>
      </trkpt>
      <trkpt lat="43.21953" lon="6.25241">
        <ele>332.100006</ele>
        <time>2012-04-18T11:35:26Z</time>
      </trkpt>
      <trkpt lat="43.21953" lon="6.25242">
        <ele>332</ele>
        <time>2012-04-18T11:35:27Z</time>
      </trkpt>
      <trkpt lat="43.21947" lon="6.25261">
        <ele>327.799988</ele>
        <time>2012-04-18T11:35:49Z</time>
      </trkpt>
      <trkpt lat="43.21943" lon="6.25272">
        <ele>326.5</ele>
        <time>2012-04-18T11:35:59Z</time>
      </trkpt>
      <trkpt lat="43.21939" lon="6.25282">
        <ele>324.5</ele>
        <time>2012-04-18T11:36:11Z</time>
      </trkpt>
      <trkpt lat="43.21935" lon="6.25293">
        <ele>323.299988</ele>
        <time>2012-04-18T11:36:21Z</time>
      </trkpt>
      <trkpt lat="43.21929" lon="6.25302">
        <ele>321.700012</ele>
        <time>2012-04-18T11:36:29Z</time>
      </trkpt>
      <trkpt lat="43.21929" lon="6.25302">
        <ele>321.600006</ele>
        <time>2012-04-18T11:36:30Z</time>
      </trkpt>
      <trkpt lat="43.21918" lon="6.25317">
        <ele>319.600006</ele>
        <time>2012-04-18T11:36:44Z</time>
      </trkpt>
      <trkpt lat="43.21913" lon="6.25326">
        <ele>317.899994</ele>
        <time>2012-04-18T11:36:52Z</time>
      </trkpt>
      <trkpt lat="43.21909" lon="6.25336">
        <ele>317.100006</ele>
        <time>2012-04-18T11:37:00Z</time>
      </trkpt>
      <trkpt lat="43.21905" lon="6.25346">
        <ele>314.799988</ele>
        <time>2012-04-18T11:37:10Z</time>
      </trkpt>
      <trkpt lat="43.21899" lon="6.25356">
        <ele>314.600006</ele>
        <time>2012-04-18T11:37:19Z</time>
      </trkpt>
      <trkpt lat="43.21897" lon="6.25367">
        <ele>314.100006</ele>
        <time>2012-04-18T11:37:26Z</time>
      </trkpt>
      <trkpt lat="43.21892" lon="6.25375">
        <ele>313.700012</ele>
        <time>2012-04-18T11:37:33Z</time>
      </trkpt>
      <trkpt lat="43.21891" lon="6.25377">
        <ele>313.600006</ele>
        <time>2012-04-18T11:37:34Z</time>
      </trkpt>
      <trkpt lat="43.21881" lon="6.25393">
        <ele>310.799988</ele>
        <time>2012-04-18T11:37:48Z</time>
      </trkpt>
      <trkpt lat="43.21874" lon="6.25401">
        <ele>309.5</ele>
        <time>2012-04-18T11:37:56Z</time>
      </trkpt>
      <trkpt lat="43.21868" lon="6.25409">
        <ele>307.899994</ele>
        <time>2012-04-18T11:38:04Z</time>
      </trkpt>
      <trkpt lat="43.21861" lon="6.25415">
        <ele>307.200012</ele>
        <time>2012-04-18T11:38:12Z</time>
      </trkpt>
      <trkpt lat="43.21854" lon="6.25421">
        <ele>304.799988</ele>
        <time>2012-04-18T11:38:22Z</time>
      </trkpt>
      <trkpt lat="43.21846" lon="6.25427">
        <ele>303.299988</ele>
        <time>2012-04-18T11:38:33Z</time>
      </trkpt>
      <trkpt lat="43.21838" lon="6.2543">
        <ele>302.299988</ele>
        <time>2012-04-18T11:38:41Z</time>
      </trkpt>
      <trkpt lat="43.21837" lon="6.2543">
        <ele>302.299988</ele>
        <time>2012-04-18T11:38:42Z</time>
      </trkpt>
      <trkpt lat="43.2183" lon="6.25451">
        <ele>299.200012</ele>
        <time>2012-04-18T11:39:01Z</time>
      </trkpt>
      <trkpt lat="43.21829" lon="6.25462">
        <ele>296.899994</ele>
        <time>2012-04-18T11:39:13Z</time>
      </trkpt>
      <trkpt lat="43.21828" lon="6.25474">
        <ele>294.899994</ele>
        <time>2012-04-18T11:39:27Z</time>
      </trkpt>
      <trkpt lat="43.21826" lon="6.25485">
        <ele>293.299988</ele>
        <time>2012-04-18T11:39:38Z</time>
      </trkpt>
      <trkpt lat="43.21822" lon="6.25496">
        <ele>290.399994</ele>
        <time>2012-04-18T11:39:53Z</time>
      </trkpt>
      <trkpt lat="43.21822" lon="6.25497">
        <ele>290.299988</ele>
        <time>2012-04-18T11:39:54Z</time>
      </trkpt>
      <trkpt lat="43.21819" lon="6.25518">
        <ele>286.700012</ele>
        <time>2012-04-18T11:40:15Z</time>
      </trkpt>
      <trkpt lat="43.21817" lon="6.25529">
        <ele>283.700012</ele>
        <time>2012-04-18T11:40:26Z</time>
      </trkpt>
      <trkpt lat="43.21818" lon="6.25541">
        <ele>281.5</ele>
        <time>2012-04-18T11:40:38Z</time>
      </trkpt>
      <trkpt lat="43.21822" lon="6.25552">
        <ele>279.899994</ele>
        <time>2012-04-18T11:40:48Z</time>
      </trkpt>
      <trkpt lat="43.2183" lon="6.25559">
        <ele>279</ele>
        <time>2012-04-18T11:41:00Z</time>
      </trkpt>
      <trkpt lat="43.2183" lon="6.25559">
        <ele>278.799988</ele>
        <time>2012-04-18T11:41:01Z</time>
      </trkpt>
      <trkpt lat="43.21842" lon="6.25575">
        <ele>274.899994</ele>
        <time>2012-04-18T11:41:26Z</time>
      </trkpt>
      <trkpt lat="43.21849" lon="6.25582">
        <ele>273.200012</ele>
        <time>2012-04-18T11:41:38Z</time>
      </trkpt>
      <trkpt lat="43.21854" lon="6.2559">
        <ele>271.799988</ele>
        <time>2012-04-18T11:41:46Z</time>
      </trkpt>
      <trkpt lat="43.21858" lon="6.25599">
        <ele>270.899994</ele>
        <time>2012-04-18T11:41:54Z</time>
      </trkpt>
      <trkpt lat="43.21862" lon="6.2561">
        <ele>270.5</ele>
        <time>2012-04-18T11:42:03Z</time>
      </trkpt>
      <trkpt lat="43.21863" lon="6.25611">
        <ele>270.700012</ele>
        <time>2012-04-18T11:42:04Z</time>
      </trkpt>
      <trkpt lat="43.21872" lon="6.2563">
        <ele>266.299988</ele>
        <time>2012-04-18T11:42:32Z</time>
      </trkpt>
      <trkpt lat="43.21878" lon="6.25639">
        <ele>264.700012</ele>
        <time>2012-04-18T11:42:45Z</time>
      </trkpt>
      <trkpt lat="43.21886" lon="6.25644">
        <ele>262.299988</ele>
        <time>2012-04-18T11:42:56Z</time>
      </trkpt>
      <trkpt lat="43.21894" lon="6.2565">
        <ele>260.600006</ele>
        <time>2012-04-18T11:43:06Z</time>
      </trkpt>
      <trkpt lat="43.21894" lon="6.25651">
        <ele>260.299988</ele>
        <time>2012-04-18T11:43:07Z</time>
      </trkpt>
      <trkpt lat="43.21907" lon="6.25664">
        <ele>255.100006</ele>
        <time>2012-04-18T11:43:30Z</time>
      </trkpt>
      <trkpt lat="43.21914" lon="6.25671">
        <ele>253.300003</ele>
        <time>2012-04-18T11:43:45Z</time>
      </trkpt>
      <trkpt lat="43.21922" lon="6.25676">
        <ele>250.699997</ele>
        <time>2012-04-18T11:43:58Z</time>
      </trkpt>
      <trkpt lat="43.21929" lon="6.25681">
        <ele>249</ele>
        <time>2012-04-18T11:44:11Z</time>
      </trkpt>
      <trkpt lat="43.2193" lon="6.25681">
        <ele>248.899994</ele>
        <time>2012-04-18T11:44:12Z</time>
      </trkpt>
      <trkpt lat="43.21945" lon="6.25691">
        <ele>244.300003</ele>
        <time>2012-04-18T11:44:43Z</time>
      </trkpt>
      <trkpt lat="43.21952" lon="6.25698">
        <ele>241.399994</ele>
        <time>2012-04-18T11:44:59Z</time>
      </trkpt>
      <trkpt lat="43.21959" lon="6.25704">
        <ele>238.100006</ele>
        <time>2012-04-18T11:45:16Z</time>
      </trkpt>
      <trkpt lat="43.2196" lon="6.25705">
        <ele>238.100006</ele>
        <time>2012-04-18T11:45:17Z</time>
      </trkpt>
      <trkpt lat="43.21975" lon="6.25715">
        <ele>233.699997</ele>
        <time>2012-04-18T11:45:41Z</time>
      </trkpt>
      <trkpt lat="43.21982" lon="6.25721">
        <ele>231.5</ele>
        <time>2012-04-18T11:45:56Z</time>
      </trkpt>
      <trkpt lat="43.21989" lon="6.25728">
        <ele>229.5</ele>
        <time>2012-04-18T11:46:09Z</time>
      </trkpt>
      <trkpt lat="43.21996" lon="6.25736">
        <ele>227.399994</ele>
        <time>2012-04-18T11:46:19Z</time>
      </trkpt>
      <trkpt lat="43.21996" lon="6.25737">
        <ele>227.199997</ele>
        <time>2012-04-18T11:46:20Z</time>
      </trkpt>
      <trkpt lat="43.22005" lon="6.25756">
        <ele>223.300003</ele>
        <time>2012-04-18T11:46:43Z</time>
      </trkpt>
      <trkpt lat="43.22007" lon="6.25768">
        <ele>220.600006</ele>
        <time>2012-04-18T11:46:58Z</time>
      </trkpt>
      <trkpt lat="43.22011" lon="6.25778">
        <ele>218.100006</ele>
        <time>2012-04-18T11:47:11Z</time>
      </trkpt>
      <trkpt lat="43.22013" lon="6.25789">
        <ele>216</ele>
        <time>2012-04-18T11:47:24Z</time>
      </trkpt>
      <trkpt lat="43.22013" lon="6.2579">
        <ele>215.899994</ele>
        <time>2012-04-18T11:47:25Z</time>
      </trkpt>
      <trkpt lat="43.22021" lon="6.25808">
        <ele>214.100006</ele>
        <time>2012-04-18T11:47:42Z</time>
      </trkpt>
      <trkpt lat="43.22023" lon="6.2582">
        <ele>214.300003</ele>
        <time>2012-04-18T11:47:50Z</time>
      </trkpt>
      <trkpt lat="43.22023" lon="6.25832">
        <ele>213.300003</ele>
        <time>2012-04-18T11:48:00Z</time>
      </trkpt>
      <trkpt lat="43.2203" lon="6.2584">
        <ele>213</ele>
        <time>2012-04-18T11:48:10Z</time>
      </trkpt>
      <trkpt lat="43.22036" lon="6.25849">
        <ele>213.800003</ele>
        <time>2012-04-18T11:48:20Z</time>
      </trkpt>
      <trkpt lat="43.2204" lon="6.25859">
        <ele>213.800003</ele>
        <time>2012-04-18T11:48:31Z</time>
      </trkpt>
      <trkpt lat="43.22041" lon="6.2586">
        <ele>213.800003</ele>
        <time>2012-04-18T11:48:32Z</time>
      </trkpt>
      <trkpt lat="43.22047" lon="6.2588">
        <ele>213.800003</ele>
        <time>2012-04-18T11:48:49Z</time>
      </trkpt>
      <trkpt lat="43.22048" lon="6.25892">
        <ele>213.399994</ele>
        <time>2012-04-18T11:48:58Z</time>
      </trkpt>
      <trkpt lat="43.22048" lon="6.25904">
        <ele>212.399994</ele>
        <time>2012-04-18T11:49:06Z</time>
      </trkpt>
      <trkpt lat="43.22047" lon="6.25915">
        <ele>211.199997</ele>
        <time>2012-04-18T11:49:16Z</time>
      </trkpt>
      <trkpt lat="43.22046" lon="6.25927">
        <ele>209.600006</ele>
        <time>2012-04-18T11:49:25Z</time>
      </trkpt>
      <trkpt lat="43.22046" lon="6.25938">
        <ele>208.600006</ele>
        <time>2012-04-18T11:49:33Z</time>
      </trkpt>
      <trkpt lat="43.22046" lon="6.2594">
        <ele>208.300003</ele>
        <time>2012-04-18T11:49:34Z</time>
      </trkpt>
      <trkpt lat="43.22054" lon="6.25958">
        <ele>205.699997</ele>
        <time>2012-04-18T11:49:47Z</time>
      </trkpt>
      <trkpt lat="43.22058" lon="6.25968">
        <ele>204.899994</ele>
        <time>2012-04-18T11:49:55Z</time>
      </trkpt>
      <trkpt lat="43.22062" lon="6.25978">
        <ele>203.600006</ele>
        <time>2012-04-18T11:50:03Z</time>
      </trkpt>
      <trkpt lat="43.22066" lon="6.25988">
        <ele>201.699997</ele>
        <time>2012-04-18T11:50:11Z</time>
      </trkpt>
      <trkpt lat="43.22071" lon="6.25998">
        <ele>200.800003</ele>
        <time>2012-04-18T11:50:19Z</time>
      </trkpt>
      <trkpt lat="43.22074" lon="6.26008">
        <ele>199.800003</ele>
        <time>2012-04-18T11:50:27Z</time>
      </trkpt>
      <trkpt lat="43.22078" lon="6.26018">
        <ele>199.5</ele>
        <time>2012-04-18T11:50:34Z</time>
      </trkpt>
      <trkpt lat="43.22078" lon="6.2602">
        <ele>199.399994</ele>
        <time>2012-04-18T11:50:35Z</time>
      </trkpt>
      <trkpt lat="43.22083" lon="6.26041">
        <ele>198.100006</ele>
        <time>2012-04-18T11:50:51Z</time>
      </trkpt>
      <trkpt lat="43.22082" lon="6.26052">
        <ele>196.800003</ele>
        <time>2012-04-18T11:51:01Z</time>
      </trkpt>
      <trkpt lat="43.22084" lon="6.26063">
        <ele>195.5</ele>
        <time>2012-04-18T11:51:08Z</time>
      </trkpt>
      <trkpt lat="43.22087" lon="6.26074">
        <ele>194.800003</ele>
        <time>2012-04-18T11:51:16Z</time>
      </trkpt>
      <trkpt lat="43.2209" lon="6.26084">
        <ele>193.800003</ele>
        <time>2012-04-18T11:51:23Z</time>
      </trkpt>
      <trkpt lat="43.22094" lon="6.26095">
        <ele>192.600006</ele>
        <time>2012-04-18T11:51:31Z</time>
      </trkpt>
      <trkpt lat="43.22099" lon="6.26105">
        <ele>192</ele>
        <time>2012-04-18T11:51:39Z</time>
      </trkpt>
      <trkpt lat="43.221" lon="6.26106">
        <ele>191.899994</ele>
        <time>2012-04-18T11:51:40Z</time>
      </trkpt>
      <trkpt lat="43.22109" lon="6.26124">
        <ele>190.600006</ele>
        <time>2012-04-18T11:51:54Z</time>
      </trkpt>
      <trkpt lat="43.22114" lon="6.26134">
        <ele>190.199997</ele>
        <time>2012-04-18T11:52:02Z</time>
      </trkpt>
      <trkpt lat="43.22118" lon="6.26143">
        <ele>189.899994</ele>
        <time>2012-04-18T11:52:09Z</time>
      </trkpt>
      <trkpt lat="43.22122" lon="6.26154">
        <ele>189.699997</ele>
        <time>2012-04-18T11:52:16Z</time>
      </trkpt>
      <trkpt lat="43.22126" lon="6.26165">
        <ele>189.399994</ele>
        <time>2012-04-18T11:52:24Z</time>
      </trkpt>
      <trkpt lat="43.22129" lon="6.26175">
        <ele>188.899994</ele>
        <time>2012-04-18T11:52:31Z</time>
      </trkpt>
      <trkpt lat="43.2213" lon="6.26187">
        <ele>188.399994</ele>
        <time>2012-04-18T11:52:38Z</time>
      </trkpt>
      <trkpt lat="43.2213" lon="6.26199">
        <ele>188.399994</ele>
        <time>2012-04-18T11:52:45Z</time>
      </trkpt>
      <trkpt lat="43.2213" lon="6.262">
        <ele>188.300003</ele>
        <time>2012-04-18T11:52:46Z</time>
      </trkpt>
      <trkpt lat="43.22133" lon="6.26221">
        <ele>187.699997</ele>
        <time>2012-04-18T11:52:57Z</time>
      </trkpt>
      <trkpt lat="43.22135" lon="6.26231">
        <ele>187.199997</ele>
        <time>2012-04-18T11:53:03Z</time>
      </trkpt>
      <trkpt lat="43.22136" lon="6.26242">
        <ele>186.100006</ele>
        <time>2012-04-18T11:53:10Z</time>
      </trkpt>
      <trkpt lat="43.22137" lon="6.26254">
        <ele>184.800003</ele>
        <time>2012-04-18T11:53:17Z</time>
      </trkpt>
      <trkpt lat="43.2214" lon="6.26265">
        <ele>184.300003</ele>
        <time>2012-04-18T11:53:24Z</time>
      </trkpt>
      <trkpt lat="43.22142" lon="6.26277">
        <ele>183.600006</ele>
        <time>2012-04-18T11:53:31Z</time>
      </trkpt>
      <trkpt lat="43.22144" lon="6.26288">
        <ele>183.100006</ele>
        <time>2012-04-18T11:53:38Z</time>
      </trkpt>
      <trkpt lat="43.22147" lon="6.26299">
        <ele>182.399994</ele>
        <time>2012-04-18T11:53:46Z</time>
      </trkpt>
      <trkpt lat="43.22148" lon="6.263">
        <ele>182.300003</ele>
        <time>2012-04-18T11:53:47Z</time>
      </trkpt>
      <trkpt lat="43.22149" lon="6.26321">
        <ele>181</ele>
        <time>2012-04-18T11:53:59Z</time>
      </trkpt>
      <trkpt lat="43.22153" lon="6.26332">
        <ele>180.5</ele>
        <time>2012-04-18T11:54:08Z</time>
      </trkpt>
      <trkpt lat="43.22159" lon="6.26339">
        <ele>179.899994</ele>
        <time>2012-04-18T11:54:15Z</time>
      </trkpt>
      <trkpt lat="43.22165" lon="6.26347">
        <ele>179.600006</ele>
        <time>2012-04-18T11:54:22Z</time>
      </trkpt>
      <trkpt lat="43.22171" lon="6.26355">
        <ele>179.699997</ele>
        <time>2012-04-18T11:54:29Z</time>
      </trkpt>
      <trkpt lat="43.22177" lon="6.26362">
        <ele>178.300003</ele>
        <time>2012-04-18T11:54:36Z</time>
      </trkpt>
      <trkpt lat="43.22184" lon="6.26369">
        <ele>177.600006</ele>
        <time>2012-04-18T11:54:43Z</time>
      </trkpt>
      <trkpt lat="43.22191" lon="6.26377">
        <ele>177.100006</ele>
        <time>2012-04-18T11:54:50Z</time>
      </trkpt>
      <trkpt lat="43.22192" lon="6.26377">
        <ele>176.899994</ele>
        <time>2012-04-18T11:54:51Z</time>
      </trkpt>
      <trkpt lat="43.22204" lon="6.26392">
        <ele>176.699997</ele>
        <time>2012-04-18T11:55:04Z</time>
      </trkpt>
      <trkpt lat="43.22209" lon="6.26401">
        <ele>176.5</ele>
        <time>2012-04-18T11:55:11Z</time>
      </trkpt>
      <trkpt lat="43.22214" lon="6.2641">
        <ele>175.600006</ele>
        <time>2012-04-18T11:55:18Z</time>
      </trkpt>
      <trkpt lat="43.22218" lon="6.2642">
        <ele>174.899994</ele>
        <time>2012-04-18T11:55:26Z</time>
      </trkpt>
      <trkpt lat="43.22223" lon="6.26429">
        <ele>173.5</ele>
        <time>2012-04-18T11:55:33Z</time>
      </trkpt>
      <trkpt lat="43.22228" lon="6.26438">
        <ele>172.800003</ele>
        <time>2012-04-18T11:55:40Z</time>
      </trkpt>
      <trkpt lat="43.22234" lon="6.26447">
        <ele>171.300003</ele>
        <time>2012-04-18T11:55:48Z</time>
      </trkpt>
      <trkpt lat="43.22241" lon="6.26453">
        <ele>170.800003</ele>
        <time>2012-04-18T11:55:55Z</time>
      </trkpt>
      <trkpt lat="43.22242" lon="6.26454">
        <ele>170.800003</ele>
        <time>2012-04-18T11:55:56Z</time>
      </trkpt>
      <trkpt lat="43.22254" lon="6.26468">
        <ele>169.699997</ele>
        <time>2012-04-18T11:56:09Z</time>
      </trkpt>
      <trkpt lat="43.22261" lon="6.26476">
        <ele>169.800003</ele>
        <time>2012-04-18T11:56:16Z</time>
      </trkpt>
      <trkpt lat="43.22267" lon="6.26484">
        <ele>168.199997</ele>
        <time>2012-04-18T11:56:24Z</time>
      </trkpt>
      <trkpt lat="43.22271" lon="6.26494">
        <ele>167.399994</ele>
        <time>2012-04-18T11:56:31Z</time>
      </trkpt>
      <trkpt lat="43.22273" lon="6.26505">
        <ele>167.399994</ele>
        <time>2012-04-18T11:56:38Z</time>
      </trkpt>
      <trkpt lat="43.22277" lon="6.26515">
        <ele>167.300003</ele>
        <time>2012-04-18T11:56:45Z</time>
      </trkpt>
      <trkpt lat="43.22282" lon="6.26524">
        <ele>166.5</ele>
        <time>2012-04-18T11:56:52Z</time>
      </trkpt>
      <trkpt lat="43.2229" lon="6.26529">
        <ele>166.399994</ele>
        <time>2012-04-18T11:56:59Z</time>
      </trkpt>
      <trkpt lat="43.22291" lon="6.26529">
        <ele>166.399994</ele>
        <time>2012-04-18T11:57:00Z</time>
      </trkpt>
      <trkpt lat="43.22303" lon="6.26542">
        <ele>165.600006</ele>
        <time>2012-04-18T11:57:14Z</time>
      </trkpt>
      <trkpt lat="43.22303" lon="6.26553">
        <ele>165.399994</ele>
        <time>2012-04-18T11:57:21Z</time>
      </trkpt>
      <trkpt lat="43.22304" lon="6.26563">
        <ele>164.600006</ele>
        <time>2012-04-18T11:57:27Z</time>
      </trkpt>
      <trkpt lat="43.22306" lon="6.26575">
        <ele>163.600006</ele>
        <time>2012-04-18T11:57:34Z</time>
      </trkpt>
      <trkpt lat="43.22306" lon="6.26587">
        <ele>163.399994</ele>
        <time>2012-04-18T11:57:41Z</time>
      </trkpt>
      <trkpt lat="43.22306" lon="6.26598">
        <ele>162.5</ele>
        <time>2012-04-18T11:57:48Z</time>
      </trkpt>
      <trkpt lat="43.22305" lon="6.2661">
        <ele>162.199997</ele>
        <time>2012-04-18T11:57:55Z</time>
      </trkpt>
      <trkpt lat="43.22305" lon="6.26621">
        <ele>162.300003</ele>
        <time>2012-04-18T11:58:02Z</time>
      </trkpt>
      <trkpt lat="43.22305" lon="6.26623">
        <ele>162.5</ele>
        <time>2012-04-18T11:58:03Z</time>
      </trkpt>
      <trkpt lat="43.2231" lon="6.26641">
        <ele>162.199997</ele>
        <time>2012-04-18T11:58:12Z</time>
      </trkpt>
      <trkpt lat="43.22312" lon="6.26653">
        <ele>162.600006</ele>
        <time>2012-04-18T11:58:19Z</time>
      </trkpt>
      <trkpt lat="43.22312" lon="6.26665">
        <ele>162.600006</ele>
        <time>2012-04-18T11:58:26Z</time>
      </trkpt>
      <trkpt lat="43.22312" lon="6.26676">
        <ele>162.800003</ele>
        <time>2012-04-18T11:58:32Z</time>
      </trkpt>
      <trkpt lat="43.22313" lon="6.26687">
        <ele>162.600006</ele>
        <time>2012-04-18T11:58:38Z</time>
      </trkpt>
      <trkpt lat="43.22314" lon="6.26699">
        <ele>162.699997</ele>
        <time>2012-04-18T11:58:45Z</time>
      </trkpt>
      <trkpt lat="43.22318" lon="6.26709">
        <ele>163.100006</ele>
        <time>2012-04-18T11:58:53Z</time>
      </trkpt>
      <trkpt lat="43.22321" lon="6.2672">
        <ele>162.899994</ele>
        <time>2012-04-18T11:59:01Z</time>
      </trkpt>
      <trkpt lat="43.22327" lon="6.26728">
        <ele>163.100006</ele>
        <time>2012-04-18T11:59:09Z</time>
      </trkpt>
      <trkpt lat="43.22328" lon="6.2673">
        <ele>163.199997</ele>
        <time>2012-04-18T11:59:10Z</time>
      </trkpt>
      <trkpt lat="43.2234" lon="6.26744">
        <ele>163.399994</ele>
        <time>2012-04-18T11:59:23Z</time>
      </trkpt>
      <trkpt lat="43.22346" lon="6.26749">
        <ele>163</ele>
        <time>2012-04-18T11:59:30Z</time>
      </trkpt>
      <trkpt lat="43.22354" lon="6.26754">
        <ele>163.800003</ele>
        <time>2012-04-18T11:59:37Z</time>
      </trkpt>
      <trkpt lat="43.22362" lon="6.26758">
        <ele>164.300003</ele>
        <time>2012-04-18T11:59:45Z</time>
      </trkpt>
      <trkpt lat="43.2237" lon="6.26762">
        <ele>165.800003</ele>
        <time>2012-04-18T11:59:53Z</time>
      </trkpt>
      <trkpt lat="43.22378" lon="6.26765">
        <ele>166.699997</ele>
        <time>2012-04-18T12:00:02Z</time>
      </trkpt>
      <trkpt lat="43.22386" lon="6.2677">
        <ele>167.399994</ele>
        <time>2012-04-18T12:00:11Z</time>
      </trkpt>
      <trkpt lat="43.22387" lon="6.26771">
        <ele>167.5</ele>
        <time>2012-04-18T12:00:12Z</time>
      </trkpt>
      <trkpt lat="43.22401" lon="6.26782">
        <ele>168.699997</ele>
        <time>2012-04-18T12:00:38Z</time>
      </trkpt>
      <trkpt lat="43.22405" lon="6.26791">
        <ele>169.199997</ele>
        <time>2012-04-18T12:04:32Z</time>
      </trkpt>
      <trkpt lat="43.22406" lon="6.26792">
        <ele>168.800003</ele>
        <time>2012-04-18T12:04:33Z</time>
      </trkpt>
      <trkpt lat="43.22417" lon="6.26807">
        <ele>166.699997</ele>
        <time>2012-04-18T12:04:50Z</time>
      </trkpt>
      <trkpt lat="43.22425" lon="6.26813">
        <ele>165.399994</ele>
        <time>2012-04-18T12:04:59Z</time>
      </trkpt>
      <trkpt lat="43.22433" lon="6.26817">
        <ele>164.100006</ele>
        <time>2012-04-18T12:05:08Z</time>
      </trkpt>
      <trkpt lat="43.22441" lon="6.26819">
        <ele>163.300003</ele>
        <time>2012-04-18T12:05:16Z</time>
      </trkpt>
      <trkpt lat="43.2245" lon="6.2682">
        <ele>162.399994</ele>
        <time>2012-04-18T12:05:24Z</time>
      </trkpt>
      <trkpt lat="43.22454" lon="6.2683">
        <ele>161.800003</ele>
        <time>2012-04-18T12:05:32Z</time>
      </trkpt>
      <trkpt lat="43.22456" lon="6.2684">
        <ele>161.5</ele>
        <time>2012-04-18T12:05:40Z</time>
      </trkpt>
      <trkpt lat="43.22457" lon="6.26842">
        <ele>161.600006</ele>
        <time>2012-04-18T12:05:41Z</time>
      </trkpt>
      <trkpt lat="43.22461" lon="6.26862">
        <ele>161.699997</ele>
        <time>2012-04-18T12:06:05Z</time>
      </trkpt>
      <trkpt lat="43.22463" lon="6.26874">
        <ele>161.699997</ele>
        <time>2012-04-18T12:06:13Z</time>
      </trkpt>
      <trkpt lat="43.22467" lon="6.26885">
        <ele>161.199997</ele>
        <time>2012-04-18T12:06:23Z</time>
      </trkpt>
      <trkpt lat="43.2247" lon="6.26896">
        <ele>160.600006</ele>
        <time>2012-04-18T12:06:31Z</time>
      </trkpt>
      <trkpt lat="43.22475" lon="6.26906">
        <ele>161.5</ele>
        <time>2012-04-18T12:06:39Z</time>
      </trkpt>
      <trkpt lat="43.22483" lon="6.26908">
        <ele>160.699997</ele>
        <time>2012-04-18T12:06:47Z</time>
      </trkpt>
      <trkpt lat="43.22484" lon="6.26908">
        <ele>160.699997</ele>
        <time>2012-04-18T12:06:48Z</time>
      </trkpt>
      <trkpt lat="43.22499" lon="6.26912">
        <ele>160.199997</ele>
        <time>2012-04-18T12:07:04Z</time>
      </trkpt>
      <trkpt lat="43.22507" lon="6.26917">
        <ele>160.199997</ele>
        <time>2012-04-18T12:07:14Z</time>
      </trkpt>
      <trkpt lat="43.22514" lon="6.26924">
        <ele>160.199997</ele>
        <time>2012-04-18T12:07:23Z</time>
      </trkpt>
      <trkpt lat="43.2252" lon="6.26932">
        <ele>160.899994</ele>
        <time>2012-04-18T12:07:33Z</time>
      </trkpt>
      <trkpt lat="43.22526" lon="6.26939">
        <ele>160.5</ele>
        <time>2012-04-18T12:07:41Z</time>
      </trkpt>
      <trkpt lat="43.22532" lon="6.26946">
        <ele>160.600006</ele>
        <time>2012-04-18T12:07:49Z</time>
      </trkpt>
      <trkpt lat="43.22533" lon="6.26948">
        <ele>160.5</ele>
        <time>2012-04-18T12:07:50Z</time>
      </trkpt>
      <trkpt lat="43.22545" lon="6.26962">
        <ele>159.5</ele>
        <time>2012-04-18T12:08:03Z</time>
      </trkpt>
      <trkpt lat="43.22552" lon="6.26969">
        <ele>158.5</ele>
        <time>2012-04-18T12:08:10Z</time>
      </trkpt>
      <trkpt lat="43.22559" lon="6.26974">
        <ele>157</ele>
        <time>2012-04-18T12:08:17Z</time>
      </trkpt>
      <trkpt lat="43.22566" lon="6.2698">
        <ele>155.699997</ele>
        <time>2012-04-18T12:08:24Z</time>
      </trkpt>
      <trkpt lat="43.22574" lon="6.26986">
        <ele>155.600006</ele>
        <time>2012-04-18T12:08:31Z</time>
      </trkpt>
      <trkpt lat="43.2258" lon="6.26992">
        <ele>154.699997</ele>
        <time>2012-04-18T12:08:37Z</time>
      </trkpt>
      <trkpt lat="43.22587" lon="6.26999">
        <ele>153.800003</ele>
        <time>2012-04-18T12:08:44Z</time>
      </trkpt>
      <trkpt lat="43.22594" lon="6.27007">
        <ele>154</ele>
        <time>2012-04-18T12:08:52Z</time>
      </trkpt>
      <trkpt lat="43.22595" lon="6.27008">
        <ele>153.899994</ele>
        <time>2012-04-18T12:08:53Z</time>
      </trkpt>
      <trkpt lat="43.22605" lon="6.27024">
        <ele>153.199997</ele>
        <time>2012-04-18T12:09:07Z</time>
      </trkpt>
      <trkpt lat="43.2261" lon="6.27033">
        <ele>153.399994</ele>
        <time>2012-04-18T12:09:14Z</time>
      </trkpt>
      <trkpt lat="43.22614" lon="6.27043">
        <ele>153.300003</ele>
        <time>2012-04-18T12:09:21Z</time>
      </trkpt>
      <trkpt lat="43.22619" lon="6.27052">
        <ele>153</ele>
        <time>2012-04-18T12:09:28Z</time>
      </trkpt>
      <trkpt lat="43.22624" lon="6.27061">
        <ele>152.800003</ele>
        <time>2012-04-18T12:09:35Z</time>
      </trkpt>
      <trkpt lat="43.2263" lon="6.2707">
        <ele>152.699997</ele>
        <time>2012-04-18T12:09:42Z</time>
      </trkpt>
      <trkpt lat="43.22635" lon="6.27078">
        <ele>152.699997</ele>
        <time>2012-04-18T12:09:49Z</time>
      </trkpt>
      <trkpt lat="43.22642" lon="6.27085">
        <ele>151.600006</ele>
        <time>2012-04-18T12:09:56Z</time>
      </trkpt>
      <trkpt lat="43.22643" lon="6.27087">
        <ele>152</ele>
        <time>2012-04-18T12:09:57Z</time>
      </trkpt>
      <trkpt lat="43.22653" lon="6.27101">
        <ele>151.899994</ele>
        <time>2012-04-18T12:10:10Z</time>
      </trkpt>
      <trkpt lat="43.2266" lon="6.27108">
        <ele>151.699997</ele>
        <time>2012-04-18T12:10:16Z</time>
      </trkpt>
      <trkpt lat="43.22665" lon="6.27116">
        <ele>152</ele>
        <time>2012-04-18T12:10:22Z</time>
      </trkpt>
      <trkpt lat="43.22671" lon="6.27124">
        <ele>150.300003</ele>
        <time>2012-04-18T12:10:29Z</time>
      </trkpt>
      <trkpt lat="43.22678" lon="6.27132">
        <ele>150.600006</ele>
        <time>2012-04-18T12:10:36Z</time>
      </trkpt>
      <trkpt lat="43.22684" lon="6.27142">
        <ele>150.5</ele>
        <time>2012-04-18T12:10:43Z</time>
      </trkpt>
      <trkpt lat="43.22689" lon="6.27151">
        <ele>149.699997</ele>
        <time>2012-04-18T12:10:50Z</time>
      </trkpt>
      <trkpt lat="43.22692" lon="6.27161">
        <ele>149.899994</ele>
        <time>2012-04-18T12:10:57Z</time>
      </trkpt>
      <trkpt lat="43.22693" lon="6.27163">
        <ele>149.699997</ele>
        <time>2012-04-18T12:10:58Z</time>
      </trkpt>
      <trkpt lat="43.22699" lon="6.2718">
        <ele>149.800003</ele>
        <time>2012-04-18T12:11:09Z</time>
      </trkpt>
      <trkpt lat="43.22702" lon="6.2719">
        <ele>150.5</ele>
        <time>2012-04-18T12:11:15Z</time>
      </trkpt>
      <trkpt lat="43.22706" lon="6.27201">
        <ele>150</ele>
        <time>2012-04-18T12:11:22Z</time>
      </trkpt>
      <trkpt lat="43.2271" lon="6.27212">
        <ele>149.699997</ele>
        <time>2012-04-18T12:11:29Z</time>
      </trkpt>
      <trkpt lat="43.22714" lon="6.27223">
        <ele>148.800003</ele>
        <time>2012-04-18T12:11:36Z</time>
      </trkpt>
      <trkpt lat="43.22718" lon="6.27233">
        <ele>148.899994</ele>
        <time>2012-04-18T12:11:43Z</time>
      </trkpt>
      <trkpt lat="43.22722" lon="6.27243">
        <ele>148.800003</ele>
        <time>2012-04-18T12:11:50Z</time>
      </trkpt>
      <trkpt lat="43.22725" lon="6.27254">
        <ele>148.300003</ele>
        <time>2012-04-18T12:11:57Z</time>
      </trkpt>
      <trkpt lat="43.22728" lon="6.27264">
        <ele>148.100006</ele>
        <time>2012-04-18T12:12:03Z</time>
      </trkpt>
      <trkpt lat="43.22729" lon="6.27266">
        <ele>147.800003</ele>
        <time>2012-04-18T12:12:04Z</time>
      </trkpt>
      <trkpt lat="43.22735" lon="6.27284">
        <ele>147.899994</ele>
        <time>2012-04-18T12:12:17Z</time>
      </trkpt>
      <trkpt lat="43.22736" lon="6.27295">
        <ele>147.5</ele>
        <time>2012-04-18T12:12:23Z</time>
      </trkpt>
      <trkpt lat="43.2274" lon="6.27305">
        <ele>146.600006</ele>
        <time>2012-04-18T12:12:29Z</time>
      </trkpt>
      <trkpt lat="43.22744" lon="6.27316">
        <ele>147</ele>
        <time>2012-04-18T12:12:36Z</time>
      </trkpt>
      <trkpt lat="43.2275" lon="6.27325">
        <ele>146.699997</ele>
        <time>2012-04-18T12:12:43Z</time>
      </trkpt>
      <trkpt lat="43.22755" lon="6.27335">
        <ele>146.399994</ele>
        <time>2012-04-18T12:12:50Z</time>
      </trkpt>
      <trkpt lat="43.22759" lon="6.27344">
        <ele>145.699997</ele>
        <time>2012-04-18T12:12:57Z</time>
      </trkpt>
      <trkpt lat="43.22765" lon="6.27352">
        <ele>145.699997</ele>
        <time>2012-04-18T12:13:04Z</time>
      </trkpt>
      <trkpt lat="43.22765" lon="6.27353">
        <ele>145.699997</ele>
        <time>2012-04-18T12:13:05Z</time>
      </trkpt>
      <trkpt lat="43.22776" lon="6.2737">
        <ele>145</ele>
        <time>2012-04-18T12:13:18Z</time>
      </trkpt>
      <trkpt lat="43.22783" lon="6.27377">
        <ele>144.600006</ele>
        <time>2012-04-18T12:13:24Z</time>
      </trkpt>
      <trkpt lat="43.2279" lon="6.27384">
        <ele>144.5</ele>
        <time>2012-04-18T12:13:31Z</time>
      </trkpt>
      <trkpt lat="43.22797" lon="6.2739">
        <ele>144.100006</ele>
        <time>2012-04-18T12:13:38Z</time>
      </trkpt>
      <trkpt lat="43.22804" lon="6.27397">
        <ele>143.899994</ele>
        <time>2012-04-18T12:13:45Z</time>
      </trkpt>
      <trkpt lat="43.22811" lon="6.27402">
        <ele>142.800003</ele>
        <time>2012-04-18T12:13:52Z</time>
      </trkpt>
      <trkpt lat="43.22818" lon="6.27406">
        <ele>142.800003</ele>
        <time>2012-04-18T12:13:59Z</time>
      </trkpt>
      <trkpt lat="43.22826" lon="6.2741">
        <ele>142.300003</ele>
        <time>2012-04-18T12:14:05Z</time>
      </trkpt>
      <trkpt lat="43.22827" lon="6.2741">
        <ele>142.199997</ele>
        <time>2012-04-18T12:14:06Z</time>
      </trkpt>
      <trkpt lat="43.22842" lon="6.27414">
        <ele>140.899994</ele>
        <time>2012-04-18T12:14:18Z</time>
      </trkpt>
      <trkpt lat="43.2285" lon="6.27418">
        <ele>140.899994</ele>
        <time>2012-04-18T12:14:25Z</time>
      </trkpt>
      <trkpt lat="43.22858" lon="6.27421">
        <ele>141.300003</ele>
        <time>2012-04-18T12:14:34Z</time>
      </trkpt>
      <trkpt lat="43.22864" lon="6.27427">
        <ele>141.100006</ele>
        <time>2012-04-18T12:14:40Z</time>
      </trkpt>
      <trkpt lat="43.22872" lon="6.27432">
        <ele>140.699997</ele>
        <time>2012-04-18T12:14:47Z</time>
      </trkpt>
      <trkpt lat="43.2288" lon="6.27437">
        <ele>141.100006</ele>
        <time>2012-04-18T12:14:54Z</time>
      </trkpt>
      <trkpt lat="43.22887" lon="6.27443">
        <ele>140.600006</ele>
        <time>2012-04-18T12:15:00Z</time>
      </trkpt>
      <trkpt lat="43.22895" lon="6.27445">
        <ele>140.600006</ele>
        <time>2012-04-18T12:15:08Z</time>
      </trkpt>
      <trkpt lat="43.22896" lon="6.27445">
        <ele>140.600006</ele>
        <time>2012-04-18T12:15:09Z</time>
      </trkpt>
      <trkpt lat="43.22911" lon="6.27435">
        <ele>142</ele>
        <time>2012-04-18T12:15:23Z</time>
      </trkpt>
      <trkpt lat="43.22918" lon="6.27429">
        <ele>142.5</ele>
        <time>2012-04-18T12:15:30Z</time>
      </trkpt>
      <trkpt lat="43.22925" lon="6.27423">
        <ele>143.300003</ele>
        <time>2012-04-18T12:15:39Z</time>
      </trkpt>
      <trkpt lat="43.22931" lon="6.27417">
        <ele>144.199997</ele>
        <time>2012-04-18T12:15:46Z</time>
      </trkpt>
      <trkpt lat="43.22939" lon="6.27416">
        <ele>145.199997</ele>
        <time>2012-04-18T12:15:53Z</time>
      </trkpt>
      <trkpt lat="43.22944" lon="6.27426">
        <ele>145.5</ele>
        <time>2012-04-18T12:16:00Z</time>
      </trkpt>
      <trkpt lat="43.22944" lon="6.27437">
        <ele>145.899994</ele>
        <time>2012-04-18T12:16:08Z</time>
      </trkpt>
      <trkpt lat="43.22939" lon="6.27448">
        <ele>146.199997</ele>
        <time>2012-04-18T12:16:16Z</time>
      </trkpt>
      <trkpt lat="43.22938" lon="6.27449">
        <ele>146.399994</ele>
        <time>2012-04-18T12:16:17Z</time>
      </trkpt>
      <trkpt lat="43.22928" lon="6.27466">
        <ele>148.300003</ele>
        <time>2012-04-18T12:16:31Z</time>
      </trkpt>
      <trkpt lat="43.22925" lon="6.27476">
        <ele>149.199997</ele>
        <time>2012-04-18T12:16:53Z</time>
      </trkpt>
      <trkpt lat="43.22921" lon="6.27485">
        <ele>149.5</ele>
        <time>2012-04-18T12:17:08Z</time>
      </trkpt>
      <trkpt lat="43.22917" lon="6.27497">
        <ele>151.199997</ele>
        <time>2012-04-18T12:17:18Z</time>
      </trkpt>
      <trkpt lat="43.22917" lon="6.27498">
        <ele>151.100006</ele>
        <time>2012-04-18T12:17:19Z</time>
      </trkpt>
      <trkpt lat="43.22914" lon="6.2752">
        <ele>152.399994</ele>
        <time>2012-04-18T12:17:35Z</time>
      </trkpt>
      <trkpt lat="43.22914" lon="6.27532">
        <ele>153.199997</ele>
        <time>2012-04-18T12:17:50Z</time>
      </trkpt>
      <trkpt lat="43.22913" lon="6.27544">
        <ele>153.699997</ele>
        <time>2012-04-18T12:18:19Z</time>
      </trkpt>
      <trkpt lat="43.22914" lon="6.27546">
        <ele>153.899994</ele>
        <time>2012-04-18T12:18:20Z</time>
      </trkpt>
      <trkpt lat="43.22919" lon="6.27566">
        <ele>156</ele>
        <time>2012-04-18T12:18:37Z</time>
      </trkpt>
      <trkpt lat="43.2292" lon="6.27578">
        <ele>156.800003</ele>
        <time>2012-04-18T12:18:47Z</time>
      </trkpt>
      <trkpt lat="43.22922" lon="6.27589">
        <ele>158.199997</ele>
        <time>2012-04-18T12:18:55Z</time>
      </trkpt>
      <trkpt lat="43.22922" lon="6.27601">
        <ele>159</ele>
        <time>2012-04-18T12:19:03Z</time>
      </trkpt>
      <trkpt lat="43.22921" lon="6.27613">
        <ele>159.800003</ele>
        <time>2012-04-18T12:19:12Z</time>
      </trkpt>
      <trkpt lat="43.2292" lon="6.27625">
        <ele>160.199997</ele>
        <time>2012-04-18T12:19:21Z</time>
      </trkpt>
      <trkpt lat="43.2292" lon="6.27626">
        <ele>160.399994</ele>
        <time>2012-04-18T12:19:22Z</time>
      </trkpt>
      <trkpt lat="43.2292" lon="6.27643">
        <ele>166.199997</ele>
        <time>2012-04-18T12:21:25Z</time>
      </trkpt>
      <trkpt lat="43.2292" lon="6.27643">
        <ele>166.199997</ele>
        <time>2012-04-18T12:21:25Z</time>
      </trkpt>
    </trkseg>
  </trk>
</gpx>